<?xml version="1.0" encoding="UTF-8" standalone="no" ?>
<gpx xmlns="http://www.topografix.com/GPX/1/1" xmlns:xsi="http://www.w3.org/2001/XMLSchema-instance" xsi:schemaLocation="http://www.topografix.com/GPX/1/1 http://www.topografix.com/GPX/1/1/gpx.xsd" version="1.1" creator="VisuGPX - https://www.visugpx.com">
  <metadata>
    <name>Chemin de bellevue saint juery</name>
    <desc><![CDATA[Départ de la mairie de SAINT JUERY.....]]></desc>
  </metadata>
  <trk>
    <name><![CDATA[2015-08-15 09:11:57]]></name>
    <trkseg>
      <trkpt lat="43.95014" lon="2.21227">
        <ele>188.56</ele>
        <time>2015-08-15T05:21:16Z</time>
      </trkpt>
      <trkpt lat="43.95017" lon="2.2123">
        <ele>189.04</ele>
        <time>2015-08-15T05:21:21Z</time>
      </trkpt>
      <trkpt lat="43.95021" lon="2.21236">
        <ele>189.52</ele>
        <time>2015-08-15T05:21:26Z</time>
      </trkpt>
      <trkpt lat="43.95027" lon="2.21242">
        <ele>190</ele>
        <time>2015-08-15T05:21:31Z</time>
      </trkpt>
      <trkpt lat="43.95033" lon="2.21249">
        <ele>190.48</ele>
        <time>2015-08-15T05:21:36Z</time>
      </trkpt>
      <trkpt lat="43.95039" lon="2.21255">
        <ele>190.96</ele>
        <time>2015-08-15T05:21:41Z</time>
      </trkpt>
      <trkpt lat="43.95045" lon="2.21263">
        <ele>190</ele>
        <time>2015-08-15T05:21:46Z</time>
      </trkpt>
      <trkpt lat="43.95051" lon="2.21269">
        <ele>188.56</ele>
        <time>2015-08-15T05:21:51Z</time>
      </trkpt>
      <trkpt lat="43.95057" lon="2.21276">
        <ele>188.08</ele>
        <time>2015-08-15T05:21:56Z</time>
      </trkpt>
      <trkpt lat="43.95063" lon="2.21283">
        <ele>188.56</ele>
        <time>2015-08-15T05:22:01Z</time>
      </trkpt>
      <trkpt lat="43.95068" lon="2.2129">
        <ele>188.56</ele>
        <time>2015-08-15T05:22:06Z</time>
      </trkpt>
      <trkpt lat="43.95074" lon="2.21299">
        <ele>187.59</ele>
        <time>2015-08-15T05:22:11Z</time>
      </trkpt>
      <trkpt lat="43.95079" lon="2.21308">
        <ele>188.08</ele>
        <time>2015-08-15T05:22:16Z</time>
      </trkpt>
      <trkpt lat="43.95083" lon="2.21318">
        <ele>188.08</ele>
        <time>2015-08-15T05:22:21Z</time>
      </trkpt>
      <trkpt lat="43.95088" lon="2.21326">
        <ele>188.08</ele>
        <time>2015-08-15T05:22:26Z</time>
      </trkpt>
      <trkpt lat="43.95093" lon="2.21335">
        <ele>187.59</ele>
        <time>2015-08-15T05:22:31Z</time>
      </trkpt>
      <trkpt lat="43.95099" lon="2.21344">
        <ele>187.59</ele>
        <time>2015-08-15T05:22:36Z</time>
      </trkpt>
      <trkpt lat="43.95103" lon="2.21351">
        <ele>187.59</ele>
        <time>2015-08-15T05:22:41Z</time>
      </trkpt>
      <trkpt lat="43.95107" lon="2.2136">
        <ele>186.63</ele>
        <time>2015-08-15T05:22:46Z</time>
      </trkpt>
      <trkpt lat="43.95111" lon="2.21369">
        <ele>186.63</ele>
        <time>2015-08-15T05:22:51Z</time>
      </trkpt>
      <trkpt lat="43.95115" lon="2.21377">
        <ele>188.08</ele>
        <time>2015-08-15T05:22:56Z</time>
      </trkpt>
      <trkpt lat="43.95119" lon="2.21386">
        <ele>189.04</ele>
        <time>2015-08-15T05:23:01Z</time>
      </trkpt>
      <trkpt lat="43.95122" lon="2.21396">
        <ele>189.52</ele>
        <time>2015-08-15T05:23:06Z</time>
      </trkpt>
      <trkpt lat="43.95126" lon="2.21405">
        <ele>189.04</ele>
        <time>2015-08-15T05:23:11Z</time>
      </trkpt>
      <trkpt lat="43.9513" lon="2.21415">
        <ele>190</ele>
        <time>2015-08-15T05:23:16Z</time>
      </trkpt>
      <trkpt lat="43.95133" lon="2.21426">
        <ele>190</ele>
        <time>2015-08-15T05:23:21Z</time>
      </trkpt>
      <trkpt lat="43.95136" lon="2.21435">
        <ele>190</ele>
        <time>2015-08-15T05:23:26Z</time>
      </trkpt>
      <trkpt lat="43.95139" lon="2.21442">
        <ele>190.48</ele>
        <time>2015-08-15T05:23:31Z</time>
      </trkpt>
      <trkpt lat="43.95142" lon="2.2145">
        <ele>190</ele>
        <time>2015-08-15T05:23:36Z</time>
      </trkpt>
      <trkpt lat="43.95144" lon="2.2146">
        <ele>189.04</ele>
        <time>2015-08-15T05:23:41Z</time>
      </trkpt>
      <trkpt lat="43.95148" lon="2.2147">
        <ele>188.56</ele>
        <time>2015-08-15T05:23:46Z</time>
      </trkpt>
      <trkpt lat="43.9515" lon="2.21481">
        <ele>188.08</ele>
        <time>2015-08-15T05:23:51Z</time>
      </trkpt>
      <trkpt lat="43.95153" lon="2.21491">
        <ele>189.52</ele>
        <time>2015-08-15T05:23:56Z</time>
      </trkpt>
      <trkpt lat="43.95155" lon="2.21501">
        <ele>191.44</ele>
        <time>2015-08-15T05:24:01Z</time>
      </trkpt>
      <trkpt lat="43.95157" lon="2.21511">
        <ele>191.92</ele>
        <time>2015-08-15T05:24:06Z</time>
      </trkpt>
      <trkpt lat="43.9516" lon="2.21522">
        <ele>190.96</ele>
        <time>2015-08-15T05:24:11Z</time>
      </trkpt>
      <trkpt lat="43.95162" lon="2.21533">
        <ele>190.48</ele>
        <time>2015-08-15T05:24:16Z</time>
      </trkpt>
      <trkpt lat="43.95164" lon="2.21544">
        <ele>189.52</ele>
        <time>2015-08-15T05:24:21Z</time>
      </trkpt>
      <trkpt lat="43.95165" lon="2.21554">
        <ele>188.56</ele>
        <time>2015-08-15T05:24:26Z</time>
      </trkpt>
      <trkpt lat="43.95168" lon="2.21565">
        <ele>189.52</ele>
        <time>2015-08-15T05:24:31Z</time>
      </trkpt>
      <trkpt lat="43.9517" lon="2.21575">
        <ele>189.04</ele>
        <time>2015-08-15T05:24:36Z</time>
      </trkpt>
      <trkpt lat="43.95173" lon="2.21584">
        <ele>189.04</ele>
        <time>2015-08-15T05:24:41Z</time>
      </trkpt>
      <trkpt lat="43.95175" lon="2.21593">
        <ele>188.56</ele>
        <time>2015-08-15T05:24:46Z</time>
      </trkpt>
      <trkpt lat="43.95178" lon="2.21604">
        <ele>188.56</ele>
        <time>2015-08-15T05:24:51Z</time>
      </trkpt>
      <trkpt lat="43.95182" lon="2.21613">
        <ele>188.08</ele>
        <time>2015-08-15T05:24:56Z</time>
      </trkpt>
      <trkpt lat="43.95185" lon="2.21623">
        <ele>187.11</ele>
        <time>2015-08-15T05:25:01Z</time>
      </trkpt>
      <trkpt lat="43.95187" lon="2.21633">
        <ele>186.15</ele>
        <time>2015-08-15T05:25:06Z</time>
      </trkpt>
      <trkpt lat="43.9519" lon="2.21643">
        <ele>186.15</ele>
        <time>2015-08-15T05:25:11Z</time>
      </trkpt>
      <trkpt lat="43.95192" lon="2.21655">
        <ele>186.63</ele>
        <time>2015-08-15T05:25:16Z</time>
      </trkpt>
      <trkpt lat="43.95194" lon="2.21665">
        <ele>187.59</ele>
        <time>2015-08-15T05:25:21Z</time>
      </trkpt>
      <trkpt lat="43.95196" lon="2.21674">
        <ele>187.11</ele>
        <time>2015-08-15T05:25:26Z</time>
      </trkpt>
      <trkpt lat="43.95198" lon="2.21685">
        <ele>186.15</ele>
        <time>2015-08-15T05:25:31Z</time>
      </trkpt>
      <trkpt lat="43.95199" lon="2.21696">
        <ele>185.19</ele>
        <time>2015-08-15T05:25:36Z</time>
      </trkpt>
      <trkpt lat="43.95201" lon="2.21707">
        <ele>184.71</ele>
        <time>2015-08-15T05:25:41Z</time>
      </trkpt>
      <trkpt lat="43.95203" lon="2.21718">
        <ele>184.71</ele>
        <time>2015-08-15T05:25:46Z</time>
      </trkpt>
      <trkpt lat="43.95204" lon="2.21729">
        <ele>185.19</ele>
        <time>2015-08-15T05:25:51Z</time>
      </trkpt>
      <trkpt lat="43.95206" lon="2.2174">
        <ele>184.71</ele>
        <time>2015-08-15T05:25:56Z</time>
      </trkpt>
      <trkpt lat="43.95208" lon="2.21749">
        <ele>182.79</ele>
        <time>2015-08-15T05:26:01Z</time>
      </trkpt>
      <trkpt lat="43.9521" lon="2.21759">
        <ele>182.31</ele>
        <time>2015-08-15T05:26:06Z</time>
      </trkpt>
      <trkpt lat="43.95211" lon="2.2177">
        <ele>181.83</ele>
        <time>2015-08-15T05:26:11Z</time>
      </trkpt>
      <trkpt lat="43.95211" lon="2.21781">
        <ele>182.31</ele>
        <time>2015-08-15T05:26:16Z</time>
      </trkpt>
      <trkpt lat="43.95214" lon="2.21791">
        <ele>183.75</ele>
        <time>2015-08-15T05:26:21Z</time>
      </trkpt>
      <trkpt lat="43.95215" lon="2.218">
        <ele>184.23</ele>
        <time>2015-08-15T05:26:26Z</time>
      </trkpt>
      <trkpt lat="43.95216" lon="2.21809">
        <ele>184.23</ele>
        <time>2015-08-15T05:26:31Z</time>
      </trkpt>
      <trkpt lat="43.95216" lon="2.2182">
        <ele>183.75</ele>
        <time>2015-08-15T05:26:36Z</time>
      </trkpt>
      <trkpt lat="43.95216" lon="2.21831">
        <ele>183.75</ele>
        <time>2015-08-15T05:26:41Z</time>
      </trkpt>
      <trkpt lat="43.95215" lon="2.21841">
        <ele>183.75</ele>
        <time>2015-08-15T05:26:46Z</time>
      </trkpt>
      <trkpt lat="43.95215" lon="2.21852">
        <ele>184.71</ele>
        <time>2015-08-15T05:26:51Z</time>
      </trkpt>
      <trkpt lat="43.95214" lon="2.21861">
        <ele>185.19</ele>
        <time>2015-08-15T05:26:56Z</time>
      </trkpt>
      <trkpt lat="43.95213" lon="2.21872">
        <ele>186.15</ele>
        <time>2015-08-15T05:27:01Z</time>
      </trkpt>
      <trkpt lat="43.95211" lon="2.21882">
        <ele>186.63</ele>
        <time>2015-08-15T05:27:06Z</time>
      </trkpt>
      <trkpt lat="43.95211" lon="2.21893">
        <ele>187.11</ele>
        <time>2015-08-15T05:27:11Z</time>
      </trkpt>
      <trkpt lat="43.95211" lon="2.21903">
        <ele>187.11</ele>
        <time>2015-08-15T05:27:16Z</time>
      </trkpt>
      <trkpt lat="43.95209" lon="2.21913">
        <ele>187.11</ele>
        <time>2015-08-15T05:27:21Z</time>
      </trkpt>
      <trkpt lat="43.95206" lon="2.21924">
        <ele>187.11</ele>
        <time>2015-08-15T05:27:26Z</time>
      </trkpt>
      <trkpt lat="43.95204" lon="2.21934">
        <ele>186.63</ele>
        <time>2015-08-15T05:27:31Z</time>
      </trkpt>
      <trkpt lat="43.95201" lon="2.21945">
        <ele>185.19</ele>
        <time>2015-08-15T05:27:36Z</time>
      </trkpt>
      <trkpt lat="43.95198" lon="2.21956">
        <ele>183.27</ele>
        <time>2015-08-15T05:27:41Z</time>
      </trkpt>
      <trkpt lat="43.95196" lon="2.21965">
        <ele>180.87</ele>
        <time>2015-08-15T05:27:46Z</time>
      </trkpt>
      <trkpt lat="43.95194" lon="2.21973">
        <ele>179.9</ele>
        <time>2015-08-15T05:27:51Z</time>
      </trkpt>
      <trkpt lat="43.95192" lon="2.21981">
        <ele>177.98</ele>
        <time>2015-08-15T05:27:56Z</time>
      </trkpt>
      <trkpt lat="43.95189" lon="2.21989">
        <ele>177.02</ele>
        <time>2015-08-15T05:28:01Z</time>
      </trkpt>
      <trkpt lat="43.95187" lon="2.21999">
        <ele>176.06</ele>
        <time>2015-08-15T05:28:06Z</time>
      </trkpt>
      <trkpt lat="43.95184" lon="2.22008">
        <ele>175.58</ele>
        <time>2015-08-15T05:28:11Z</time>
      </trkpt>
      <trkpt lat="43.9518" lon="2.22017">
        <ele>176.54</ele>
        <time>2015-08-15T05:28:16Z</time>
      </trkpt>
      <trkpt lat="43.95176" lon="2.22027">
        <ele>177.5</ele>
        <time>2015-08-15T05:28:21Z</time>
      </trkpt>
      <trkpt lat="43.9517" lon="2.22035">
        <ele>177.02</ele>
        <time>2015-08-15T05:28:26Z</time>
      </trkpt>
      <trkpt lat="43.95165" lon="2.22038">
        <ele>176.06</ele>
        <time>2015-08-15T05:28:31Z</time>
      </trkpt>
      <trkpt lat="43.9516" lon="2.22042">
        <ele>175.58</ele>
        <time>2015-08-15T05:28:36Z</time>
      </trkpt>
      <trkpt lat="43.95152" lon="2.22048">
        <ele>175.58</ele>
        <time>2015-08-15T05:28:41Z</time>
      </trkpt>
      <trkpt lat="43.95147" lon="2.22061">
        <ele>175.58</ele>
        <time>2015-08-15T05:28:46Z</time>
      </trkpt>
      <trkpt lat="43.95145" lon="2.22078">
        <ele>175.58</ele>
        <time>2015-08-15T05:28:51Z</time>
      </trkpt>
      <trkpt lat="43.95142" lon="2.22092">
        <ele>175.1</ele>
        <time>2015-08-15T05:28:56Z</time>
      </trkpt>
      <trkpt lat="43.95138" lon="2.22103">
        <ele>174.62</ele>
        <time>2015-08-15T05:29:01Z</time>
      </trkpt>
      <trkpt lat="43.95135" lon="2.22113">
        <ele>175.1</ele>
        <time>2015-08-15T05:29:06Z</time>
      </trkpt>
      <trkpt lat="43.95131" lon="2.22123">
        <ele>175.1</ele>
        <time>2015-08-15T05:29:11Z</time>
      </trkpt>
      <trkpt lat="43.95126" lon="2.2213">
        <ele>175.58</ele>
        <time>2015-08-15T05:29:16Z</time>
      </trkpt>
      <trkpt lat="43.95123" lon="2.22139">
        <ele>176.06</ele>
        <time>2015-08-15T05:29:21Z</time>
      </trkpt>
      <trkpt lat="43.95118" lon="2.22149">
        <ele>176.54</ele>
        <time>2015-08-15T05:29:26Z</time>
      </trkpt>
      <trkpt lat="43.95114" lon="2.22157">
        <ele>176.06</ele>
        <time>2015-08-15T05:29:31Z</time>
      </trkpt>
      <trkpt lat="43.95109" lon="2.22166">
        <ele>176.06</ele>
        <time>2015-08-15T05:29:36Z</time>
      </trkpt>
      <trkpt lat="43.95105" lon="2.22175">
        <ele>176.06</ele>
        <time>2015-08-15T05:29:41Z</time>
      </trkpt>
      <trkpt lat="43.95101" lon="2.22182">
        <ele>176.06</ele>
        <time>2015-08-15T05:29:46Z</time>
      </trkpt>
      <trkpt lat="43.95096" lon="2.22191">
        <ele>175.58</ele>
        <time>2015-08-15T05:29:51Z</time>
      </trkpt>
      <trkpt lat="43.95091" lon="2.22199">
        <ele>175.58</ele>
        <time>2015-08-15T05:29:56Z</time>
      </trkpt>
      <trkpt lat="43.95087" lon="2.22206">
        <ele>175.58</ele>
        <time>2015-08-15T05:30:01Z</time>
      </trkpt>
      <trkpt lat="43.95082" lon="2.22216">
        <ele>177.5</ele>
        <time>2015-08-15T05:30:06Z</time>
      </trkpt>
      <trkpt lat="43.95077" lon="2.22223">
        <ele>178.46</ele>
        <time>2015-08-15T05:30:11Z</time>
      </trkpt>
      <trkpt lat="43.95073" lon="2.22231">
        <ele>179.42</ele>
        <time>2015-08-15T05:30:16Z</time>
      </trkpt>
      <trkpt lat="43.95069" lon="2.22239">
        <ele>180.38</ele>
        <time>2015-08-15T05:30:21Z</time>
      </trkpt>
      <trkpt lat="43.95066" lon="2.22248">
        <ele>181.83</ele>
        <time>2015-08-15T05:30:26Z</time>
      </trkpt>
      <trkpt lat="43.95062" lon="2.22258">
        <ele>182.31</ele>
        <time>2015-08-15T05:30:31Z</time>
      </trkpt>
      <trkpt lat="43.95059" lon="2.22268">
        <ele>181.83</ele>
        <time>2015-08-15T05:30:36Z</time>
      </trkpt>
      <trkpt lat="43.95054" lon="2.22276">
        <ele>181.35</ele>
        <time>2015-08-15T05:30:41Z</time>
      </trkpt>
      <trkpt lat="43.95051" lon="2.22285">
        <ele>180.87</ele>
        <time>2015-08-15T05:30:46Z</time>
      </trkpt>
      <trkpt lat="43.95049" lon="2.22294">
        <ele>182.31</ele>
        <time>2015-08-15T05:30:51Z</time>
      </trkpt>
      <trkpt lat="43.95046" lon="2.22304">
        <ele>183.27</ele>
        <time>2015-08-15T05:30:56Z</time>
      </trkpt>
      <trkpt lat="43.95044" lon="2.22315">
        <ele>184.71</ele>
        <time>2015-08-15T05:31:01Z</time>
      </trkpt>
      <trkpt lat="43.95041" lon="2.22325">
        <ele>186.15</ele>
        <time>2015-08-15T05:31:06Z</time>
      </trkpt>
      <trkpt lat="43.95036" lon="2.22336">
        <ele>185.67</ele>
        <time>2015-08-15T05:31:11Z</time>
      </trkpt>
      <trkpt lat="43.95032" lon="2.22346">
        <ele>185.67</ele>
        <time>2015-08-15T05:31:16Z</time>
      </trkpt>
      <trkpt lat="43.9503" lon="2.22357">
        <ele>186.15</ele>
        <time>2015-08-15T05:31:21Z</time>
      </trkpt>
      <trkpt lat="43.95028" lon="2.22367">
        <ele>185.67</ele>
        <time>2015-08-15T05:31:26Z</time>
      </trkpt>
      <trkpt lat="43.95028" lon="2.22378">
        <ele>184.71</ele>
        <time>2015-08-15T05:31:31Z</time>
      </trkpt>
      <trkpt lat="43.95026" lon="2.22389">
        <ele>183.75</ele>
        <time>2015-08-15T05:31:36Z</time>
      </trkpt>
      <trkpt lat="43.95024" lon="2.224">
        <ele>182.79</ele>
        <time>2015-08-15T05:31:41Z</time>
      </trkpt>
      <trkpt lat="43.95021" lon="2.22411">
        <ele>181.83</ele>
        <time>2015-08-15T05:31:46Z</time>
      </trkpt>
      <trkpt lat="43.95019" lon="2.22423">
        <ele>179.9</ele>
        <time>2015-08-15T05:31:51Z</time>
      </trkpt>
      <trkpt lat="43.95017" lon="2.22433">
        <ele>177.98</ele>
        <time>2015-08-15T05:31:56Z</time>
      </trkpt>
      <trkpt lat="43.95015" lon="2.22442">
        <ele>175.58</ele>
        <time>2015-08-15T05:32:01Z</time>
      </trkpt>
      <trkpt lat="43.95013" lon="2.22452">
        <ele>175.1</ele>
        <time>2015-08-15T05:32:06Z</time>
      </trkpt>
      <trkpt lat="43.95012" lon="2.22461">
        <ele>174.14</ele>
        <time>2015-08-15T05:32:11Z</time>
      </trkpt>
      <trkpt lat="43.95011" lon="2.22472">
        <ele>173.17</ele>
        <time>2015-08-15T05:32:16Z</time>
      </trkpt>
      <trkpt lat="43.95009" lon="2.22483">
        <ele>172.21</ele>
        <time>2015-08-15T05:32:21Z</time>
      </trkpt>
      <trkpt lat="43.95008" lon="2.22494">
        <ele>171.73</ele>
        <time>2015-08-15T05:32:26Z</time>
      </trkpt>
      <trkpt lat="43.95008" lon="2.22508">
        <ele>172.69</ele>
        <time>2015-08-15T05:32:31Z</time>
      </trkpt>
      <trkpt lat="43.95008" lon="2.2252">
        <ele>173.17</ele>
        <time>2015-08-15T05:32:36Z</time>
      </trkpt>
      <trkpt lat="43.95008" lon="2.22533">
        <ele>173.66</ele>
        <time>2015-08-15T05:32:41Z</time>
      </trkpt>
      <trkpt lat="43.95007" lon="2.22545">
        <ele>175.1</ele>
        <time>2015-08-15T05:32:46Z</time>
      </trkpt>
      <trkpt lat="43.95007" lon="2.22556">
        <ele>175.58</ele>
        <time>2015-08-15T05:32:51Z</time>
      </trkpt>
      <trkpt lat="43.95005" lon="2.22567">
        <ele>177.98</ele>
        <time>2015-08-15T05:32:56Z</time>
      </trkpt>
      <trkpt lat="43.95004" lon="2.22578">
        <ele>179.9</ele>
        <time>2015-08-15T05:33:01Z</time>
      </trkpt>
      <trkpt lat="43.95004" lon="2.22589">
        <ele>182.31</ele>
        <time>2015-08-15T05:33:06Z</time>
      </trkpt>
      <trkpt lat="43.95004" lon="2.226">
        <ele>182.79</ele>
        <time>2015-08-15T05:33:11Z</time>
      </trkpt>
      <trkpt lat="43.95005" lon="2.22611">
        <ele>182.79</ele>
        <time>2015-08-15T05:33:16Z</time>
      </trkpt>
      <trkpt lat="43.95005" lon="2.22621">
        <ele>182.31</ele>
        <time>2015-08-15T05:33:21Z</time>
      </trkpt>
      <trkpt lat="43.95006" lon="2.22632">
        <ele>180.87</ele>
        <time>2015-08-15T05:33:26Z</time>
      </trkpt>
      <trkpt lat="43.95007" lon="2.22642">
        <ele>179.9</ele>
        <time>2015-08-15T05:33:31Z</time>
      </trkpt>
      <trkpt lat="43.95007" lon="2.22653">
        <ele>180.87</ele>
        <time>2015-08-15T05:33:36Z</time>
      </trkpt>
      <trkpt lat="43.95007" lon="2.22663">
        <ele>181.83</ele>
        <time>2015-08-15T05:33:41Z</time>
      </trkpt>
      <trkpt lat="43.95007" lon="2.22673">
        <ele>182.31</ele>
        <time>2015-08-15T05:33:46Z</time>
      </trkpt>
      <trkpt lat="43.95008" lon="2.22683">
        <ele>183.75</ele>
        <time>2015-08-15T05:33:51Z</time>
      </trkpt>
      <trkpt lat="43.95008" lon="2.22693">
        <ele>184.71</ele>
        <time>2015-08-15T05:33:56Z</time>
      </trkpt>
      <trkpt lat="43.95009" lon="2.22702">
        <ele>184.71</ele>
        <time>2015-08-15T05:34:01Z</time>
      </trkpt>
      <trkpt lat="43.95009" lon="2.22712">
        <ele>183.27</ele>
        <time>2015-08-15T05:34:06Z</time>
      </trkpt>
      <trkpt lat="43.95009" lon="2.22724">
        <ele>181.83</ele>
        <time>2015-08-15T05:34:11Z</time>
      </trkpt>
      <trkpt lat="43.9501" lon="2.22736">
        <ele>179.9</ele>
        <time>2015-08-15T05:34:16Z</time>
      </trkpt>
      <trkpt lat="43.9501" lon="2.22746">
        <ele>178.46</ele>
        <time>2015-08-15T05:34:21Z</time>
      </trkpt>
      <trkpt lat="43.9501" lon="2.22757">
        <ele>177.5</ele>
        <time>2015-08-15T05:34:26Z</time>
      </trkpt>
      <trkpt lat="43.95006" lon="2.22767">
        <ele>177.02</ele>
        <time>2015-08-15T05:34:31Z</time>
      </trkpt>
      <trkpt lat="43.95002" lon="2.22776">
        <ele>177.02</ele>
        <time>2015-08-15T05:34:36Z</time>
      </trkpt>
      <trkpt lat="43.94996" lon="2.22784">
        <ele>177.5</ele>
        <time>2015-08-15T05:34:41Z</time>
      </trkpt>
      <trkpt lat="43.94991" lon="2.22789">
        <ele>177.98</ele>
        <time>2015-08-15T05:34:46Z</time>
      </trkpt>
      <trkpt lat="43.94985" lon="2.22794">
        <ele>177.98</ele>
        <time>2015-08-15T05:34:51Z</time>
      </trkpt>
      <trkpt lat="43.94979" lon="2.22797">
        <ele>177.02</ele>
        <time>2015-08-15T05:34:56Z</time>
      </trkpt>
      <trkpt lat="43.94973" lon="2.22802">
        <ele>177.5</ele>
        <time>2015-08-15T05:35:01Z</time>
      </trkpt>
      <trkpt lat="43.94968" lon="2.22805">
        <ele>177.5</ele>
        <time>2015-08-15T05:35:06Z</time>
      </trkpt>
      <trkpt lat="43.94963" lon="2.22808">
        <ele>178.46</ele>
        <time>2015-08-15T05:35:11Z</time>
      </trkpt>
      <trkpt lat="43.94956" lon="2.22811">
        <ele>179.9</ele>
        <time>2015-08-15T05:35:16Z</time>
      </trkpt>
      <trkpt lat="43.9495" lon="2.22812">
        <ele>180.38</ele>
        <time>2015-08-15T05:35:21Z</time>
      </trkpt>
      <trkpt lat="43.94944" lon="2.22813">
        <ele>180.38</ele>
        <time>2015-08-15T05:35:26Z</time>
      </trkpt>
      <trkpt lat="43.94937" lon="2.22814">
        <ele>179.9</ele>
        <time>2015-08-15T05:35:31Z</time>
      </trkpt>
      <trkpt lat="43.94931" lon="2.22816">
        <ele>179.42</ele>
        <time>2015-08-15T05:35:36Z</time>
      </trkpt>
      <trkpt lat="43.94925" lon="2.22818">
        <ele>178.46</ele>
        <time>2015-08-15T05:35:41Z</time>
      </trkpt>
      <trkpt lat="43.94918" lon="2.2282">
        <ele>178.46</ele>
        <time>2015-08-15T05:35:46Z</time>
      </trkpt>
      <trkpt lat="43.94912" lon="2.22823">
        <ele>178.46</ele>
        <time>2015-08-15T05:35:51Z</time>
      </trkpt>
      <trkpt lat="43.94906" lon="2.22826">
        <ele>178.46</ele>
        <time>2015-08-15T05:35:56Z</time>
      </trkpt>
      <trkpt lat="43.94898" lon="2.22829">
        <ele>177.98</ele>
        <time>2015-08-15T05:36:01Z</time>
      </trkpt>
      <trkpt lat="43.94892" lon="2.22833">
        <ele>177.5</ele>
        <time>2015-08-15T05:36:06Z</time>
      </trkpt>
      <trkpt lat="43.94887" lon="2.22838">
        <ele>175.58</ele>
        <time>2015-08-15T05:36:11Z</time>
      </trkpt>
      <trkpt lat="43.94882" lon="2.22842">
        <ele>175.1</ele>
        <time>2015-08-15T05:36:16Z</time>
      </trkpt>
      <trkpt lat="43.94876" lon="2.22846">
        <ele>174.14</ele>
        <time>2015-08-15T05:36:21Z</time>
      </trkpt>
      <trkpt lat="43.94871" lon="2.22849">
        <ele>173.66</ele>
        <time>2015-08-15T05:36:26Z</time>
      </trkpt>
      <trkpt lat="43.94865" lon="2.22852">
        <ele>175.1</ele>
        <time>2015-08-15T05:36:31Z</time>
      </trkpt>
      <trkpt lat="43.9486" lon="2.22858">
        <ele>176.54</ele>
        <time>2015-08-15T05:36:36Z</time>
      </trkpt>
      <trkpt lat="43.94854" lon="2.22864">
        <ele>178.46</ele>
        <time>2015-08-15T05:36:41Z</time>
      </trkpt>
      <trkpt lat="43.94848" lon="2.22871">
        <ele>179.42</ele>
        <time>2015-08-15T05:36:46Z</time>
      </trkpt>
      <trkpt lat="43.94842" lon="2.22876">
        <ele>179.9</ele>
        <time>2015-08-15T05:36:51Z</time>
      </trkpt>
      <trkpt lat="43.94836" lon="2.22879">
        <ele>179.9</ele>
        <time>2015-08-15T05:36:56Z</time>
      </trkpt>
      <trkpt lat="43.9483" lon="2.22885">
        <ele>179.9</ele>
        <time>2015-08-15T05:37:01Z</time>
      </trkpt>
      <trkpt lat="43.94823" lon="2.22892">
        <ele>180.87</ele>
        <time>2015-08-15T05:37:06Z</time>
      </trkpt>
      <trkpt lat="43.94817" lon="2.22899">
        <ele>181.35</ele>
        <time>2015-08-15T05:37:11Z</time>
      </trkpt>
      <trkpt lat="43.94812" lon="2.22903">
        <ele>182.31</ele>
        <time>2015-08-15T05:37:16Z</time>
      </trkpt>
      <trkpt lat="43.94806" lon="2.22906">
        <ele>183.27</ele>
        <time>2015-08-15T05:37:21Z</time>
      </trkpt>
      <trkpt lat="43.948" lon="2.22911">
        <ele>184.71</ele>
        <time>2015-08-15T05:37:26Z</time>
      </trkpt>
      <trkpt lat="43.94795" lon="2.22915">
        <ele>186.63</ele>
        <time>2015-08-15T05:37:31Z</time>
      </trkpt>
      <trkpt lat="43.94791" lon="2.22921">
        <ele>188.56</ele>
        <time>2015-08-15T05:37:36Z</time>
      </trkpt>
      <trkpt lat="43.94787" lon="2.22929">
        <ele>190</ele>
        <time>2015-08-15T05:37:41Z</time>
      </trkpt>
      <trkpt lat="43.94784" lon="2.22937">
        <ele>191.44</ele>
        <time>2015-08-15T05:37:46Z</time>
      </trkpt>
      <trkpt lat="43.9478" lon="2.22947">
        <ele>192.88</ele>
        <time>2015-08-15T05:37:51Z</time>
      </trkpt>
      <trkpt lat="43.94777" lon="2.22956">
        <ele>192.88</ele>
        <time>2015-08-15T05:37:56Z</time>
      </trkpt>
      <trkpt lat="43.94773" lon="2.22965">
        <ele>192.4</ele>
        <time>2015-08-15T05:38:01Z</time>
      </trkpt>
      <trkpt lat="43.94771" lon="2.22973">
        <ele>192.4</ele>
        <time>2015-08-15T05:38:06Z</time>
      </trkpt>
      <trkpt lat="43.94767" lon="2.22983">
        <ele>193.36</ele>
        <time>2015-08-15T05:38:11Z</time>
      </trkpt>
      <trkpt lat="43.94764" lon="2.22992">
        <ele>193.84</ele>
        <time>2015-08-15T05:38:16Z</time>
      </trkpt>
      <trkpt lat="43.9476" lon="2.23">
        <ele>193.36</ele>
        <time>2015-08-15T05:38:21Z</time>
      </trkpt>
      <trkpt lat="43.94754" lon="2.2301">
        <ele>193.36</ele>
        <time>2015-08-15T05:38:26Z</time>
      </trkpt>
      <trkpt lat="43.94748" lon="2.2302">
        <ele>195.77</ele>
        <time>2015-08-15T05:38:31Z</time>
      </trkpt>
      <trkpt lat="43.94741" lon="2.23026">
        <ele>196.73</ele>
        <time>2015-08-15T05:38:36Z</time>
      </trkpt>
      <trkpt lat="43.94735" lon="2.23031">
        <ele>198.65</ele>
        <time>2015-08-15T05:38:41Z</time>
      </trkpt>
      <trkpt lat="43.94731" lon="2.23035">
        <ele>200.09</ele>
        <time>2015-08-15T05:38:46Z</time>
      </trkpt>
      <trkpt lat="43.94726" lon="2.23037">
        <ele>201.05</ele>
        <time>2015-08-15T05:38:51Z</time>
      </trkpt>
      <trkpt lat="43.9472" lon="2.2304">
        <ele>202.98</ele>
        <time>2015-08-15T05:38:56Z</time>
      </trkpt>
      <trkpt lat="43.94715" lon="2.23045">
        <ele>204.42</ele>
        <time>2015-08-15T05:39:01Z</time>
      </trkpt>
      <trkpt lat="43.94708" lon="2.23049">
        <ele>205.86</ele>
        <time>2015-08-15T05:39:06Z</time>
      </trkpt>
      <trkpt lat="43.94703" lon="2.23051">
        <ele>206.34</ele>
        <time>2015-08-15T05:39:11Z</time>
      </trkpt>
      <trkpt lat="43.94696" lon="2.23052">
        <ele>207.78</ele>
        <time>2015-08-15T05:39:16Z</time>
      </trkpt>
      <trkpt lat="43.9469" lon="2.23055">
        <ele>210.19</ele>
        <time>2015-08-15T05:39:21Z</time>
      </trkpt>
      <trkpt lat="43.94683" lon="2.23059">
        <ele>212.59</ele>
        <time>2015-08-15T05:39:26Z</time>
      </trkpt>
      <trkpt lat="43.94677" lon="2.23061">
        <ele>214.03</ele>
        <time>2015-08-15T05:39:31Z</time>
      </trkpt>
      <trkpt lat="43.94669" lon="2.23061">
        <ele>214.51</ele>
        <time>2015-08-15T05:39:36Z</time>
      </trkpt>
      <trkpt lat="43.94663" lon="2.23057">
        <ele>214.99</ele>
        <time>2015-08-15T05:39:41Z</time>
      </trkpt>
      <trkpt lat="43.94659" lon="2.23052">
        <ele>215.47</ele>
        <time>2015-08-15T05:39:46Z</time>
      </trkpt>
      <trkpt lat="43.94654" lon="2.23045">
        <ele>216.43</ele>
        <time>2015-08-15T05:39:51Z</time>
      </trkpt>
      <trkpt lat="43.9465" lon="2.23037">
        <ele>217.88</ele>
        <time>2015-08-15T05:39:56Z</time>
      </trkpt>
      <trkpt lat="43.94646" lon="2.23028">
        <ele>219.32</ele>
        <time>2015-08-15T05:40:01Z</time>
      </trkpt>
      <trkpt lat="43.94644" lon="2.23019">
        <ele>219.32</ele>
        <time>2015-08-15T05:40:06Z</time>
      </trkpt>
      <trkpt lat="43.94642" lon="2.23009">
        <ele>218.84</ele>
        <time>2015-08-15T05:40:11Z</time>
      </trkpt>
      <trkpt lat="43.94641" lon="2.22999">
        <ele>218.36</ele>
        <time>2015-08-15T05:40:16Z</time>
      </trkpt>
      <trkpt lat="43.94639" lon="2.22988">
        <ele>217.88</ele>
        <time>2015-08-15T05:40:21Z</time>
      </trkpt>
      <trkpt lat="43.94637" lon="2.22977">
        <ele>217.88</ele>
        <time>2015-08-15T05:40:26Z</time>
      </trkpt>
      <trkpt lat="43.94635" lon="2.22966">
        <ele>219.8</ele>
        <time>2015-08-15T05:40:31Z</time>
      </trkpt>
      <trkpt lat="43.94633" lon="2.22956">
        <ele>221.72</ele>
        <time>2015-08-15T05:40:36Z</time>
      </trkpt>
      <trkpt lat="43.94632" lon="2.22946">
        <ele>223.64</ele>
        <time>2015-08-15T05:40:41Z</time>
      </trkpt>
      <trkpt lat="43.94629" lon="2.22936">
        <ele>225.57</ele>
        <time>2015-08-15T05:40:46Z</time>
      </trkpt>
      <trkpt lat="43.94627" lon="2.22925">
        <ele>227.01</ele>
        <time>2015-08-15T05:40:51Z</time>
      </trkpt>
      <trkpt lat="43.94623" lon="2.22915">
        <ele>227.01</ele>
        <time>2015-08-15T05:40:56Z</time>
      </trkpt>
      <trkpt lat="43.9462" lon="2.22907">
        <ele>226.53</ele>
        <time>2015-08-15T05:41:01Z</time>
      </trkpt>
      <trkpt lat="43.94615" lon="2.229">
        <ele>226.05</ele>
        <time>2015-08-15T05:41:06Z</time>
      </trkpt>
      <trkpt lat="43.94611" lon="2.22894">
        <ele>226.05</ele>
        <time>2015-08-15T05:41:11Z</time>
      </trkpt>
      <trkpt lat="43.94606" lon="2.22886">
        <ele>226.53</ele>
        <time>2015-08-15T05:41:16Z</time>
      </trkpt>
      <trkpt lat="43.94601" lon="2.2288">
        <ele>227.49</ele>
        <time>2015-08-15T05:41:21Z</time>
      </trkpt>
      <trkpt lat="43.94595" lon="2.22874">
        <ele>228.45</ele>
        <time>2015-08-15T05:41:26Z</time>
      </trkpt>
      <trkpt lat="43.94589" lon="2.22868">
        <ele>228.45</ele>
        <time>2015-08-15T05:41:31Z</time>
      </trkpt>
      <trkpt lat="43.94583" lon="2.22863">
        <ele>228.93</ele>
        <time>2015-08-15T05:41:36Z</time>
      </trkpt>
      <trkpt lat="43.94575" lon="2.22859">
        <ele>229.41</ele>
        <time>2015-08-15T05:41:41Z</time>
      </trkpt>
      <trkpt lat="43.94569" lon="2.22855">
        <ele>229.89</ele>
        <time>2015-08-15T05:41:46Z</time>
      </trkpt>
      <trkpt lat="43.94563" lon="2.22853">
        <ele>230.85</ele>
        <time>2015-08-15T05:41:51Z</time>
      </trkpt>
      <trkpt lat="43.94556" lon="2.22851">
        <ele>230.85</ele>
        <time>2015-08-15T05:41:56Z</time>
      </trkpt>
      <trkpt lat="43.94549" lon="2.22854">
        <ele>231.33</ele>
        <time>2015-08-15T05:42:01Z</time>
      </trkpt>
      <trkpt lat="43.94548" lon="2.22861">
        <ele>230.85</ele>
        <time>2015-08-15T05:42:06Z</time>
      </trkpt>
      <trkpt lat="43.94549" lon="2.2287">
        <ele>230.37</ele>
        <time>2015-08-15T05:42:11Z</time>
      </trkpt>
      <trkpt lat="43.9455" lon="2.22879">
        <ele>230.37</ele>
        <time>2015-08-15T05:42:16Z</time>
      </trkpt>
      <trkpt lat="43.9455" lon="2.22889">
        <ele>229.89</ele>
        <time>2015-08-15T05:42:21Z</time>
      </trkpt>
      <trkpt lat="43.94549" lon="2.22899">
        <ele>229.89</ele>
        <time>2015-08-15T05:42:26Z</time>
      </trkpt>
      <trkpt lat="43.94549" lon="2.22909">
        <ele>228.45</ele>
        <time>2015-08-15T05:42:31Z</time>
      </trkpt>
      <trkpt lat="43.94549" lon="2.2292">
        <ele>227.49</ele>
        <time>2015-08-15T05:42:36Z</time>
      </trkpt>
      <trkpt lat="43.94549" lon="2.22932">
        <ele>226.53</ele>
        <time>2015-08-15T05:42:41Z</time>
      </trkpt>
      <trkpt lat="43.94548" lon="2.22945">
        <ele>226.05</ele>
        <time>2015-08-15T05:42:46Z</time>
      </trkpt>
      <trkpt lat="43.94547" lon="2.22955">
        <ele>226.05</ele>
        <time>2015-08-15T05:42:51Z</time>
      </trkpt>
      <trkpt lat="43.94546" lon="2.22966">
        <ele>226.05</ele>
        <time>2015-08-15T05:42:56Z</time>
      </trkpt>
      <trkpt lat="43.94546" lon="2.22978">
        <ele>227.01</ele>
        <time>2015-08-15T05:43:01Z</time>
      </trkpt>
      <trkpt lat="43.94545" lon="2.2299">
        <ele>227.97</ele>
        <time>2015-08-15T05:43:06Z</time>
      </trkpt>
      <trkpt lat="43.94543" lon="2.23001">
        <ele>227.97</ele>
        <time>2015-08-15T05:43:11Z</time>
      </trkpt>
      <trkpt lat="43.94541" lon="2.23011">
        <ele>228.45</ele>
        <time>2015-08-15T05:43:16Z</time>
      </trkpt>
      <trkpt lat="43.94539" lon="2.23021">
        <ele>227.97</ele>
        <time>2015-08-15T05:43:21Z</time>
      </trkpt>
      <trkpt lat="43.94536" lon="2.23033">
        <ele>227.97</ele>
        <time>2015-08-15T05:43:26Z</time>
      </trkpt>
      <trkpt lat="43.94534" lon="2.23043">
        <ele>227.97</ele>
        <time>2015-08-15T05:43:31Z</time>
      </trkpt>
      <trkpt lat="43.94531" lon="2.23053">
        <ele>228.93</ele>
        <time>2015-08-15T05:43:36Z</time>
      </trkpt>
      <trkpt lat="43.94528" lon="2.23063">
        <ele>229.89</ele>
        <time>2015-08-15T05:43:41Z</time>
      </trkpt>
      <trkpt lat="43.94526" lon="2.23073">
        <ele>230.37</ele>
        <time>2015-08-15T05:43:46Z</time>
      </trkpt>
      <trkpt lat="43.94524" lon="2.23082">
        <ele>230.85</ele>
        <time>2015-08-15T05:43:51Z</time>
      </trkpt>
      <trkpt lat="43.94522" lon="2.23093">
        <ele>230.37</ele>
        <time>2015-08-15T05:43:56Z</time>
      </trkpt>
      <trkpt lat="43.9452" lon="2.23104">
        <ele>230.37</ele>
        <time>2015-08-15T05:44:01Z</time>
      </trkpt>
      <trkpt lat="43.94517" lon="2.23114">
        <ele>230.37</ele>
        <time>2015-08-15T05:44:06Z</time>
      </trkpt>
      <trkpt lat="43.94514" lon="2.23125">
        <ele>230.85</ele>
        <time>2015-08-15T05:44:11Z</time>
      </trkpt>
      <trkpt lat="43.94511" lon="2.23135">
        <ele>230.37</ele>
        <time>2015-08-15T05:44:16Z</time>
      </trkpt>
      <trkpt lat="43.94509" lon="2.23145">
        <ele>229.89</ele>
        <time>2015-08-15T05:44:21Z</time>
      </trkpt>
      <trkpt lat="43.94505" lon="2.23155">
        <ele>229.41</ele>
        <time>2015-08-15T05:44:26Z</time>
      </trkpt>
      <trkpt lat="43.94502" lon="2.23164">
        <ele>230.37</ele>
        <time>2015-08-15T05:44:31Z</time>
      </trkpt>
      <trkpt lat="43.94497" lon="2.23173">
        <ele>231.33</ele>
        <time>2015-08-15T05:44:36Z</time>
      </trkpt>
      <trkpt lat="43.94494" lon="2.23182">
        <ele>231.81</ele>
        <time>2015-08-15T05:44:41Z</time>
      </trkpt>
      <trkpt lat="43.9449" lon="2.23192">
        <ele>230.85</ele>
        <time>2015-08-15T05:44:46Z</time>
      </trkpt>
      <trkpt lat="43.94486" lon="2.23202">
        <ele>230.85</ele>
        <time>2015-08-15T05:44:51Z</time>
      </trkpt>
      <trkpt lat="43.94482" lon="2.23212">
        <ele>231.33</ele>
        <time>2015-08-15T05:44:56Z</time>
      </trkpt>
      <trkpt lat="43.94478" lon="2.23221">
        <ele>232.3</ele>
        <time>2015-08-15T05:45:01Z</time>
      </trkpt>
      <trkpt lat="43.94475" lon="2.2323">
        <ele>232.78</ele>
        <time>2015-08-15T05:45:06Z</time>
      </trkpt>
      <trkpt lat="43.94471" lon="2.2324">
        <ele>231.81</ele>
        <time>2015-08-15T05:45:11Z</time>
      </trkpt>
      <trkpt lat="43.94468" lon="2.2325">
        <ele>231.81</ele>
        <time>2015-08-15T05:45:16Z</time>
      </trkpt>
      <trkpt lat="43.94464" lon="2.23259">
        <ele>232.78</ele>
        <time>2015-08-15T05:45:21Z</time>
      </trkpt>
      <trkpt lat="43.9446" lon="2.23269">
        <ele>232.78</ele>
        <time>2015-08-15T05:45:26Z</time>
      </trkpt>
      <trkpt lat="43.94457" lon="2.2328">
        <ele>232.78</ele>
        <time>2015-08-15T05:45:31Z</time>
      </trkpt>
      <trkpt lat="43.94455" lon="2.2329">
        <ele>233.26</ele>
        <time>2015-08-15T05:45:36Z</time>
      </trkpt>
      <trkpt lat="43.94453" lon="2.233">
        <ele>233.74</ele>
        <time>2015-08-15T05:45:41Z</time>
      </trkpt>
      <trkpt lat="43.94451" lon="2.2331">
        <ele>232.3</ele>
        <time>2015-08-15T05:45:46Z</time>
      </trkpt>
      <trkpt lat="43.94448" lon="2.23321">
        <ele>231.33</ele>
        <time>2015-08-15T05:45:51Z</time>
      </trkpt>
      <trkpt lat="43.94446" lon="2.2333">
        <ele>231.81</ele>
        <time>2015-08-15T05:45:56Z</time>
      </trkpt>
      <trkpt lat="43.94444" lon="2.2334">
        <ele>233.26</ele>
        <time>2015-08-15T05:46:01Z</time>
      </trkpt>
      <trkpt lat="43.94442" lon="2.23351">
        <ele>233.74</ele>
        <time>2015-08-15T05:46:06Z</time>
      </trkpt>
      <trkpt lat="43.9444" lon="2.23362">
        <ele>233.74</ele>
        <time>2015-08-15T05:46:11Z</time>
      </trkpt>
      <trkpt lat="43.94438" lon="2.23373">
        <ele>233.26</ele>
        <time>2015-08-15T05:46:16Z</time>
      </trkpt>
      <trkpt lat="43.94437" lon="2.23383">
        <ele>232.78</ele>
        <time>2015-08-15T05:46:21Z</time>
      </trkpt>
      <trkpt lat="43.94434" lon="2.23393">
        <ele>232.3</ele>
        <time>2015-08-15T05:46:26Z</time>
      </trkpt>
      <trkpt lat="43.94432" lon="2.23402">
        <ele>232.78</ele>
        <time>2015-08-15T05:46:31Z</time>
      </trkpt>
      <trkpt lat="43.94431" lon="2.23411">
        <ele>233.26</ele>
        <time>2015-08-15T05:46:36Z</time>
      </trkpt>
      <trkpt lat="43.94431" lon="2.2342">
        <ele>233.74</ele>
        <time>2015-08-15T05:46:41Z</time>
      </trkpt>
      <trkpt lat="43.94437" lon="2.23426">
        <ele>234.22</ele>
        <time>2015-08-15T05:46:46Z</time>
      </trkpt>
      <trkpt lat="43.94439" lon="2.23433">
        <ele>234.7</ele>
        <time>2015-08-15T05:46:51Z</time>
      </trkpt>
      <trkpt lat="43.94433" lon="2.23441">
        <ele>234.22</ele>
        <time>2015-08-15T05:46:56Z</time>
      </trkpt>
      <trkpt lat="43.94426" lon="2.23447">
        <ele>234.22</ele>
        <time>2015-08-15T05:47:01Z</time>
      </trkpt>
      <trkpt lat="43.94418" lon="2.23451">
        <ele>233.74</ele>
        <time>2015-08-15T05:47:06Z</time>
      </trkpt>
      <trkpt lat="43.94411" lon="2.23456">
        <ele>233.74</ele>
        <time>2015-08-15T05:47:11Z</time>
      </trkpt>
      <trkpt lat="43.94404" lon="2.2346">
        <ele>233.74</ele>
        <time>2015-08-15T05:47:16Z</time>
      </trkpt>
      <trkpt lat="43.94397" lon="2.23464">
        <ele>233.74</ele>
        <time>2015-08-15T05:47:21Z</time>
      </trkpt>
      <trkpt lat="43.94389" lon="2.23467">
        <ele>233.74</ele>
        <time>2015-08-15T05:47:26Z</time>
      </trkpt>
      <trkpt lat="43.94382" lon="2.2347">
        <ele>233.74</ele>
        <time>2015-08-15T05:47:31Z</time>
      </trkpt>
      <trkpt lat="43.94374" lon="2.23472">
        <ele>233.26</ele>
        <time>2015-08-15T05:47:36Z</time>
      </trkpt>
      <trkpt lat="43.94366" lon="2.23475">
        <ele>233.26</ele>
        <time>2015-08-15T05:47:41Z</time>
      </trkpt>
      <trkpt lat="43.94358" lon="2.23478">
        <ele>233.74</ele>
        <time>2015-08-15T05:47:46Z</time>
      </trkpt>
      <trkpt lat="43.94351" lon="2.2348">
        <ele>234.22</ele>
        <time>2015-08-15T05:47:51Z</time>
      </trkpt>
      <trkpt lat="43.94344" lon="2.23482">
        <ele>234.22</ele>
        <time>2015-08-15T05:47:56Z</time>
      </trkpt>
      <trkpt lat="43.94337" lon="2.23484">
        <ele>234.22</ele>
        <time>2015-08-15T05:48:01Z</time>
      </trkpt>
      <trkpt lat="43.94329" lon="2.23487">
        <ele>234.22</ele>
        <time>2015-08-15T05:48:06Z</time>
      </trkpt>
      <trkpt lat="43.94321" lon="2.23489">
        <ele>233.74</ele>
        <time>2015-08-15T05:48:11Z</time>
      </trkpt>
      <trkpt lat="43.94313" lon="2.2349">
        <ele>234.7</ele>
        <time>2015-08-15T05:48:16Z</time>
      </trkpt>
      <trkpt lat="43.94306" lon="2.23492">
        <ele>235.18</ele>
        <time>2015-08-15T05:48:21Z</time>
      </trkpt>
      <trkpt lat="43.94298" lon="2.23496">
        <ele>234.22</ele>
        <time>2015-08-15T05:48:26Z</time>
      </trkpt>
      <trkpt lat="43.9429" lon="2.23499">
        <ele>234.22</ele>
        <time>2015-08-15T05:48:31Z</time>
      </trkpt>
      <trkpt lat="43.94284" lon="2.23504">
        <ele>234.7</ele>
        <time>2015-08-15T05:48:36Z</time>
      </trkpt>
      <trkpt lat="43.94277" lon="2.23507">
        <ele>234.7</ele>
        <time>2015-08-15T05:48:41Z</time>
      </trkpt>
      <trkpt lat="43.9427" lon="2.23512">
        <ele>234.22</ele>
        <time>2015-08-15T05:48:46Z</time>
      </trkpt>
      <trkpt lat="43.94263" lon="2.23517">
        <ele>234.22</ele>
        <time>2015-08-15T05:48:51Z</time>
      </trkpt>
      <trkpt lat="43.94255" lon="2.2352">
        <ele>234.22</ele>
        <time>2015-08-15T05:48:56Z</time>
      </trkpt>
      <trkpt lat="43.94248" lon="2.23515">
        <ele>235.18</ele>
        <time>2015-08-15T05:49:01Z</time>
      </trkpt>
      <trkpt lat="43.94245" lon="2.23505">
        <ele>236.62</ele>
        <time>2015-08-15T05:49:06Z</time>
      </trkpt>
      <trkpt lat="43.94243" lon="2.23495">
        <ele>238.06</ele>
        <time>2015-08-15T05:49:11Z</time>
      </trkpt>
      <trkpt lat="43.94241" lon="2.23485">
        <ele>239.02</ele>
        <time>2015-08-15T05:49:16Z</time>
      </trkpt>
      <trkpt lat="43.94237" lon="2.23476">
        <ele>239.99</ele>
        <time>2015-08-15T05:49:21Z</time>
      </trkpt>
      <trkpt lat="43.94233" lon="2.23468">
        <ele>240.47</ele>
        <time>2015-08-15T05:49:26Z</time>
      </trkpt>
      <trkpt lat="43.94228" lon="2.23461">
        <ele>240.47</ele>
        <time>2015-08-15T05:49:31Z</time>
      </trkpt>
      <trkpt lat="43.94223" lon="2.23455">
        <ele>240.95</ele>
        <time>2015-08-15T05:49:36Z</time>
      </trkpt>
      <trkpt lat="43.94216" lon="2.2345">
        <ele>241.43</ele>
        <time>2015-08-15T05:49:41Z</time>
      </trkpt>
      <trkpt lat="43.94209" lon="2.23448">
        <ele>241.91</ele>
        <time>2015-08-15T05:49:46Z</time>
      </trkpt>
      <trkpt lat="43.94201" lon="2.23449">
        <ele>242.87</ele>
        <time>2015-08-15T05:49:51Z</time>
      </trkpt>
      <trkpt lat="43.94193" lon="2.23453">
        <ele>242.87</ele>
        <time>2015-08-15T05:49:56Z</time>
      </trkpt>
      <trkpt lat="43.94187" lon="2.23458">
        <ele>242.39</ele>
        <time>2015-08-15T05:50:01Z</time>
      </trkpt>
      <trkpt lat="43.94181" lon="2.23465">
        <ele>240.95</ele>
        <time>2015-08-15T05:50:06Z</time>
      </trkpt>
      <trkpt lat="43.94174" lon="2.23472">
        <ele>241.91</ele>
        <time>2015-08-15T05:50:11Z</time>
      </trkpt>
      <trkpt lat="43.94168" lon="2.23478">
        <ele>243.83</ele>
        <time>2015-08-15T05:50:16Z</time>
      </trkpt>
      <trkpt lat="43.94161" lon="2.23481">
        <ele>245.27</ele>
        <time>2015-08-15T05:50:21Z</time>
      </trkpt>
      <trkpt lat="43.94153" lon="2.23483">
        <ele>244.79</ele>
        <time>2015-08-15T05:50:26Z</time>
      </trkpt>
      <trkpt lat="43.94146" lon="2.23481">
        <ele>244.31</ele>
        <time>2015-08-15T05:50:31Z</time>
      </trkpt>
      <trkpt lat="43.94139" lon="2.23479">
        <ele>245.27</ele>
        <time>2015-08-15T05:50:36Z</time>
      </trkpt>
      <trkpt lat="43.94131" lon="2.23477">
        <ele>245.27</ele>
        <time>2015-08-15T05:50:41Z</time>
      </trkpt>
      <trkpt lat="43.94123" lon="2.23475">
        <ele>245.27</ele>
        <time>2015-08-15T05:50:46Z</time>
      </trkpt>
      <trkpt lat="43.94115" lon="2.23473">
        <ele>244.79</ele>
        <time>2015-08-15T05:50:51Z</time>
      </trkpt>
      <trkpt lat="43.94108" lon="2.23472">
        <ele>245.27</ele>
        <time>2015-08-15T05:50:56Z</time>
      </trkpt>
      <trkpt lat="43.941" lon="2.23471">
        <ele>245.27</ele>
        <time>2015-08-15T05:51:01Z</time>
      </trkpt>
      <trkpt lat="43.94093" lon="2.2347">
        <ele>245.75</ele>
        <time>2015-08-15T05:51:06Z</time>
      </trkpt>
      <trkpt lat="43.94084" lon="2.23469">
        <ele>245.75</ele>
        <time>2015-08-15T05:51:11Z</time>
      </trkpt>
      <trkpt lat="43.94076" lon="2.23468">
        <ele>246.23</ele>
        <time>2015-08-15T05:51:16Z</time>
      </trkpt>
      <trkpt lat="43.94068" lon="2.23467">
        <ele>247.2</ele>
        <time>2015-08-15T05:51:21Z</time>
      </trkpt>
      <trkpt lat="43.94061" lon="2.23465">
        <ele>247.2</ele>
        <time>2015-08-15T05:51:26Z</time>
      </trkpt>
      <trkpt lat="43.94053" lon="2.23462">
        <ele>246.72</ele>
        <time>2015-08-15T05:51:31Z</time>
      </trkpt>
      <trkpt lat="43.94046" lon="2.23459">
        <ele>246.72</ele>
        <time>2015-08-15T05:51:36Z</time>
      </trkpt>
      <trkpt lat="43.9404" lon="2.23455">
        <ele>247.2</ele>
        <time>2015-08-15T05:51:41Z</time>
      </trkpt>
      <trkpt lat="43.94033" lon="2.23451">
        <ele>248.16</ele>
        <time>2015-08-15T05:51:46Z</time>
      </trkpt>
      <trkpt lat="43.94027" lon="2.23446">
        <ele>248.16</ele>
        <time>2015-08-15T05:51:51Z</time>
      </trkpt>
      <trkpt lat="43.9402" lon="2.2344">
        <ele>248.64</ele>
        <time>2015-08-15T05:51:56Z</time>
      </trkpt>
      <trkpt lat="43.94014" lon="2.23434">
        <ele>249.12</ele>
        <time>2015-08-15T05:52:01Z</time>
      </trkpt>
      <trkpt lat="43.94008" lon="2.23429">
        <ele>249.6</ele>
        <time>2015-08-15T05:52:06Z</time>
      </trkpt>
      <trkpt lat="43.94003" lon="2.23424">
        <ele>249.6</ele>
        <time>2015-08-15T05:52:11Z</time>
      </trkpt>
      <trkpt lat="43.93998" lon="2.23418">
        <ele>249.6</ele>
        <time>2015-08-15T05:52:16Z</time>
      </trkpt>
      <trkpt lat="43.93991" lon="2.23411">
        <ele>249.12</ele>
        <time>2015-08-15T05:52:21Z</time>
      </trkpt>
      <trkpt lat="43.93985" lon="2.23404">
        <ele>248.16</ele>
        <time>2015-08-15T05:52:26Z</time>
      </trkpt>
      <trkpt lat="43.93978" lon="2.23399">
        <ele>248.16</ele>
        <time>2015-08-15T05:52:31Z</time>
      </trkpt>
      <trkpt lat="43.93971" lon="2.23394">
        <ele>248.16</ele>
        <time>2015-08-15T05:52:36Z</time>
      </trkpt>
      <trkpt lat="43.93965" lon="2.2339">
        <ele>248.64</ele>
        <time>2015-08-15T05:52:41Z</time>
      </trkpt>
      <trkpt lat="43.9396" lon="2.23396">
        <ele>249.6</ele>
        <time>2015-08-15T05:52:46Z</time>
      </trkpt>
      <trkpt lat="43.93955" lon="2.23403">
        <ele>249.6</ele>
        <time>2015-08-15T05:52:51Z</time>
      </trkpt>
      <trkpt lat="43.9395" lon="2.23412">
        <ele>248.64</ele>
        <time>2015-08-15T05:52:56Z</time>
      </trkpt>
      <trkpt lat="43.93945" lon="2.23421">
        <ele>249.12</ele>
        <time>2015-08-15T05:53:01Z</time>
      </trkpt>
      <trkpt lat="43.93941" lon="2.23431">
        <ele>250.08</ele>
        <time>2015-08-15T05:53:06Z</time>
      </trkpt>
      <trkpt lat="43.93936" lon="2.23438">
        <ele>250.08</ele>
        <time>2015-08-15T05:53:11Z</time>
      </trkpt>
      <trkpt lat="43.93931" lon="2.23447">
        <ele>250.56</ele>
        <time>2015-08-15T05:53:16Z</time>
      </trkpt>
      <trkpt lat="43.93927" lon="2.23456">
        <ele>249.6</ele>
        <time>2015-08-15T05:53:21Z</time>
      </trkpt>
      <trkpt lat="43.93922" lon="2.23466">
        <ele>249.6</ele>
        <time>2015-08-15T05:53:26Z</time>
      </trkpt>
      <trkpt lat="43.93917" lon="2.23474">
        <ele>250.56</ele>
        <time>2015-08-15T05:53:31Z</time>
      </trkpt>
      <trkpt lat="43.93912" lon="2.23481">
        <ele>252</ele>
        <time>2015-08-15T05:53:36Z</time>
      </trkpt>
      <trkpt lat="43.93907" lon="2.2349">
        <ele>252.48</ele>
        <time>2015-08-15T05:53:41Z</time>
      </trkpt>
      <trkpt lat="43.93902" lon="2.23498">
        <ele>252</ele>
        <time>2015-08-15T05:53:46Z</time>
      </trkpt>
      <trkpt lat="43.93896" lon="2.23506">
        <ele>252</ele>
        <time>2015-08-15T05:53:51Z</time>
      </trkpt>
      <trkpt lat="43.93891" lon="2.23514">
        <ele>252.48</ele>
        <time>2015-08-15T05:53:56Z</time>
      </trkpt>
      <trkpt lat="43.93887" lon="2.23522">
        <ele>251.52</ele>
        <time>2015-08-15T05:54:01Z</time>
      </trkpt>
      <trkpt lat="43.93882" lon="2.2353">
        <ele>250.56</ele>
        <time>2015-08-15T05:54:06Z</time>
      </trkpt>
      <trkpt lat="43.93876" lon="2.23538">
        <ele>250.08</ele>
        <time>2015-08-15T05:54:11Z</time>
      </trkpt>
      <trkpt lat="43.93871" lon="2.23545">
        <ele>250.08</ele>
        <time>2015-08-15T05:54:16Z</time>
      </trkpt>
      <trkpt lat="43.93865" lon="2.23552">
        <ele>250.56</ele>
        <time>2015-08-15T05:54:21Z</time>
      </trkpt>
      <trkpt lat="43.9386" lon="2.23559">
        <ele>250.56</ele>
        <time>2015-08-15T05:54:26Z</time>
      </trkpt>
      <trkpt lat="43.93854" lon="2.23566">
        <ele>251.52</ele>
        <time>2015-08-15T05:54:31Z</time>
      </trkpt>
      <trkpt lat="43.93849" lon="2.23574">
        <ele>252.48</ele>
        <time>2015-08-15T05:54:36Z</time>
      </trkpt>
      <trkpt lat="43.93844" lon="2.23582">
        <ele>252</ele>
        <time>2015-08-15T05:54:41Z</time>
      </trkpt>
      <trkpt lat="43.93838" lon="2.2359">
        <ele>252.48</ele>
        <time>2015-08-15T05:54:46Z</time>
      </trkpt>
      <trkpt lat="43.93833" lon="2.23599">
        <ele>252.96</ele>
        <time>2015-08-15T05:54:51Z</time>
      </trkpt>
      <trkpt lat="43.93828" lon="2.23606">
        <ele>252.48</ele>
        <time>2015-08-15T05:54:56Z</time>
      </trkpt>
      <trkpt lat="43.93823" lon="2.23614">
        <ele>252</ele>
        <time>2015-08-15T05:55:01Z</time>
      </trkpt>
      <trkpt lat="43.93818" lon="2.23622">
        <ele>251.52</ele>
        <time>2015-08-15T05:55:06Z</time>
      </trkpt>
      <trkpt lat="43.93812" lon="2.23629">
        <ele>252</ele>
        <time>2015-08-15T05:55:11Z</time>
      </trkpt>
      <trkpt lat="43.93806" lon="2.23636">
        <ele>253.44</ele>
        <time>2015-08-15T05:55:16Z</time>
      </trkpt>
      <trkpt lat="43.938" lon="2.23643">
        <ele>253.44</ele>
        <time>2015-08-15T05:55:21Z</time>
      </trkpt>
      <trkpt lat="43.93795" lon="2.2365">
        <ele>252.96</ele>
        <time>2015-08-15T05:55:26Z</time>
      </trkpt>
      <trkpt lat="43.93788" lon="2.23657">
        <ele>253.93</ele>
        <time>2015-08-15T05:55:31Z</time>
      </trkpt>
      <trkpt lat="43.93782" lon="2.23664">
        <ele>253.93</ele>
        <time>2015-08-15T05:55:36Z</time>
      </trkpt>
      <trkpt lat="43.93775" lon="2.2367">
        <ele>253.93</ele>
        <time>2015-08-15T05:55:41Z</time>
      </trkpt>
      <trkpt lat="43.93769" lon="2.23676">
        <ele>254.41</ele>
        <time>2015-08-15T05:55:46Z</time>
      </trkpt>
      <trkpt lat="43.93763" lon="2.23682">
        <ele>254.41</ele>
        <time>2015-08-15T05:55:51Z</time>
      </trkpt>
      <trkpt lat="43.93757" lon="2.23687">
        <ele>253.93</ele>
        <time>2015-08-15T05:55:56Z</time>
      </trkpt>
      <trkpt lat="43.93751" lon="2.23693">
        <ele>253.44</ele>
        <time>2015-08-15T05:56:01Z</time>
      </trkpt>
      <trkpt lat="43.93744" lon="2.23698">
        <ele>252.96</ele>
        <time>2015-08-15T05:56:06Z</time>
      </trkpt>
      <trkpt lat="43.93737" lon="2.23701">
        <ele>252.96</ele>
        <time>2015-08-15T05:56:11Z</time>
      </trkpt>
      <trkpt lat="43.9373" lon="2.23706">
        <ele>253.93</ele>
        <time>2015-08-15T05:56:16Z</time>
      </trkpt>
      <trkpt lat="43.93723" lon="2.23711">
        <ele>254.89</ele>
        <time>2015-08-15T05:56:21Z</time>
      </trkpt>
      <trkpt lat="43.93716" lon="2.23716">
        <ele>254.89</ele>
        <time>2015-08-15T05:56:26Z</time>
      </trkpt>
      <trkpt lat="43.9371" lon="2.23722">
        <ele>255.37</ele>
        <time>2015-08-15T05:56:31Z</time>
      </trkpt>
      <trkpt lat="43.93703" lon="2.23727">
        <ele>255.37</ele>
        <time>2015-08-15T05:56:36Z</time>
      </trkpt>
      <trkpt lat="43.93696" lon="2.23733">
        <ele>255.37</ele>
        <time>2015-08-15T05:56:41Z</time>
      </trkpt>
      <trkpt lat="43.9369" lon="2.23739">
        <ele>255.37</ele>
        <time>2015-08-15T05:56:46Z</time>
      </trkpt>
      <trkpt lat="43.93683" lon="2.23745">
        <ele>255.85</ele>
        <time>2015-08-15T05:56:51Z</time>
      </trkpt>
      <trkpt lat="43.93677" lon="2.23752">
        <ele>256.81</ele>
        <time>2015-08-15T05:56:56Z</time>
      </trkpt>
      <trkpt lat="43.93671" lon="2.23759">
        <ele>257.77</ele>
        <time>2015-08-15T05:57:01Z</time>
      </trkpt>
      <trkpt lat="43.93666" lon="2.23765">
        <ele>258.25</ele>
        <time>2015-08-15T05:57:06Z</time>
      </trkpt>
      <trkpt lat="43.93661" lon="2.23771">
        <ele>258.25</ele>
        <time>2015-08-15T05:57:11Z</time>
      </trkpt>
      <trkpt lat="43.93656" lon="2.23778">
        <ele>258.73</ele>
        <time>2015-08-15T05:57:16Z</time>
      </trkpt>
      <trkpt lat="43.93651" lon="2.23785">
        <ele>258.73</ele>
        <time>2015-08-15T05:57:21Z</time>
      </trkpt>
      <trkpt lat="43.93645" lon="2.23791">
        <ele>259.69</ele>
        <time>2015-08-15T05:57:26Z</time>
      </trkpt>
      <trkpt lat="43.9364" lon="2.23798">
        <ele>261.14</ele>
        <time>2015-08-15T05:57:31Z</time>
      </trkpt>
      <trkpt lat="43.93634" lon="2.23804">
        <ele>261.14</ele>
        <time>2015-08-15T05:57:36Z</time>
      </trkpt>
      <trkpt lat="43.93629" lon="2.2381">
        <ele>260.17</ele>
        <time>2015-08-15T05:57:41Z</time>
      </trkpt>
      <trkpt lat="43.93625" lon="2.23816">
        <ele>259.69</ele>
        <time>2015-08-15T05:57:46Z</time>
      </trkpt>
      <trkpt lat="43.9362" lon="2.23824">
        <ele>259.69</ele>
        <time>2015-08-15T05:57:51Z</time>
      </trkpt>
      <trkpt lat="43.93615" lon="2.23831">
        <ele>260.17</ele>
        <time>2015-08-15T05:57:56Z</time>
      </trkpt>
      <trkpt lat="43.93609" lon="2.23839">
        <ele>259.21</ele>
        <time>2015-08-15T05:58:01Z</time>
      </trkpt>
      <trkpt lat="43.93604" lon="2.23847">
        <ele>258.73</ele>
        <time>2015-08-15T05:58:06Z</time>
      </trkpt>
      <trkpt lat="43.93599" lon="2.23855">
        <ele>259.69</ele>
        <time>2015-08-15T05:58:11Z</time>
      </trkpt>
      <trkpt lat="43.93593" lon="2.23862">
        <ele>261.14</ele>
        <time>2015-08-15T05:58:16Z</time>
      </trkpt>
      <trkpt lat="43.93588" lon="2.2387">
        <ele>263.54</ele>
        <time>2015-08-15T05:58:21Z</time>
      </trkpt>
      <trkpt lat="43.93582" lon="2.23877">
        <ele>264.98</ele>
        <time>2015-08-15T05:58:26Z</time>
      </trkpt>
      <trkpt lat="43.93577" lon="2.23883">
        <ele>266.42</ele>
        <time>2015-08-15T05:58:31Z</time>
      </trkpt>
      <trkpt lat="43.93572" lon="2.2389">
        <ele>265.94</ele>
        <time>2015-08-15T05:58:36Z</time>
      </trkpt>
      <trkpt lat="43.93567" lon="2.23897">
        <ele>266.42</ele>
        <time>2015-08-15T05:58:41Z</time>
      </trkpt>
      <trkpt lat="43.93563" lon="2.23905">
        <ele>265.46</ele>
        <time>2015-08-15T05:58:46Z</time>
      </trkpt>
      <trkpt lat="43.93558" lon="2.23913">
        <ele>264.98</ele>
        <time>2015-08-15T05:58:51Z</time>
      </trkpt>
      <trkpt lat="43.93552" lon="2.23921">
        <ele>264.98</ele>
        <time>2015-08-15T05:58:56Z</time>
      </trkpt>
      <trkpt lat="43.93546" lon="2.23929">
        <ele>264.98</ele>
        <time>2015-08-15T05:59:01Z</time>
      </trkpt>
      <trkpt lat="43.9354" lon="2.23936">
        <ele>265.46</ele>
        <time>2015-08-15T05:59:06Z</time>
      </trkpt>
      <trkpt lat="43.93534" lon="2.23943">
        <ele>266.9</ele>
        <time>2015-08-15T05:59:11Z</time>
      </trkpt>
      <trkpt lat="43.93528" lon="2.2395">
        <ele>267.86</ele>
        <time>2015-08-15T05:59:16Z</time>
      </trkpt>
      <trkpt lat="43.93523" lon="2.23958">
        <ele>267.38</ele>
        <time>2015-08-15T05:59:21Z</time>
      </trkpt>
      <trkpt lat="43.93519" lon="2.23966">
        <ele>266.42</ele>
        <time>2015-08-15T05:59:26Z</time>
      </trkpt>
      <trkpt lat="43.93514" lon="2.23975">
        <ele>265.94</ele>
        <time>2015-08-15T05:59:31Z</time>
      </trkpt>
      <trkpt lat="43.93509" lon="2.23984">
        <ele>267.38</ele>
        <time>2015-08-15T05:59:36Z</time>
      </trkpt>
      <trkpt lat="43.93504" lon="2.23992">
        <ele>266.9</ele>
        <time>2015-08-15T05:59:41Z</time>
      </trkpt>
      <trkpt lat="43.93501" lon="2.24001">
        <ele>266.9</ele>
        <time>2015-08-15T05:59:46Z</time>
      </trkpt>
      <trkpt lat="43.93496" lon="2.24011">
        <ele>266.42</ele>
        <time>2015-08-15T05:59:51Z</time>
      </trkpt>
      <trkpt lat="43.93491" lon="2.24019">
        <ele>265.94</ele>
        <time>2015-08-15T05:59:56Z</time>
      </trkpt>
      <trkpt lat="43.93486" lon="2.24028">
        <ele>266.42</ele>
        <time>2015-08-15T06:00:01Z</time>
      </trkpt>
      <trkpt lat="43.93481" lon="2.24035">
        <ele>265.94</ele>
        <time>2015-08-15T06:00:06Z</time>
      </trkpt>
      <trkpt lat="43.93475" lon="2.24042">
        <ele>265.46</ele>
        <time>2015-08-15T06:00:11Z</time>
      </trkpt>
      <trkpt lat="43.93469" lon="2.2405">
        <ele>266.42</ele>
        <time>2015-08-15T06:00:16Z</time>
      </trkpt>
      <trkpt lat="43.93463" lon="2.24055">
        <ele>266.42</ele>
        <time>2015-08-15T06:00:21Z</time>
      </trkpt>
      <trkpt lat="43.93455" lon="2.24057">
        <ele>266.42</ele>
        <time>2015-08-15T06:00:26Z</time>
      </trkpt>
      <trkpt lat="43.93448" lon="2.24056">
        <ele>265.94</ele>
        <time>2015-08-15T06:00:31Z</time>
      </trkpt>
      <trkpt lat="43.9344" lon="2.24055">
        <ele>265.94</ele>
        <time>2015-08-15T06:00:36Z</time>
      </trkpt>
      <trkpt lat="43.93432" lon="2.24054">
        <ele>265.46</ele>
        <time>2015-08-15T06:00:41Z</time>
      </trkpt>
      <trkpt lat="43.93424" lon="2.24055">
        <ele>264.98</ele>
        <time>2015-08-15T06:00:46Z</time>
      </trkpt>
      <trkpt lat="43.93416" lon="2.24056">
        <ele>264.02</ele>
        <time>2015-08-15T06:00:51Z</time>
      </trkpt>
      <trkpt lat="43.93407" lon="2.24055">
        <ele>263.54</ele>
        <time>2015-08-15T06:00:56Z</time>
      </trkpt>
      <trkpt lat="43.934" lon="2.24055">
        <ele>264.5</ele>
        <time>2015-08-15T06:01:01Z</time>
      </trkpt>
      <trkpt lat="43.93392" lon="2.24055">
        <ele>264.02</ele>
        <time>2015-08-15T06:01:06Z</time>
      </trkpt>
      <trkpt lat="43.93384" lon="2.24055">
        <ele>262.58</ele>
        <time>2015-08-15T06:01:11Z</time>
      </trkpt>
      <trkpt lat="43.93376" lon="2.24054">
        <ele>263.06</ele>
        <time>2015-08-15T06:01:16Z</time>
      </trkpt>
      <trkpt lat="43.93368" lon="2.24054">
        <ele>263.54</ele>
        <time>2015-08-15T06:01:21Z</time>
      </trkpt>
      <trkpt lat="43.93361" lon="2.24057">
        <ele>263.06</ele>
        <time>2015-08-15T06:01:26Z</time>
      </trkpt>
      <trkpt lat="43.93359" lon="2.24067">
        <ele>263.06</ele>
        <time>2015-08-15T06:01:31Z</time>
      </trkpt>
      <trkpt lat="43.93358" lon="2.24078">
        <ele>263.54</ele>
        <time>2015-08-15T06:01:36Z</time>
      </trkpt>
      <trkpt lat="43.93357" lon="2.2409">
        <ele>263.54</ele>
        <time>2015-08-15T06:01:41Z</time>
      </trkpt>
      <trkpt lat="43.93356" lon="2.241">
        <ele>264.02</ele>
        <time>2015-08-15T06:01:46Z</time>
      </trkpt>
      <trkpt lat="43.93354" lon="2.24111">
        <ele>264.02</ele>
        <time>2015-08-15T06:01:51Z</time>
      </trkpt>
      <trkpt lat="43.93352" lon="2.24121">
        <ele>264.98</ele>
        <time>2015-08-15T06:01:56Z</time>
      </trkpt>
      <trkpt lat="43.93351" lon="2.24132">
        <ele>266.42</ele>
        <time>2015-08-15T06:02:01Z</time>
      </trkpt>
      <trkpt lat="43.93349" lon="2.24142">
        <ele>267.38</ele>
        <time>2015-08-15T06:02:06Z</time>
      </trkpt>
      <trkpt lat="43.93348" lon="2.24152">
        <ele>268.35</ele>
        <time>2015-08-15T06:02:11Z</time>
      </trkpt>
      <trkpt lat="43.93346" lon="2.24162">
        <ele>268.83</ele>
        <time>2015-08-15T06:02:16Z</time>
      </trkpt>
      <trkpt lat="43.93345" lon="2.24172">
        <ele>268.35</ele>
        <time>2015-08-15T06:02:21Z</time>
      </trkpt>
      <trkpt lat="43.93343" lon="2.24182">
        <ele>268.83</ele>
        <time>2015-08-15T06:02:26Z</time>
      </trkpt>
      <trkpt lat="43.93342" lon="2.24192">
        <ele>268.83</ele>
        <time>2015-08-15T06:02:31Z</time>
      </trkpt>
      <trkpt lat="43.93341" lon="2.24202">
        <ele>268.35</ele>
        <time>2015-08-15T06:02:36Z</time>
      </trkpt>
      <trkpt lat="43.9334" lon="2.24213">
        <ele>267.38</ele>
        <time>2015-08-15T06:02:41Z</time>
      </trkpt>
      <trkpt lat="43.93339" lon="2.24223">
        <ele>265.94</ele>
        <time>2015-08-15T06:02:46Z</time>
      </trkpt>
      <trkpt lat="43.93336" lon="2.24233">
        <ele>264.98</ele>
        <time>2015-08-15T06:02:51Z</time>
      </trkpt>
      <trkpt lat="43.9333" lon="2.24239">
        <ele>264.5</ele>
        <time>2015-08-15T06:02:56Z</time>
      </trkpt>
      <trkpt lat="43.93322" lon="2.2424">
        <ele>264.02</ele>
        <time>2015-08-15T06:03:01Z</time>
      </trkpt>
      <trkpt lat="43.93314" lon="2.2424">
        <ele>263.06</ele>
        <time>2015-08-15T06:03:06Z</time>
      </trkpt>
      <trkpt lat="43.93307" lon="2.24242">
        <ele>264.02</ele>
        <time>2015-08-15T06:03:11Z</time>
      </trkpt>
      <trkpt lat="43.933" lon="2.24244">
        <ele>264.98</ele>
        <time>2015-08-15T06:03:16Z</time>
      </trkpt>
      <trkpt lat="43.93292" lon="2.24246">
        <ele>265.46</ele>
        <time>2015-08-15T06:03:21Z</time>
      </trkpt>
      <trkpt lat="43.93285" lon="2.24248">
        <ele>266.9</ele>
        <time>2015-08-15T06:03:26Z</time>
      </trkpt>
      <trkpt lat="43.93278" lon="2.24251">
        <ele>267.38</ele>
        <time>2015-08-15T06:03:31Z</time>
      </trkpt>
      <trkpt lat="43.93271" lon="2.24253">
        <ele>268.35</ele>
        <time>2015-08-15T06:03:36Z</time>
      </trkpt>
      <trkpt lat="43.93264" lon="2.24257">
        <ele>268.35</ele>
        <time>2015-08-15T06:03:41Z</time>
      </trkpt>
      <trkpt lat="43.93257" lon="2.24261">
        <ele>268.35</ele>
        <time>2015-08-15T06:03:46Z</time>
      </trkpt>
      <trkpt lat="43.93249" lon="2.24265">
        <ele>268.35</ele>
        <time>2015-08-15T06:03:51Z</time>
      </trkpt>
      <trkpt lat="43.93243" lon="2.24269">
        <ele>268.35</ele>
        <time>2015-08-15T06:03:56Z</time>
      </trkpt>
      <trkpt lat="43.93236" lon="2.24275">
        <ele>267.86</ele>
        <time>2015-08-15T06:04:01Z</time>
      </trkpt>
      <trkpt lat="43.93229" lon="2.2428">
        <ele>267.86</ele>
        <time>2015-08-15T06:04:06Z</time>
      </trkpt>
      <trkpt lat="43.93222" lon="2.24285">
        <ele>268.83</ele>
        <time>2015-08-15T06:04:11Z</time>
      </trkpt>
      <trkpt lat="43.93216" lon="2.24292">
        <ele>269.31</ele>
        <time>2015-08-15T06:04:16Z</time>
      </trkpt>
      <trkpt lat="43.9321" lon="2.24297">
        <ele>270.27</ele>
        <time>2015-08-15T06:04:21Z</time>
      </trkpt>
      <trkpt lat="43.93204" lon="2.24304">
        <ele>270.27</ele>
        <time>2015-08-15T06:04:26Z</time>
      </trkpt>
      <trkpt lat="43.93197" lon="2.2431">
        <ele>269.79</ele>
        <time>2015-08-15T06:04:31Z</time>
      </trkpt>
      <trkpt lat="43.9319" lon="2.24317">
        <ele>270.27</ele>
        <time>2015-08-15T06:04:36Z</time>
      </trkpt>
      <trkpt lat="43.93185" lon="2.24323">
        <ele>270.27</ele>
        <time>2015-08-15T06:04:41Z</time>
      </trkpt>
      <trkpt lat="43.93179" lon="2.2433">
        <ele>269.79</ele>
        <time>2015-08-15T06:04:46Z</time>
      </trkpt>
      <trkpt lat="43.93173" lon="2.24336">
        <ele>269.31</ele>
        <time>2015-08-15T06:04:51Z</time>
      </trkpt>
      <trkpt lat="43.93168" lon="2.24344">
        <ele>269.31</ele>
        <time>2015-08-15T06:04:56Z</time>
      </trkpt>
      <trkpt lat="43.93162" lon="2.24352">
        <ele>269.31</ele>
        <time>2015-08-15T06:05:01Z</time>
      </trkpt>
      <trkpt lat="43.93156" lon="2.24359">
        <ele>269.79</ele>
        <time>2015-08-15T06:05:06Z</time>
      </trkpt>
      <trkpt lat="43.9315" lon="2.24365">
        <ele>270.27</ele>
        <time>2015-08-15T06:05:11Z</time>
      </trkpt>
      <trkpt lat="43.93144" lon="2.24372">
        <ele>270.75</ele>
        <time>2015-08-15T06:05:16Z</time>
      </trkpt>
      <trkpt lat="43.93138" lon="2.24378">
        <ele>271.71</ele>
        <time>2015-08-15T06:05:21Z</time>
      </trkpt>
      <trkpt lat="43.93132" lon="2.24384">
        <ele>271.71</ele>
        <time>2015-08-15T06:05:26Z</time>
      </trkpt>
      <trkpt lat="43.93126" lon="2.2439">
        <ele>272.19</ele>
        <time>2015-08-15T06:05:31Z</time>
      </trkpt>
      <trkpt lat="43.93119" lon="2.24396">
        <ele>272.67</ele>
        <time>2015-08-15T06:05:36Z</time>
      </trkpt>
      <trkpt lat="43.93114" lon="2.24403">
        <ele>272.67</ele>
        <time>2015-08-15T06:05:41Z</time>
      </trkpt>
      <trkpt lat="43.93109" lon="2.24409">
        <ele>272.67</ele>
        <time>2015-08-15T06:05:46Z</time>
      </trkpt>
      <trkpt lat="43.93101" lon="2.2441">
        <ele>272.19</ele>
        <time>2015-08-15T06:05:51Z</time>
      </trkpt>
      <trkpt lat="43.93094" lon="2.24407">
        <ele>270.75</ele>
        <time>2015-08-15T06:05:56Z</time>
      </trkpt>
      <trkpt lat="43.93087" lon="2.24402">
        <ele>270.27</ele>
        <time>2015-08-15T06:06:01Z</time>
      </trkpt>
      <trkpt lat="43.93081" lon="2.24396">
        <ele>271.23</ele>
        <time>2015-08-15T06:06:06Z</time>
      </trkpt>
      <trkpt lat="43.93075" lon="2.24389">
        <ele>270.75</ele>
        <time>2015-08-15T06:06:11Z</time>
      </trkpt>
      <trkpt lat="43.93068" lon="2.24383">
        <ele>270.75</ele>
        <time>2015-08-15T06:06:16Z</time>
      </trkpt>
      <trkpt lat="43.93062" lon="2.24377">
        <ele>270.75</ele>
        <time>2015-08-15T06:06:21Z</time>
      </trkpt>
      <trkpt lat="43.93055" lon="2.24372">
        <ele>269.79</ele>
        <time>2015-08-15T06:06:26Z</time>
      </trkpt>
      <trkpt lat="43.93048" lon="2.24365">
        <ele>270.27</ele>
        <time>2015-08-15T06:06:31Z</time>
      </trkpt>
      <trkpt lat="43.93042" lon="2.24358">
        <ele>271.23</ele>
        <time>2015-08-15T06:06:36Z</time>
      </trkpt>
      <trkpt lat="43.93036" lon="2.24351">
        <ele>272.19</ele>
        <time>2015-08-15T06:06:41Z</time>
      </trkpt>
      <trkpt lat="43.93029" lon="2.24344">
        <ele>272.67</ele>
        <time>2015-08-15T06:06:46Z</time>
      </trkpt>
      <trkpt lat="43.93023" lon="2.24338">
        <ele>272.67</ele>
        <time>2015-08-15T06:06:51Z</time>
      </trkpt>
      <trkpt lat="43.93021" lon="2.24329">
        <ele>272.19</ele>
        <time>2015-08-15T06:06:56Z</time>
      </trkpt>
      <trkpt lat="43.93021" lon="2.24317">
        <ele>271.23</ele>
        <time>2015-08-15T06:07:01Z</time>
      </trkpt>
      <trkpt lat="43.93024" lon="2.24307">
        <ele>270.75</ele>
        <time>2015-08-15T06:07:06Z</time>
      </trkpt>
      <trkpt lat="43.93027" lon="2.24298">
        <ele>270.75</ele>
        <time>2015-08-15T06:07:11Z</time>
      </trkpt>
      <trkpt lat="43.9303" lon="2.24288">
        <ele>269.79</ele>
        <time>2015-08-15T06:07:16Z</time>
      </trkpt>
      <trkpt lat="43.93034" lon="2.24279">
        <ele>268.35</ele>
        <time>2015-08-15T06:07:21Z</time>
      </trkpt>
      <trkpt lat="43.93037" lon="2.24269">
        <ele>267.38</ele>
        <time>2015-08-15T06:07:26Z</time>
      </trkpt>
      <trkpt lat="43.9304" lon="2.2426">
        <ele>267.38</ele>
        <time>2015-08-15T06:07:31Z</time>
      </trkpt>
      <trkpt lat="43.93043" lon="2.2425">
        <ele>267.38</ele>
        <time>2015-08-15T06:07:36Z</time>
      </trkpt>
      <trkpt lat="43.93047" lon="2.2424">
        <ele>266.9</ele>
        <time>2015-08-15T06:07:41Z</time>
      </trkpt>
      <trkpt lat="43.9305" lon="2.2423">
        <ele>267.38</ele>
        <time>2015-08-15T06:07:46Z</time>
      </trkpt>
      <trkpt lat="43.93054" lon="2.24221">
        <ele>267.38</ele>
        <time>2015-08-15T06:07:51Z</time>
      </trkpt>
      <trkpt lat="43.93057" lon="2.24211">
        <ele>266.42</ele>
        <time>2015-08-15T06:07:56Z</time>
      </trkpt>
      <trkpt lat="43.93061" lon="2.24202">
        <ele>265.46</ele>
        <time>2015-08-15T06:08:01Z</time>
      </trkpt>
      <trkpt lat="43.93064" lon="2.24192">
        <ele>265.46</ele>
        <time>2015-08-15T06:08:06Z</time>
      </trkpt>
      <trkpt lat="43.93067" lon="2.24181">
        <ele>265.46</ele>
        <time>2015-08-15T06:08:11Z</time>
      </trkpt>
      <trkpt lat="43.9307" lon="2.24171">
        <ele>265.94</ele>
        <time>2015-08-15T06:08:16Z</time>
      </trkpt>
      <trkpt lat="43.93074" lon="2.24161">
        <ele>266.42</ele>
        <time>2015-08-15T06:08:21Z</time>
      </trkpt>
      <trkpt lat="43.93072" lon="2.24153">
        <ele>267.38</ele>
        <time>2015-08-15T06:08:26Z</time>
      </trkpt>
      <trkpt lat="43.93065" lon="2.24156">
        <ele>269.31</ele>
        <time>2015-08-15T06:08:31Z</time>
      </trkpt>
      <trkpt lat="43.93059" lon="2.24161">
        <ele>270.75</ele>
        <time>2015-08-15T06:08:36Z</time>
      </trkpt>
      <trkpt lat="43.93051" lon="2.24166">
        <ele>271.71</ele>
        <time>2015-08-15T06:08:41Z</time>
      </trkpt>
      <trkpt lat="43.93044" lon="2.2417">
        <ele>273.15</ele>
        <time>2015-08-15T06:08:46Z</time>
      </trkpt>
      <trkpt lat="43.93037" lon="2.24175">
        <ele>273.63</ele>
        <time>2015-08-15T06:08:51Z</time>
      </trkpt>
      <trkpt lat="43.9303" lon="2.2418">
        <ele>273.15</ele>
        <time>2015-08-15T06:08:56Z</time>
      </trkpt>
      <trkpt lat="43.93023" lon="2.24185">
        <ele>273.63</ele>
        <time>2015-08-15T06:09:01Z</time>
      </trkpt>
      <trkpt lat="43.93016" lon="2.24189">
        <ele>273.63</ele>
        <time>2015-08-15T06:09:06Z</time>
      </trkpt>
      <trkpt lat="43.93009" lon="2.24193">
        <ele>273.63</ele>
        <time>2015-08-15T06:09:11Z</time>
      </trkpt>
      <trkpt lat="43.93002" lon="2.24197">
        <ele>273.15</ele>
        <time>2015-08-15T06:09:16Z</time>
      </trkpt>
      <trkpt lat="43.92995" lon="2.24201">
        <ele>273.15</ele>
        <time>2015-08-15T06:09:21Z</time>
      </trkpt>
      <trkpt lat="43.92987" lon="2.24205">
        <ele>273.15</ele>
        <time>2015-08-15T06:09:26Z</time>
      </trkpt>
      <trkpt lat="43.9298" lon="2.24209">
        <ele>273.15</ele>
        <time>2015-08-15T06:09:31Z</time>
      </trkpt>
      <trkpt lat="43.92973" lon="2.24212">
        <ele>273.63</ele>
        <time>2015-08-15T06:09:36Z</time>
      </trkpt>
      <trkpt lat="43.92965" lon="2.24215">
        <ele>273.15</ele>
        <time>2015-08-15T06:09:41Z</time>
      </trkpt>
      <trkpt lat="43.92958" lon="2.24217">
        <ele>274.11</ele>
        <time>2015-08-15T06:09:46Z</time>
      </trkpt>
      <trkpt lat="43.92951" lon="2.24221">
        <ele>274.11</ele>
        <time>2015-08-15T06:09:51Z</time>
      </trkpt>
      <trkpt lat="43.92944" lon="2.24223">
        <ele>273.63</ele>
        <time>2015-08-15T06:09:56Z</time>
      </trkpt>
      <trkpt lat="43.92936" lon="2.24226">
        <ele>273.63</ele>
        <time>2015-08-15T06:10:01Z</time>
      </trkpt>
      <trkpt lat="43.92929" lon="2.24229">
        <ele>274.59</ele>
        <time>2015-08-15T06:10:06Z</time>
      </trkpt>
      <trkpt lat="43.92921" lon="2.24231">
        <ele>275.07</ele>
        <time>2015-08-15T06:10:11Z</time>
      </trkpt>
      <trkpt lat="43.92914" lon="2.24234">
        <ele>274.11</ele>
        <time>2015-08-15T06:10:16Z</time>
      </trkpt>
      <trkpt lat="43.92906" lon="2.24237">
        <ele>274.59</ele>
        <time>2015-08-15T06:10:21Z</time>
      </trkpt>
      <trkpt lat="43.92899" lon="2.24242">
        <ele>274.59</ele>
        <time>2015-08-15T06:10:26Z</time>
      </trkpt>
      <trkpt lat="43.92892" lon="2.24246">
        <ele>274.59</ele>
        <time>2015-08-15T06:10:31Z</time>
      </trkpt>
      <trkpt lat="43.92885" lon="2.24249">
        <ele>275.07</ele>
        <time>2015-08-15T06:10:36Z</time>
      </trkpt>
      <trkpt lat="43.92877" lon="2.24253">
        <ele>276.52</ele>
        <time>2015-08-15T06:10:41Z</time>
      </trkpt>
      <trkpt lat="43.9287" lon="2.24255">
        <ele>276.52</ele>
        <time>2015-08-15T06:10:46Z</time>
      </trkpt>
      <trkpt lat="43.92862" lon="2.24257">
        <ele>277</ele>
        <time>2015-08-15T06:10:51Z</time>
      </trkpt>
      <trkpt lat="43.92854" lon="2.24259">
        <ele>278.44</ele>
        <time>2015-08-15T06:10:56Z</time>
      </trkpt>
      <trkpt lat="43.92848" lon="2.24262">
        <ele>278.44</ele>
        <time>2015-08-15T06:11:01Z</time>
      </trkpt>
      <trkpt lat="43.9284" lon="2.24264">
        <ele>277.96</ele>
        <time>2015-08-15T06:11:06Z</time>
      </trkpt>
      <trkpt lat="43.92832" lon="2.24266">
        <ele>277.48</ele>
        <time>2015-08-15T06:11:11Z</time>
      </trkpt>
      <trkpt lat="43.92825" lon="2.24268">
        <ele>277.96</ele>
        <time>2015-08-15T06:11:16Z</time>
      </trkpt>
      <trkpt lat="43.92818" lon="2.2427">
        <ele>278.92</ele>
        <time>2015-08-15T06:11:21Z</time>
      </trkpt>
      <trkpt lat="43.9281" lon="2.24272">
        <ele>278.92</ele>
        <time>2015-08-15T06:11:26Z</time>
      </trkpt>
      <trkpt lat="43.92802" lon="2.24274">
        <ele>278.44</ele>
        <time>2015-08-15T06:11:31Z</time>
      </trkpt>
      <trkpt lat="43.92795" lon="2.24276">
        <ele>277.96</ele>
        <time>2015-08-15T06:11:36Z</time>
      </trkpt>
      <trkpt lat="43.92787" lon="2.24279">
        <ele>278.44</ele>
        <time>2015-08-15T06:11:41Z</time>
      </trkpt>
      <trkpt lat="43.9278" lon="2.2428">
        <ele>278.44</ele>
        <time>2015-08-15T06:11:46Z</time>
      </trkpt>
      <trkpt lat="43.92773" lon="2.24282">
        <ele>278.92</ele>
        <time>2015-08-15T06:11:51Z</time>
      </trkpt>
      <trkpt lat="43.92766" lon="2.24284">
        <ele>279.88</ele>
        <time>2015-08-15T06:11:56Z</time>
      </trkpt>
      <trkpt lat="43.92759" lon="2.24286">
        <ele>280.36</ele>
        <time>2015-08-15T06:12:01Z</time>
      </trkpt>
      <trkpt lat="43.92752" lon="2.24288">
        <ele>280.84</ele>
        <time>2015-08-15T06:12:06Z</time>
      </trkpt>
      <trkpt lat="43.92744" lon="2.24289">
        <ele>281.32</ele>
        <time>2015-08-15T06:12:11Z</time>
      </trkpt>
      <trkpt lat="43.92736" lon="2.24286">
        <ele>280.84</ele>
        <time>2015-08-15T06:12:16Z</time>
      </trkpt>
      <trkpt lat="43.92728" lon="2.24281">
        <ele>280.84</ele>
        <time>2015-08-15T06:12:21Z</time>
      </trkpt>
      <trkpt lat="43.92721" lon="2.24278">
        <ele>279.88</ele>
        <time>2015-08-15T06:12:26Z</time>
      </trkpt>
      <trkpt lat="43.92714" lon="2.24275">
        <ele>278.44</ele>
        <time>2015-08-15T06:12:31Z</time>
      </trkpt>
      <trkpt lat="43.92706" lon="2.24271">
        <ele>278.92</ele>
        <time>2015-08-15T06:12:36Z</time>
      </trkpt>
      <trkpt lat="43.92699" lon="2.24267">
        <ele>279.88</ele>
        <time>2015-08-15T06:12:41Z</time>
      </trkpt>
      <trkpt lat="43.92692" lon="2.24263">
        <ele>279.4</ele>
        <time>2015-08-15T06:12:46Z</time>
      </trkpt>
      <trkpt lat="43.92684" lon="2.24259">
        <ele>278.92</ele>
        <time>2015-08-15T06:12:51Z</time>
      </trkpt>
      <trkpt lat="43.92677" lon="2.24254">
        <ele>279.4</ele>
        <time>2015-08-15T06:12:56Z</time>
      </trkpt>
      <trkpt lat="43.9267" lon="2.24251">
        <ele>279.88</ele>
        <time>2015-08-15T06:13:01Z</time>
      </trkpt>
      <trkpt lat="43.92663" lon="2.24248">
        <ele>278.92</ele>
        <time>2015-08-15T06:13:06Z</time>
      </trkpt>
      <trkpt lat="43.92655" lon="2.24243">
        <ele>277.96</ele>
        <time>2015-08-15T06:13:11Z</time>
      </trkpt>
      <trkpt lat="43.92648" lon="2.24239">
        <ele>278.44</ele>
        <time>2015-08-15T06:13:16Z</time>
      </trkpt>
      <trkpt lat="43.9264" lon="2.24233">
        <ele>277.48</ele>
        <time>2015-08-15T06:13:21Z</time>
      </trkpt>
      <trkpt lat="43.92633" lon="2.24228">
        <ele>277.96</ele>
        <time>2015-08-15T06:13:26Z</time>
      </trkpt>
      <trkpt lat="43.92627" lon="2.24223">
        <ele>277.96</ele>
        <time>2015-08-15T06:13:31Z</time>
      </trkpt>
      <trkpt lat="43.92619" lon="2.24219">
        <ele>277.96</ele>
        <time>2015-08-15T06:13:36Z</time>
      </trkpt>
      <trkpt lat="43.92612" lon="2.24215">
        <ele>278.44</ele>
        <time>2015-08-15T06:13:41Z</time>
      </trkpt>
      <trkpt lat="43.92605" lon="2.2421">
        <ele>278.44</ele>
        <time>2015-08-15T06:13:46Z</time>
      </trkpt>
      <trkpt lat="43.92597" lon="2.24206">
        <ele>277</ele>
        <time>2015-08-15T06:13:51Z</time>
      </trkpt>
      <trkpt lat="43.9259" lon="2.242">
        <ele>277.48</ele>
        <time>2015-08-15T06:13:56Z</time>
      </trkpt>
      <trkpt lat="43.92583" lon="2.24196">
        <ele>277.48</ele>
        <time>2015-08-15T06:14:01Z</time>
      </trkpt>
      <trkpt lat="43.92575" lon="2.24192">
        <ele>277.48</ele>
        <time>2015-08-15T06:14:06Z</time>
      </trkpt>
      <trkpt lat="43.92568" lon="2.24188">
        <ele>277.48</ele>
        <time>2015-08-15T06:14:11Z</time>
      </trkpt>
      <trkpt lat="43.92561" lon="2.24183">
        <ele>277.96</ele>
        <time>2015-08-15T06:14:16Z</time>
      </trkpt>
      <trkpt lat="43.92554" lon="2.24178">
        <ele>277</ele>
        <time>2015-08-15T06:14:21Z</time>
      </trkpt>
      <trkpt lat="43.92547" lon="2.24173">
        <ele>277</ele>
        <time>2015-08-15T06:14:26Z</time>
      </trkpt>
      <trkpt lat="43.9254" lon="2.24168">
        <ele>277.48</ele>
        <time>2015-08-15T06:14:31Z</time>
      </trkpt>
      <trkpt lat="43.92534" lon="2.24163">
        <ele>277.48</ele>
        <time>2015-08-15T06:14:36Z</time>
      </trkpt>
      <trkpt lat="43.92527" lon="2.24158">
        <ele>277.96</ele>
        <time>2015-08-15T06:14:41Z</time>
      </trkpt>
      <trkpt lat="43.92519" lon="2.24152">
        <ele>278.44</ele>
        <time>2015-08-15T06:14:46Z</time>
      </trkpt>
      <trkpt lat="43.92512" lon="2.24147">
        <ele>279.4</ele>
        <time>2015-08-15T06:14:51Z</time>
      </trkpt>
      <trkpt lat="43.92505" lon="2.24142">
        <ele>279.4</ele>
        <time>2015-08-15T06:14:56Z</time>
      </trkpt>
      <trkpt lat="43.92498" lon="2.24137">
        <ele>279.4</ele>
        <time>2015-08-15T06:15:01Z</time>
      </trkpt>
      <trkpt lat="43.92491" lon="2.24132">
        <ele>278.92</ele>
        <time>2015-08-15T06:15:06Z</time>
      </trkpt>
      <trkpt lat="43.92485" lon="2.24127">
        <ele>279.88</ele>
        <time>2015-08-15T06:15:11Z</time>
      </trkpt>
      <trkpt lat="43.92479" lon="2.24125">
        <ele>280.84</ele>
        <time>2015-08-15T06:15:16Z</time>
      </trkpt>
      <trkpt lat="43.92475" lon="2.24122">
        <ele>283.25</ele>
        <time>2015-08-15T06:15:21Z</time>
      </trkpt>
      <trkpt lat="43.92468" lon="2.24115">
        <ele>285.17</ele>
        <time>2015-08-15T06:15:26Z</time>
      </trkpt>
      <trkpt lat="43.9246" lon="2.24109">
        <ele>288.05</ele>
        <time>2015-08-15T06:15:31Z</time>
      </trkpt>
      <trkpt lat="43.92453" lon="2.24103">
        <ele>289.01</ele>
        <time>2015-08-15T06:15:36Z</time>
      </trkpt>
      <trkpt lat="43.92445" lon="2.24098">
        <ele>287.57</ele>
        <time>2015-08-15T06:15:41Z</time>
      </trkpt>
      <trkpt lat="43.92437" lon="2.24092">
        <ele>286.13</ele>
        <time>2015-08-15T06:15:46Z</time>
      </trkpt>
      <trkpt lat="43.9243" lon="2.24086">
        <ele>284.21</ele>
        <time>2015-08-15T06:15:51Z</time>
      </trkpt>
      <trkpt lat="43.92424" lon="2.2408">
        <ele>283.25</ele>
        <time>2015-08-15T06:15:56Z</time>
      </trkpt>
      <trkpt lat="43.92417" lon="2.24074">
        <ele>281.32</ele>
        <time>2015-08-15T06:16:01Z</time>
      </trkpt>
      <trkpt lat="43.92411" lon="2.24066">
        <ele>280.84</ele>
        <time>2015-08-15T06:16:06Z</time>
      </trkpt>
      <trkpt lat="43.92405" lon="2.2406">
        <ele>279.88</ele>
        <time>2015-08-15T06:16:11Z</time>
      </trkpt>
      <trkpt lat="43.924" lon="2.24052">
        <ele>277.96</ele>
        <time>2015-08-15T06:16:16Z</time>
      </trkpt>
      <trkpt lat="43.92394" lon="2.24044">
        <ele>277</ele>
        <time>2015-08-15T06:16:21Z</time>
      </trkpt>
      <trkpt lat="43.92389" lon="2.24035">
        <ele>277.48</ele>
        <time>2015-08-15T06:16:26Z</time>
      </trkpt>
      <trkpt lat="43.92385" lon="2.24028">
        <ele>277</ele>
        <time>2015-08-15T06:16:31Z</time>
      </trkpt>
      <trkpt lat="43.92379" lon="2.2402">
        <ele>276.52</ele>
        <time>2015-08-15T06:16:36Z</time>
      </trkpt>
      <trkpt lat="43.92374" lon="2.24013">
        <ele>276.04</ele>
        <time>2015-08-15T06:16:41Z</time>
      </trkpt>
      <trkpt lat="43.9237" lon="2.24004">
        <ele>276.04</ele>
        <time>2015-08-15T06:16:46Z</time>
      </trkpt>
      <trkpt lat="43.92365" lon="2.23996">
        <ele>275.56</ele>
        <time>2015-08-15T06:16:51Z</time>
      </trkpt>
      <trkpt lat="43.92361" lon="2.23987">
        <ele>275.56</ele>
        <time>2015-08-15T06:16:56Z</time>
      </trkpt>
      <trkpt lat="43.92357" lon="2.23977">
        <ele>277</ele>
        <time>2015-08-15T06:17:01Z</time>
      </trkpt>
      <trkpt lat="43.92353" lon="2.23968">
        <ele>276.52</ele>
        <time>2015-08-15T06:17:06Z</time>
      </trkpt>
      <trkpt lat="43.92349" lon="2.23958">
        <ele>275.56</ele>
        <time>2015-08-15T06:17:11Z</time>
      </trkpt>
      <trkpt lat="43.92345" lon="2.23949">
        <ele>276.04</ele>
        <time>2015-08-15T06:17:16Z</time>
      </trkpt>
      <trkpt lat="43.92343" lon="2.23938">
        <ele>277</ele>
        <time>2015-08-15T06:17:21Z</time>
      </trkpt>
      <trkpt lat="43.92342" lon="2.23927">
        <ele>277</ele>
        <time>2015-08-15T06:17:26Z</time>
      </trkpt>
      <trkpt lat="43.92342" lon="2.23916">
        <ele>277.96</ele>
        <time>2015-08-15T06:17:31Z</time>
      </trkpt>
      <trkpt lat="43.92343" lon="2.23905">
        <ele>277.96</ele>
        <time>2015-08-15T06:17:36Z</time>
      </trkpt>
      <trkpt lat="43.92342" lon="2.23894">
        <ele>275.56</ele>
        <time>2015-08-15T06:17:41Z</time>
      </trkpt>
      <trkpt lat="43.92342" lon="2.23883">
        <ele>273.63</ele>
        <time>2015-08-15T06:17:46Z</time>
      </trkpt>
      <trkpt lat="43.92343" lon="2.23874">
        <ele>272.67</ele>
        <time>2015-08-15T06:17:51Z</time>
      </trkpt>
      <trkpt lat="43.92346" lon="2.23863">
        <ele>273.15</ele>
        <time>2015-08-15T06:17:56Z</time>
      </trkpt>
      <trkpt lat="43.92348" lon="2.23852">
        <ele>273.15</ele>
        <time>2015-08-15T06:18:01Z</time>
      </trkpt>
      <trkpt lat="43.92351" lon="2.23842">
        <ele>273.63</ele>
        <time>2015-08-15T06:18:06Z</time>
      </trkpt>
      <trkpt lat="43.92352" lon="2.23832">
        <ele>273.15</ele>
        <time>2015-08-15T06:18:11Z</time>
      </trkpt>
      <trkpt lat="43.92354" lon="2.23821">
        <ele>271.71</ele>
        <time>2015-08-15T06:18:16Z</time>
      </trkpt>
      <trkpt lat="43.92357" lon="2.23811">
        <ele>270.75</ele>
        <time>2015-08-15T06:18:21Z</time>
      </trkpt>
      <trkpt lat="43.92359" lon="2.238">
        <ele>269.31</ele>
        <time>2015-08-15T06:18:26Z</time>
      </trkpt>
      <trkpt lat="43.92362" lon="2.2379">
        <ele>268.35</ele>
        <time>2015-08-15T06:18:31Z</time>
      </trkpt>
      <trkpt lat="43.92364" lon="2.23779">
        <ele>266.9</ele>
        <time>2015-08-15T06:18:36Z</time>
      </trkpt>
      <trkpt lat="43.92367" lon="2.23768">
        <ele>267.38</ele>
        <time>2015-08-15T06:18:41Z</time>
      </trkpt>
      <trkpt lat="43.92369" lon="2.23757">
        <ele>266.9</ele>
        <time>2015-08-15T06:18:46Z</time>
      </trkpt>
      <trkpt lat="43.92372" lon="2.23747">
        <ele>265.94</ele>
        <time>2015-08-15T06:18:51Z</time>
      </trkpt>
      <trkpt lat="43.92374" lon="2.23736">
        <ele>266.42</ele>
        <time>2015-08-15T06:18:56Z</time>
      </trkpt>
      <trkpt lat="43.92376" lon="2.23725">
        <ele>267.38</ele>
        <time>2015-08-15T06:19:01Z</time>
      </trkpt>
      <trkpt lat="43.92378" lon="2.23715">
        <ele>267.86</ele>
        <time>2015-08-15T06:19:06Z</time>
      </trkpt>
      <trkpt lat="43.92381" lon="2.23704">
        <ele>267.86</ele>
        <time>2015-08-15T06:19:11Z</time>
      </trkpt>
      <trkpt lat="43.92383" lon="2.23693">
        <ele>268.35</ele>
        <time>2015-08-15T06:19:16Z</time>
      </trkpt>
      <trkpt lat="43.92386" lon="2.23681">
        <ele>269.79</ele>
        <time>2015-08-15T06:19:21Z</time>
      </trkpt>
      <trkpt lat="43.92388" lon="2.23669">
        <ele>270.27</ele>
        <time>2015-08-15T06:19:26Z</time>
      </trkpt>
      <trkpt lat="43.9239" lon="2.23659">
        <ele>269.79</ele>
        <time>2015-08-15T06:19:31Z</time>
      </trkpt>
      <trkpt lat="43.92393" lon="2.23649">
        <ele>269.31</ele>
        <time>2015-08-15T06:19:36Z</time>
      </trkpt>
      <trkpt lat="43.92395" lon="2.23638">
        <ele>269.31</ele>
        <time>2015-08-15T06:19:41Z</time>
      </trkpt>
      <trkpt lat="43.92397" lon="2.23627">
        <ele>268.83</ele>
        <time>2015-08-15T06:19:46Z</time>
      </trkpt>
      <trkpt lat="43.924" lon="2.23616">
        <ele>268.35</ele>
        <time>2015-08-15T06:19:51Z</time>
      </trkpt>
      <trkpt lat="43.92402" lon="2.23605">
        <ele>268.35</ele>
        <time>2015-08-15T06:19:56Z</time>
      </trkpt>
      <trkpt lat="43.92404" lon="2.23594">
        <ele>267.86</ele>
        <time>2015-08-15T06:20:01Z</time>
      </trkpt>
      <trkpt lat="43.92407" lon="2.23584">
        <ele>268.35</ele>
        <time>2015-08-15T06:20:06Z</time>
      </trkpt>
      <trkpt lat="43.9241" lon="2.23572">
        <ele>267.86</ele>
        <time>2015-08-15T06:20:11Z</time>
      </trkpt>
      <trkpt lat="43.92412" lon="2.23561">
        <ele>267.38</ele>
        <time>2015-08-15T06:20:16Z</time>
      </trkpt>
      <trkpt lat="43.92414" lon="2.2355">
        <ele>266.42</ele>
        <time>2015-08-15T06:20:21Z</time>
      </trkpt>
      <trkpt lat="43.92417" lon="2.2354">
        <ele>265.46</ele>
        <time>2015-08-15T06:20:26Z</time>
      </trkpt>
      <trkpt lat="43.92419" lon="2.23529">
        <ele>264.5</ele>
        <time>2015-08-15T06:20:31Z</time>
      </trkpt>
      <trkpt lat="43.92422" lon="2.23518">
        <ele>264.02</ele>
        <time>2015-08-15T06:20:36Z</time>
      </trkpt>
      <trkpt lat="43.92424" lon="2.23507">
        <ele>264.02</ele>
        <time>2015-08-15T06:20:41Z</time>
      </trkpt>
      <trkpt lat="43.92426" lon="2.23496">
        <ele>264.02</ele>
        <time>2015-08-15T06:20:46Z</time>
      </trkpt>
      <trkpt lat="43.92429" lon="2.23486">
        <ele>263.54</ele>
        <time>2015-08-15T06:20:51Z</time>
      </trkpt>
      <trkpt lat="43.92431" lon="2.23475">
        <ele>262.58</ele>
        <time>2015-08-15T06:20:56Z</time>
      </trkpt>
      <trkpt lat="43.92434" lon="2.23465">
        <ele>262.1</ele>
        <time>2015-08-15T06:21:01Z</time>
      </trkpt>
      <trkpt lat="43.92436" lon="2.23455">
        <ele>262.1</ele>
        <time>2015-08-15T06:21:06Z</time>
      </trkpt>
      <trkpt lat="43.92439" lon="2.23443">
        <ele>262.1</ele>
        <time>2015-08-15T06:21:11Z</time>
      </trkpt>
      <trkpt lat="43.92441" lon="2.23433">
        <ele>261.62</ele>
        <time>2015-08-15T06:21:16Z</time>
      </trkpt>
      <trkpt lat="43.92444" lon="2.23421">
        <ele>261.62</ele>
        <time>2015-08-15T06:21:21Z</time>
      </trkpt>
      <trkpt lat="43.92446" lon="2.23411">
        <ele>261.14</ele>
        <time>2015-08-15T06:21:26Z</time>
      </trkpt>
      <trkpt lat="43.92448" lon="2.23401">
        <ele>261.62</ele>
        <time>2015-08-15T06:21:31Z</time>
      </trkpt>
      <trkpt lat="43.92452" lon="2.23391">
        <ele>261.14</ele>
        <time>2015-08-15T06:21:36Z</time>
      </trkpt>
      <trkpt lat="43.9246" lon="2.23391">
        <ele>260.17</ele>
        <time>2015-08-15T06:21:41Z</time>
      </trkpt>
      <trkpt lat="43.92469" lon="2.23392">
        <ele>259.21</ele>
        <time>2015-08-15T06:21:46Z</time>
      </trkpt>
      <trkpt lat="43.92476" lon="2.23393">
        <ele>259.21</ele>
        <time>2015-08-15T06:21:51Z</time>
      </trkpt>
      <trkpt lat="43.92485" lon="2.23394">
        <ele>258.73</ele>
        <time>2015-08-15T06:21:56Z</time>
      </trkpt>
      <trkpt lat="43.92493" lon="2.23395">
        <ele>257.29</ele>
        <time>2015-08-15T06:22:01Z</time>
      </trkpt>
      <trkpt lat="43.92501" lon="2.23396">
        <ele>255.85</ele>
        <time>2015-08-15T06:22:06Z</time>
      </trkpt>
      <trkpt lat="43.92509" lon="2.23398">
        <ele>254.89</ele>
        <time>2015-08-15T06:22:11Z</time>
      </trkpt>
      <trkpt lat="43.92517" lon="2.23399">
        <ele>255.37</ele>
        <time>2015-08-15T06:22:16Z</time>
      </trkpt>
      <trkpt lat="43.92525" lon="2.23401">
        <ele>255.37</ele>
        <time>2015-08-15T06:22:21Z</time>
      </trkpt>
      <trkpt lat="43.92533" lon="2.23402">
        <ele>254.89</ele>
        <time>2015-08-15T06:22:26Z</time>
      </trkpt>
      <trkpt lat="43.92541" lon="2.23403">
        <ele>253.93</ele>
        <time>2015-08-15T06:22:31Z</time>
      </trkpt>
      <trkpt lat="43.92549" lon="2.23404">
        <ele>253.44</ele>
        <time>2015-08-15T06:22:36Z</time>
      </trkpt>
      <trkpt lat="43.92557" lon="2.23405">
        <ele>253.93</ele>
        <time>2015-08-15T06:22:41Z</time>
      </trkpt>
      <trkpt lat="43.92566" lon="2.23407">
        <ele>252</ele>
        <time>2015-08-15T06:22:46Z</time>
      </trkpt>
      <trkpt lat="43.92573" lon="2.23408">
        <ele>251.52</ele>
        <time>2015-08-15T06:22:51Z</time>
      </trkpt>
      <trkpt lat="43.92581" lon="2.23409">
        <ele>251.04</ele>
        <time>2015-08-15T06:22:56Z</time>
      </trkpt>
      <trkpt lat="43.9259" lon="2.23411">
        <ele>249.6</ele>
        <time>2015-08-15T06:23:01Z</time>
      </trkpt>
      <trkpt lat="43.92597" lon="2.23413">
        <ele>248.16</ele>
        <time>2015-08-15T06:23:06Z</time>
      </trkpt>
      <trkpt lat="43.92605" lon="2.23415">
        <ele>247.68</ele>
        <time>2015-08-15T06:23:11Z</time>
      </trkpt>
      <trkpt lat="43.92613" lon="2.23416">
        <ele>246.72</ele>
        <time>2015-08-15T06:23:16Z</time>
      </trkpt>
      <trkpt lat="43.92621" lon="2.23417">
        <ele>245.75</ele>
        <time>2015-08-15T06:23:21Z</time>
      </trkpt>
      <trkpt lat="43.9263" lon="2.23419">
        <ele>244.79</ele>
        <time>2015-08-15T06:23:26Z</time>
      </trkpt>
      <trkpt lat="43.92638" lon="2.23421">
        <ele>243.83</ele>
        <time>2015-08-15T06:23:31Z</time>
      </trkpt>
      <trkpt lat="43.92645" lon="2.23423">
        <ele>244.31</ele>
        <time>2015-08-15T06:23:36Z</time>
      </trkpt>
      <trkpt lat="43.92653" lon="2.23426">
        <ele>245.27</ele>
        <time>2015-08-15T06:23:41Z</time>
      </trkpt>
      <trkpt lat="43.92661" lon="2.23426">
        <ele>246.23</ele>
        <time>2015-08-15T06:23:46Z</time>
      </trkpt>
      <trkpt lat="43.9267" lon="2.23426">
        <ele>245.75</ele>
        <time>2015-08-15T06:23:51Z</time>
      </trkpt>
      <trkpt lat="43.92678" lon="2.23426">
        <ele>245.27</ele>
        <time>2015-08-15T06:23:56Z</time>
      </trkpt>
      <trkpt lat="43.92685" lon="2.23425">
        <ele>244.79</ele>
        <time>2015-08-15T06:24:01Z</time>
      </trkpt>
      <trkpt lat="43.92693" lon="2.23424">
        <ele>244.79</ele>
        <time>2015-08-15T06:24:06Z</time>
      </trkpt>
      <trkpt lat="43.92702" lon="2.23423">
        <ele>243.83</ele>
        <time>2015-08-15T06:24:11Z</time>
      </trkpt>
      <trkpt lat="43.92711" lon="2.23423">
        <ele>243.35</ele>
        <time>2015-08-15T06:24:16Z</time>
      </trkpt>
      <trkpt lat="43.9272" lon="2.23422">
        <ele>242.39</ele>
        <time>2015-08-15T06:24:21Z</time>
      </trkpt>
      <trkpt lat="43.92727" lon="2.23421">
        <ele>242.39</ele>
        <time>2015-08-15T06:24:26Z</time>
      </trkpt>
      <trkpt lat="43.92736" lon="2.23421">
        <ele>243.35</ele>
        <time>2015-08-15T06:24:31Z</time>
      </trkpt>
      <trkpt lat="43.92744" lon="2.23422">
        <ele>242.87</ele>
        <time>2015-08-15T06:24:36Z</time>
      </trkpt>
      <trkpt lat="43.92751" lon="2.23423">
        <ele>242.39</ele>
        <time>2015-08-15T06:24:41Z</time>
      </trkpt>
      <trkpt lat="43.92757" lon="2.23425">
        <ele>242.87</ele>
        <time>2015-08-15T06:24:46Z</time>
      </trkpt>
      <trkpt lat="43.92764" lon="2.23427">
        <ele>242.87</ele>
        <time>2015-08-15T06:24:51Z</time>
      </trkpt>
      <trkpt lat="43.92771" lon="2.23431">
        <ele>242.39</ele>
        <time>2015-08-15T06:24:56Z</time>
      </trkpt>
      <trkpt lat="43.92777" lon="2.23433">
        <ele>241.43</ele>
        <time>2015-08-15T06:25:01Z</time>
      </trkpt>
      <trkpt lat="43.92783" lon="2.23435">
        <ele>241.43</ele>
        <time>2015-08-15T06:25:06Z</time>
      </trkpt>
      <trkpt lat="43.92789" lon="2.23437">
        <ele>241.91</ele>
        <time>2015-08-15T06:25:11Z</time>
      </trkpt>
      <trkpt lat="43.92796" lon="2.2344">
        <ele>242.87</ele>
        <time>2015-08-15T06:25:16Z</time>
      </trkpt>
      <trkpt lat="43.92803" lon="2.23441">
        <ele>243.83</ele>
        <time>2015-08-15T06:25:21Z</time>
      </trkpt>
      <trkpt lat="43.92812" lon="2.23445">
        <ele>243.83</ele>
        <time>2015-08-15T06:25:26Z</time>
      </trkpt>
      <trkpt lat="43.9282" lon="2.23444">
        <ele>244.79</ele>
        <time>2015-08-15T06:25:31Z</time>
      </trkpt>
      <trkpt lat="43.92827" lon="2.23446">
        <ele>245.27</ele>
        <time>2015-08-15T06:25:36Z</time>
      </trkpt>
      <trkpt lat="43.92834" lon="2.23447">
        <ele>244.79</ele>
        <time>2015-08-15T06:25:41Z</time>
      </trkpt>
      <trkpt lat="43.92841" lon="2.23446">
        <ele>243.83</ele>
        <time>2015-08-15T06:25:46Z</time>
      </trkpt>
      <trkpt lat="43.92847" lon="2.23445">
        <ele>244.31</ele>
        <time>2015-08-15T06:25:51Z</time>
      </trkpt>
      <trkpt lat="43.92853" lon="2.23443">
        <ele>243.35</ele>
        <time>2015-08-15T06:25:56Z</time>
      </trkpt>
      <trkpt lat="43.92859" lon="2.23437">
        <ele>243.35</ele>
        <time>2015-08-15T06:26:01Z</time>
      </trkpt>
      <trkpt lat="43.92866" lon="2.23433">
        <ele>243.83</ele>
        <time>2015-08-15T06:26:06Z</time>
      </trkpt>
      <trkpt lat="43.92874" lon="2.23429">
        <ele>245.27</ele>
        <time>2015-08-15T06:26:11Z</time>
      </trkpt>
      <trkpt lat="43.92881" lon="2.23424">
        <ele>245.75</ele>
        <time>2015-08-15T06:26:16Z</time>
      </trkpt>
      <trkpt lat="43.92888" lon="2.23418">
        <ele>246.72</ele>
        <time>2015-08-15T06:26:21Z</time>
      </trkpt>
      <trkpt lat="43.92893" lon="2.23413">
        <ele>247.68</ele>
        <time>2015-08-15T06:26:26Z</time>
      </trkpt>
      <trkpt lat="43.92898" lon="2.23406">
        <ele>249.12</ele>
        <time>2015-08-15T06:26:31Z</time>
      </trkpt>
      <trkpt lat="43.929" lon="2.23398">
        <ele>250.08</ele>
        <time>2015-08-15T06:26:36Z</time>
      </trkpt>
      <trkpt lat="43.92902" lon="2.2339">
        <ele>251.04</ele>
        <time>2015-08-15T06:26:41Z</time>
      </trkpt>
      <trkpt lat="43.92901" lon="2.23381">
        <ele>251.04</ele>
        <time>2015-08-15T06:26:46Z</time>
      </trkpt>
      <trkpt lat="43.929" lon="2.23373">
        <ele>252</ele>
        <time>2015-08-15T06:26:51Z</time>
      </trkpt>
      <trkpt lat="43.92898" lon="2.23365">
        <ele>252.96</ele>
        <time>2015-08-15T06:26:56Z</time>
      </trkpt>
      <trkpt lat="43.92896" lon="2.23357">
        <ele>253.93</ele>
        <time>2015-08-15T06:27:01Z</time>
      </trkpt>
      <trkpt lat="43.92894" lon="2.23348">
        <ele>255.85</ele>
        <time>2015-08-15T06:27:06Z</time>
      </trkpt>
      <trkpt lat="43.9289" lon="2.23339">
        <ele>258.25</ele>
        <time>2015-08-15T06:27:11Z</time>
      </trkpt>
      <trkpt lat="43.92889" lon="2.2333">
        <ele>259.69</ele>
        <time>2015-08-15T06:27:16Z</time>
      </trkpt>
      <trkpt lat="43.92888" lon="2.2332">
        <ele>261.14</ele>
        <time>2015-08-15T06:27:21Z</time>
      </trkpt>
      <trkpt lat="43.92886" lon="2.2331">
        <ele>262.1</ele>
        <time>2015-08-15T06:27:26Z</time>
      </trkpt>
      <trkpt lat="43.92884" lon="2.23299">
        <ele>263.06</ele>
        <time>2015-08-15T06:27:31Z</time>
      </trkpt>
      <trkpt lat="43.92882" lon="2.23288">
        <ele>263.54</ele>
        <time>2015-08-15T06:27:36Z</time>
      </trkpt>
      <trkpt lat="43.9288" lon="2.23278">
        <ele>263.06</ele>
        <time>2015-08-15T06:27:41Z</time>
      </trkpt>
      <trkpt lat="43.92879" lon="2.23268">
        <ele>262.58</ele>
        <time>2015-08-15T06:27:46Z</time>
      </trkpt>
      <trkpt lat="43.92878" lon="2.23258">
        <ele>262.58</ele>
        <time>2015-08-15T06:27:51Z</time>
      </trkpt>
      <trkpt lat="43.92877" lon="2.23249">
        <ele>264.02</ele>
        <time>2015-08-15T06:27:56Z</time>
      </trkpt>
      <trkpt lat="43.92877" lon="2.23238">
        <ele>264.98</ele>
        <time>2015-08-15T06:28:01Z</time>
      </trkpt>
      <trkpt lat="43.92877" lon="2.23228">
        <ele>265.94</ele>
        <time>2015-08-15T06:28:06Z</time>
      </trkpt>
      <trkpt lat="43.92877" lon="2.23218">
        <ele>266.9</ele>
        <time>2015-08-15T06:28:11Z</time>
      </trkpt>
      <trkpt lat="43.92878" lon="2.23208">
        <ele>266.42</ele>
        <time>2015-08-15T06:28:16Z</time>
      </trkpt>
      <trkpt lat="43.9288" lon="2.23197">
        <ele>266.42</ele>
        <time>2015-08-15T06:28:21Z</time>
      </trkpt>
      <trkpt lat="43.92882" lon="2.23187">
        <ele>267.38</ele>
        <time>2015-08-15T06:28:26Z</time>
      </trkpt>
      <trkpt lat="43.92884" lon="2.23177">
        <ele>269.31</ele>
        <time>2015-08-15T06:28:31Z</time>
      </trkpt>
      <trkpt lat="43.92887" lon="2.23168">
        <ele>270.27</ele>
        <time>2015-08-15T06:28:36Z</time>
      </trkpt>
      <trkpt lat="43.92891" lon="2.23159">
        <ele>270.27</ele>
        <time>2015-08-15T06:28:41Z</time>
      </trkpt>
      <trkpt lat="43.92896" lon="2.23151">
        <ele>269.79</ele>
        <time>2015-08-15T06:28:46Z</time>
      </trkpt>
      <trkpt lat="43.929" lon="2.23144">
        <ele>269.31</ele>
        <time>2015-08-15T06:28:51Z</time>
      </trkpt>
      <trkpt lat="43.92905" lon="2.23135">
        <ele>268.83</ele>
        <time>2015-08-15T06:28:56Z</time>
      </trkpt>
      <trkpt lat="43.92909" lon="2.23127">
        <ele>267.86</ele>
        <time>2015-08-15T06:29:01Z</time>
      </trkpt>
      <trkpt lat="43.92913" lon="2.23119">
        <ele>266.9</ele>
        <time>2015-08-15T06:29:06Z</time>
      </trkpt>
      <trkpt lat="43.92917" lon="2.23111">
        <ele>267.86</ele>
        <time>2015-08-15T06:29:11Z</time>
      </trkpt>
      <trkpt lat="43.92921" lon="2.23104">
        <ele>267.86</ele>
        <time>2015-08-15T06:29:16Z</time>
      </trkpt>
      <trkpt lat="43.92925" lon="2.23096">
        <ele>267.38</ele>
        <time>2015-08-15T06:29:21Z</time>
      </trkpt>
      <trkpt lat="43.92928" lon="2.23088">
        <ele>267.38</ele>
        <time>2015-08-15T06:29:26Z</time>
      </trkpt>
      <trkpt lat="43.92933" lon="2.23078">
        <ele>266.9</ele>
        <time>2015-08-15T06:29:31Z</time>
      </trkpt>
      <trkpt lat="43.92937" lon="2.2307">
        <ele>265.94</ele>
        <time>2015-08-15T06:29:36Z</time>
      </trkpt>
      <trkpt lat="43.92941" lon="2.23063">
        <ele>264.98</ele>
        <time>2015-08-15T06:29:41Z</time>
      </trkpt>
      <trkpt lat="43.92945" lon="2.23055">
        <ele>264.02</ele>
        <time>2015-08-15T06:29:46Z</time>
      </trkpt>
      <trkpt lat="43.92949" lon="2.23048">
        <ele>263.54</ele>
        <time>2015-08-15T06:29:51Z</time>
      </trkpt>
      <trkpt lat="43.92954" lon="2.23041">
        <ele>263.54</ele>
        <time>2015-08-15T06:29:56Z</time>
      </trkpt>
      <trkpt lat="43.92958" lon="2.23035">
        <ele>264.02</ele>
        <time>2015-08-15T06:30:01Z</time>
      </trkpt>
      <trkpt lat="43.92963" lon="2.23028">
        <ele>264.98</ele>
        <time>2015-08-15T06:30:06Z</time>
      </trkpt>
      <trkpt lat="43.92968" lon="2.23023">
        <ele>265.94</ele>
        <time>2015-08-15T06:30:11Z</time>
      </trkpt>
      <trkpt lat="43.92974" lon="2.23018">
        <ele>266.42</ele>
        <time>2015-08-15T06:30:16Z</time>
      </trkpt>
      <trkpt lat="43.9298" lon="2.23013">
        <ele>266.9</ele>
        <time>2015-08-15T06:30:21Z</time>
      </trkpt>
      <trkpt lat="43.92987" lon="2.23009">
        <ele>267.86</ele>
        <time>2015-08-15T06:30:26Z</time>
      </trkpt>
      <trkpt lat="43.92995" lon="2.23004">
        <ele>267.38</ele>
        <time>2015-08-15T06:30:31Z</time>
      </trkpt>
      <trkpt lat="43.93002" lon="2.23002">
        <ele>266.9</ele>
        <time>2015-08-15T06:30:36Z</time>
      </trkpt>
      <trkpt lat="43.93009" lon="2.22999">
        <ele>265.94</ele>
        <time>2015-08-15T06:30:41Z</time>
      </trkpt>
      <trkpt lat="43.93015" lon="2.22996">
        <ele>265.94</ele>
        <time>2015-08-15T06:30:46Z</time>
      </trkpt>
      <trkpt lat="43.93022" lon="2.22993">
        <ele>265.46</ele>
        <time>2015-08-15T06:30:51Z</time>
      </trkpt>
      <trkpt lat="43.93029" lon="2.22989">
        <ele>265.46</ele>
        <time>2015-08-15T06:30:56Z</time>
      </trkpt>
      <trkpt lat="43.93036" lon="2.22987">
        <ele>264.98</ele>
        <time>2015-08-15T06:31:01Z</time>
      </trkpt>
      <trkpt lat="43.93043" lon="2.22984">
        <ele>264.5</ele>
        <time>2015-08-15T06:31:06Z</time>
      </trkpt>
      <trkpt lat="43.93049" lon="2.22981">
        <ele>264.02</ele>
        <time>2015-08-15T06:31:11Z</time>
      </trkpt>
      <trkpt lat="43.93057" lon="2.22978">
        <ele>263.54</ele>
        <time>2015-08-15T06:31:16Z</time>
      </trkpt>
      <trkpt lat="43.93063" lon="2.22975">
        <ele>262.58</ele>
        <time>2015-08-15T06:31:21Z</time>
      </trkpt>
      <trkpt lat="43.93069" lon="2.2297">
        <ele>261.62</ele>
        <time>2015-08-15T06:31:26Z</time>
      </trkpt>
      <trkpt lat="43.93076" lon="2.22966">
        <ele>260.65</ele>
        <time>2015-08-15T06:31:31Z</time>
      </trkpt>
      <trkpt lat="43.93082" lon="2.22962">
        <ele>259.21</ele>
        <time>2015-08-15T06:31:36Z</time>
      </trkpt>
      <trkpt lat="43.93087" lon="2.22957">
        <ele>258.25</ele>
        <time>2015-08-15T06:31:41Z</time>
      </trkpt>
      <trkpt lat="43.93091" lon="2.22949">
        <ele>257.29</ele>
        <time>2015-08-15T06:31:46Z</time>
      </trkpt>
      <trkpt lat="43.93096" lon="2.22942">
        <ele>255.37</ele>
        <time>2015-08-15T06:31:51Z</time>
      </trkpt>
      <trkpt lat="43.93101" lon="2.22935">
        <ele>253.93</ele>
        <time>2015-08-15T06:31:56Z</time>
      </trkpt>
      <trkpt lat="43.93105" lon="2.22927">
        <ele>253.44</ele>
        <time>2015-08-15T06:32:01Z</time>
      </trkpt>
      <trkpt lat="43.93108" lon="2.22919">
        <ele>253.44</ele>
        <time>2015-08-15T06:32:06Z</time>
      </trkpt>
      <trkpt lat="43.93112" lon="2.2291">
        <ele>252</ele>
        <time>2015-08-15T06:32:11Z</time>
      </trkpt>
      <trkpt lat="43.93114" lon="2.22901">
        <ele>251.04</ele>
        <time>2015-08-15T06:32:16Z</time>
      </trkpt>
      <trkpt lat="43.93117" lon="2.22891">
        <ele>250.08</ele>
        <time>2015-08-15T06:32:21Z</time>
      </trkpt>
      <trkpt lat="43.93119" lon="2.22881">
        <ele>249.12</ele>
        <time>2015-08-15T06:32:26Z</time>
      </trkpt>
      <trkpt lat="43.9312" lon="2.22871">
        <ele>249.12</ele>
        <time>2015-08-15T06:32:31Z</time>
      </trkpt>
      <trkpt lat="43.93121" lon="2.22861">
        <ele>247.68</ele>
        <time>2015-08-15T06:32:36Z</time>
      </trkpt>
      <trkpt lat="43.93123" lon="2.2285">
        <ele>246.23</ele>
        <time>2015-08-15T06:32:41Z</time>
      </trkpt>
      <trkpt lat="43.93123" lon="2.22839">
        <ele>244.31</ele>
        <time>2015-08-15T06:32:46Z</time>
      </trkpt>
      <trkpt lat="43.93125" lon="2.22829">
        <ele>242.87</ele>
        <time>2015-08-15T06:32:51Z</time>
      </trkpt>
      <trkpt lat="43.93126" lon="2.22818">
        <ele>243.35</ele>
        <time>2015-08-15T06:32:56Z</time>
      </trkpt>
      <trkpt lat="43.93126" lon="2.22806">
        <ele>242.87</ele>
        <time>2015-08-15T06:33:01Z</time>
      </trkpt>
      <trkpt lat="43.93127" lon="2.22795">
        <ele>242.87</ele>
        <time>2015-08-15T06:33:06Z</time>
      </trkpt>
      <trkpt lat="43.93128" lon="2.22784">
        <ele>242.87</ele>
        <time>2015-08-15T06:33:11Z</time>
      </trkpt>
      <trkpt lat="43.93127" lon="2.22774">
        <ele>241.43</ele>
        <time>2015-08-15T06:33:16Z</time>
      </trkpt>
      <trkpt lat="43.93127" lon="2.22764">
        <ele>240.47</ele>
        <time>2015-08-15T06:33:21Z</time>
      </trkpt>
      <trkpt lat="43.93128" lon="2.22753">
        <ele>238.54</ele>
        <time>2015-08-15T06:33:26Z</time>
      </trkpt>
      <trkpt lat="43.93129" lon="2.22743">
        <ele>238.54</ele>
        <time>2015-08-15T06:33:31Z</time>
      </trkpt>
      <trkpt lat="43.93135" lon="2.22739">
        <ele>239.02</ele>
        <time>2015-08-15T06:33:36Z</time>
      </trkpt>
      <trkpt lat="43.93143" lon="2.22741">
        <ele>239.02</ele>
        <time>2015-08-15T06:33:41Z</time>
      </trkpt>
      <trkpt lat="43.9315" lon="2.22745">
        <ele>238.06</ele>
        <time>2015-08-15T06:33:46Z</time>
      </trkpt>
      <trkpt lat="43.93158" lon="2.2275">
        <ele>236.14</ele>
        <time>2015-08-15T06:33:51Z</time>
      </trkpt>
      <trkpt lat="43.93165" lon="2.22757">
        <ele>235.66</ele>
        <time>2015-08-15T06:33:56Z</time>
      </trkpt>
      <trkpt lat="43.93172" lon="2.22762">
        <ele>237.1</ele>
        <time>2015-08-15T06:34:01Z</time>
      </trkpt>
      <trkpt lat="43.93179" lon="2.22769">
        <ele>238.54</ele>
        <time>2015-08-15T06:34:06Z</time>
      </trkpt>
      <trkpt lat="43.93185" lon="2.22775">
        <ele>239.51</ele>
        <time>2015-08-15T06:34:11Z</time>
      </trkpt>
      <trkpt lat="43.93192" lon="2.22782">
        <ele>239.51</ele>
        <time>2015-08-15T06:34:16Z</time>
      </trkpt>
      <trkpt lat="43.93197" lon="2.2279">
        <ele>239.99</ele>
        <time>2015-08-15T06:34:21Z</time>
      </trkpt>
      <trkpt lat="43.93203" lon="2.22798">
        <ele>240.95</ele>
        <time>2015-08-15T06:34:26Z</time>
      </trkpt>
      <trkpt lat="43.93209" lon="2.22806">
        <ele>241.43</ele>
        <time>2015-08-15T06:34:31Z</time>
      </trkpt>
      <trkpt lat="43.93216" lon="2.22813">
        <ele>241.43</ele>
        <time>2015-08-15T06:34:36Z</time>
      </trkpt>
      <trkpt lat="43.93223" lon="2.2282">
        <ele>241.43</ele>
        <time>2015-08-15T06:34:41Z</time>
      </trkpt>
      <trkpt lat="43.93229" lon="2.22826">
        <ele>242.39</ele>
        <time>2015-08-15T06:34:46Z</time>
      </trkpt>
      <trkpt lat="43.93236" lon="2.22832">
        <ele>244.79</ele>
        <time>2015-08-15T06:34:51Z</time>
      </trkpt>
      <trkpt lat="43.93244" lon="2.22836">
        <ele>246.72</ele>
        <time>2015-08-15T06:34:56Z</time>
      </trkpt>
      <trkpt lat="43.93252" lon="2.2284">
        <ele>247.68</ele>
        <time>2015-08-15T06:35:01Z</time>
      </trkpt>
      <trkpt lat="43.9326" lon="2.22844">
        <ele>247.2</ele>
        <time>2015-08-15T06:35:06Z</time>
      </trkpt>
      <trkpt lat="43.93267" lon="2.22849">
        <ele>246.72</ele>
        <time>2015-08-15T06:35:11Z</time>
      </trkpt>
      <trkpt lat="43.93274" lon="2.22855">
        <ele>248.16</ele>
        <time>2015-08-15T06:35:16Z</time>
      </trkpt>
      <trkpt lat="43.93281" lon="2.22861">
        <ele>251.04</ele>
        <time>2015-08-15T06:35:21Z</time>
      </trkpt>
      <trkpt lat="43.93289" lon="2.22866">
        <ele>252.96</ele>
        <time>2015-08-15T06:35:26Z</time>
      </trkpt>
      <trkpt lat="43.93296" lon="2.22871">
        <ele>252.96</ele>
        <time>2015-08-15T06:35:31Z</time>
      </trkpt>
      <trkpt lat="43.93303" lon="2.22876">
        <ele>252.48</ele>
        <time>2015-08-15T06:35:36Z</time>
      </trkpt>
      <trkpt lat="43.93311" lon="2.22881">
        <ele>251.52</ele>
        <time>2015-08-15T06:35:41Z</time>
      </trkpt>
      <trkpt lat="43.93318" lon="2.22884">
        <ele>251.52</ele>
        <time>2015-08-15T06:35:46Z</time>
      </trkpt>
      <trkpt lat="43.93325" lon="2.22887">
        <ele>252</ele>
        <time>2015-08-15T06:35:51Z</time>
      </trkpt>
      <trkpt lat="43.93334" lon="2.2289">
        <ele>252.96</ele>
        <time>2015-08-15T06:35:56Z</time>
      </trkpt>
      <trkpt lat="43.93342" lon="2.22891">
        <ele>252</ele>
        <time>2015-08-15T06:36:01Z</time>
      </trkpt>
      <trkpt lat="43.9335" lon="2.22893">
        <ele>250.56</ele>
        <time>2015-08-15T06:36:06Z</time>
      </trkpt>
      <trkpt lat="43.93358" lon="2.22895">
        <ele>249.12</ele>
        <time>2015-08-15T06:36:11Z</time>
      </trkpt>
      <trkpt lat="43.93365" lon="2.22898">
        <ele>249.6</ele>
        <time>2015-08-15T06:36:16Z</time>
      </trkpt>
      <trkpt lat="43.93374" lon="2.22898">
        <ele>250.56</ele>
        <time>2015-08-15T06:36:21Z</time>
      </trkpt>
      <trkpt lat="43.93382" lon="2.22899">
        <ele>249.12</ele>
        <time>2015-08-15T06:36:26Z</time>
      </trkpt>
      <trkpt lat="43.9339" lon="2.22899">
        <ele>246.23</ele>
        <time>2015-08-15T06:36:31Z</time>
      </trkpt>
      <trkpt lat="43.93398" lon="2.229">
        <ele>243.83</ele>
        <time>2015-08-15T06:36:36Z</time>
      </trkpt>
      <trkpt lat="43.93406" lon="2.22902">
        <ele>242.87</ele>
        <time>2015-08-15T06:36:41Z</time>
      </trkpt>
      <trkpt lat="43.93413" lon="2.22904">
        <ele>244.31</ele>
        <time>2015-08-15T06:36:46Z</time>
      </trkpt>
      <trkpt lat="43.93422" lon="2.22904">
        <ele>244.79</ele>
        <time>2015-08-15T06:36:51Z</time>
      </trkpt>
      <trkpt lat="43.9343" lon="2.22903">
        <ele>243.83</ele>
        <time>2015-08-15T06:36:56Z</time>
      </trkpt>
      <trkpt lat="43.93439" lon="2.22902">
        <ele>240.95</ele>
        <time>2015-08-15T06:37:01Z</time>
      </trkpt>
      <trkpt lat="43.93447" lon="2.22903">
        <ele>239.51</ele>
        <time>2015-08-15T06:37:06Z</time>
      </trkpt>
      <trkpt lat="43.93455" lon="2.22902">
        <ele>239.99</ele>
        <time>2015-08-15T06:37:11Z</time>
      </trkpt>
      <trkpt lat="43.93463" lon="2.22902">
        <ele>239.51</ele>
        <time>2015-08-15T06:37:16Z</time>
      </trkpt>
      <trkpt lat="43.93471" lon="2.22903">
        <ele>238.06</ele>
        <time>2015-08-15T06:37:21Z</time>
      </trkpt>
      <trkpt lat="43.93479" lon="2.22905">
        <ele>236.14</ele>
        <time>2015-08-15T06:37:26Z</time>
      </trkpt>
      <trkpt lat="43.93487" lon="2.22907">
        <ele>237.58</ele>
        <time>2015-08-15T06:37:31Z</time>
      </trkpt>
      <trkpt lat="43.93495" lon="2.22908">
        <ele>238.54</ele>
        <time>2015-08-15T06:37:36Z</time>
      </trkpt>
      <trkpt lat="43.93503" lon="2.2291">
        <ele>237.1</ele>
        <time>2015-08-15T06:37:41Z</time>
      </trkpt>
      <trkpt lat="43.93511" lon="2.22911">
        <ele>234.7</ele>
        <time>2015-08-15T06:37:46Z</time>
      </trkpt>
      <trkpt lat="43.93519" lon="2.22915">
        <ele>234.22</ele>
        <time>2015-08-15T06:37:51Z</time>
      </trkpt>
      <trkpt lat="43.93527" lon="2.22919">
        <ele>235.18</ele>
        <time>2015-08-15T06:37:56Z</time>
      </trkpt>
      <trkpt lat="43.93535" lon="2.22923">
        <ele>235.18</ele>
        <time>2015-08-15T06:38:01Z</time>
      </trkpt>
      <trkpt lat="43.93542" lon="2.22927">
        <ele>235.18</ele>
        <time>2015-08-15T06:38:06Z</time>
      </trkpt>
      <trkpt lat="43.93551" lon="2.22928">
        <ele>234.7</ele>
        <time>2015-08-15T06:38:11Z</time>
      </trkpt>
      <trkpt lat="43.93559" lon="2.22927">
        <ele>234.7</ele>
        <time>2015-08-15T06:38:16Z</time>
      </trkpt>
      <trkpt lat="43.93567" lon="2.22926">
        <ele>235.18</ele>
        <time>2015-08-15T06:38:21Z</time>
      </trkpt>
      <trkpt lat="43.93576" lon="2.22922">
        <ele>234.7</ele>
        <time>2015-08-15T06:38:26Z</time>
      </trkpt>
      <trkpt lat="43.93584" lon="2.22918">
        <ele>233.74</ele>
        <time>2015-08-15T06:38:31Z</time>
      </trkpt>
      <trkpt lat="43.93592" lon="2.22913">
        <ele>233.26</ele>
        <time>2015-08-15T06:38:36Z</time>
      </trkpt>
      <trkpt lat="43.93599" lon="2.22908">
        <ele>234.22</ele>
        <time>2015-08-15T06:38:41Z</time>
      </trkpt>
      <trkpt lat="43.93607" lon="2.22902">
        <ele>233.74</ele>
        <time>2015-08-15T06:38:46Z</time>
      </trkpt>
      <trkpt lat="43.93616" lon="2.22897">
        <ele>232.78</ele>
        <time>2015-08-15T06:38:51Z</time>
      </trkpt>
      <trkpt lat="43.93624" lon="2.22894">
        <ele>232.78</ele>
        <time>2015-08-15T06:38:56Z</time>
      </trkpt>
      <trkpt lat="43.93631" lon="2.22893">
        <ele>233.26</ele>
        <time>2015-08-15T06:39:01Z</time>
      </trkpt>
      <trkpt lat="43.93639" lon="2.22891">
        <ele>234.22</ele>
        <time>2015-08-15T06:39:06Z</time>
      </trkpt>
      <trkpt lat="43.93646" lon="2.2289">
        <ele>233.74</ele>
        <time>2015-08-15T06:39:11Z</time>
      </trkpt>
      <trkpt lat="43.93653" lon="2.22889">
        <ele>233.74</ele>
        <time>2015-08-15T06:39:16Z</time>
      </trkpt>
      <trkpt lat="43.9366" lon="2.22889">
        <ele>233.74</ele>
        <time>2015-08-15T06:39:21Z</time>
      </trkpt>
      <trkpt lat="43.93666" lon="2.22888">
        <ele>233.74</ele>
        <time>2015-08-15T06:39:26Z</time>
      </trkpt>
      <trkpt lat="43.93671" lon="2.22888">
        <ele>234.22</ele>
        <time>2015-08-15T06:39:31Z</time>
      </trkpt>
      <trkpt lat="43.93677" lon="2.22889">
        <ele>234.7</ele>
        <time>2015-08-15T06:39:36Z</time>
      </trkpt>
      <trkpt lat="43.93683" lon="2.22888">
        <ele>236.14</ele>
        <time>2015-08-15T06:39:41Z</time>
      </trkpt>
      <trkpt lat="43.93688" lon="2.22887">
        <ele>237.58</ele>
        <time>2015-08-15T06:39:46Z</time>
      </trkpt>
      <trkpt lat="43.93694" lon="2.22886">
        <ele>239.02</ele>
        <time>2015-08-15T06:39:51Z</time>
      </trkpt>
      <trkpt lat="43.93702" lon="2.22886">
        <ele>239.99</ele>
        <time>2015-08-15T06:39:56Z</time>
      </trkpt>
      <trkpt lat="43.9371" lon="2.22887">
        <ele>240.95</ele>
        <time>2015-08-15T06:40:01Z</time>
      </trkpt>
      <trkpt lat="43.93718" lon="2.22889">
        <ele>242.39</ele>
        <time>2015-08-15T06:40:06Z</time>
      </trkpt>
      <trkpt lat="43.93726" lon="2.22891">
        <ele>243.35</ele>
        <time>2015-08-15T06:40:11Z</time>
      </trkpt>
      <trkpt lat="43.93734" lon="2.22892">
        <ele>243.83</ele>
        <time>2015-08-15T06:40:16Z</time>
      </trkpt>
      <trkpt lat="43.93742" lon="2.22894">
        <ele>243.83</ele>
        <time>2015-08-15T06:40:21Z</time>
      </trkpt>
      <trkpt lat="43.9375" lon="2.22895">
        <ele>244.31</ele>
        <time>2015-08-15T06:40:26Z</time>
      </trkpt>
      <trkpt lat="43.93759" lon="2.22896">
        <ele>244.79</ele>
        <time>2015-08-15T06:40:31Z</time>
      </trkpt>
      <trkpt lat="43.93767" lon="2.22896">
        <ele>244.79</ele>
        <time>2015-08-15T06:40:36Z</time>
      </trkpt>
      <trkpt lat="43.93776" lon="2.22895">
        <ele>243.35</ele>
        <time>2015-08-15T06:40:41Z</time>
      </trkpt>
      <trkpt lat="43.93784" lon="2.22894">
        <ele>242.39</ele>
        <time>2015-08-15T06:40:46Z</time>
      </trkpt>
      <trkpt lat="43.93791" lon="2.22894">
        <ele>243.35</ele>
        <time>2015-08-15T06:40:51Z</time>
      </trkpt>
      <trkpt lat="43.93799" lon="2.22892">
        <ele>244.79</ele>
        <time>2015-08-15T06:40:56Z</time>
      </trkpt>
      <trkpt lat="43.93807" lon="2.22889">
        <ele>245.27</ele>
        <time>2015-08-15T06:41:01Z</time>
      </trkpt>
      <trkpt lat="43.93815" lon="2.22886">
        <ele>244.79</ele>
        <time>2015-08-15T06:41:06Z</time>
      </trkpt>
      <trkpt lat="43.93824" lon="2.22883">
        <ele>244.31</ele>
        <time>2015-08-15T06:41:11Z</time>
      </trkpt>
      <trkpt lat="43.93831" lon="2.22879">
        <ele>244.31</ele>
        <time>2015-08-15T06:41:16Z</time>
      </trkpt>
      <trkpt lat="43.93839" lon="2.22875">
        <ele>244.79</ele>
        <time>2015-08-15T06:41:21Z</time>
      </trkpt>
      <trkpt lat="43.93847" lon="2.22871">
        <ele>244.79</ele>
        <time>2015-08-15T06:41:26Z</time>
      </trkpt>
      <trkpt lat="43.93855" lon="2.22868">
        <ele>244.31</ele>
        <time>2015-08-15T06:41:31Z</time>
      </trkpt>
      <trkpt lat="43.93863" lon="2.22865">
        <ele>243.83</ele>
        <time>2015-08-15T06:41:36Z</time>
      </trkpt>
      <trkpt lat="43.93871" lon="2.22861">
        <ele>243.83</ele>
        <time>2015-08-15T06:41:41Z</time>
      </trkpt>
      <trkpt lat="43.93879" lon="2.22858">
        <ele>244.31</ele>
        <time>2015-08-15T06:41:46Z</time>
      </trkpt>
      <trkpt lat="43.93887" lon="2.22855">
        <ele>243.83</ele>
        <time>2015-08-15T06:41:51Z</time>
      </trkpt>
      <trkpt lat="43.93895" lon="2.22851">
        <ele>243.83</ele>
        <time>2015-08-15T06:41:56Z</time>
      </trkpt>
      <trkpt lat="43.93903" lon="2.22848">
        <ele>244.31</ele>
        <time>2015-08-15T06:42:01Z</time>
      </trkpt>
      <trkpt lat="43.93911" lon="2.22844">
        <ele>244.31</ele>
        <time>2015-08-15T06:42:06Z</time>
      </trkpt>
      <trkpt lat="43.93918" lon="2.22839">
        <ele>243.35</ele>
        <time>2015-08-15T06:42:11Z</time>
      </trkpt>
      <trkpt lat="43.93926" lon="2.22835">
        <ele>242.39</ele>
        <time>2015-08-15T06:42:16Z</time>
      </trkpt>
      <trkpt lat="43.93933" lon="2.2283">
        <ele>241.91</ele>
        <time>2015-08-15T06:42:21Z</time>
      </trkpt>
      <trkpt lat="43.93941" lon="2.22824">
        <ele>241.43</ele>
        <time>2015-08-15T06:42:26Z</time>
      </trkpt>
      <trkpt lat="43.93948" lon="2.22819">
        <ele>240.47</ele>
        <time>2015-08-15T06:42:31Z</time>
      </trkpt>
      <trkpt lat="43.93956" lon="2.22814">
        <ele>239.99</ele>
        <time>2015-08-15T06:42:36Z</time>
      </trkpt>
      <trkpt lat="43.93963" lon="2.22809">
        <ele>239.99</ele>
        <time>2015-08-15T06:42:41Z</time>
      </trkpt>
      <trkpt lat="43.9397" lon="2.22803">
        <ele>239.51</ele>
        <time>2015-08-15T06:42:46Z</time>
      </trkpt>
      <trkpt lat="43.93978" lon="2.22798">
        <ele>238.54</ele>
        <time>2015-08-15T06:42:51Z</time>
      </trkpt>
      <trkpt lat="43.93985" lon="2.22793">
        <ele>238.06</ele>
        <time>2015-08-15T06:42:56Z</time>
      </trkpt>
      <trkpt lat="43.93991" lon="2.22789">
        <ele>237.58</ele>
        <time>2015-08-15T06:43:01Z</time>
      </trkpt>
      <trkpt lat="43.93998" lon="2.22785">
        <ele>236.14</ele>
        <time>2015-08-15T06:43:06Z</time>
      </trkpt>
      <trkpt lat="43.94004" lon="2.2278">
        <ele>235.18</ele>
        <time>2015-08-15T06:43:11Z</time>
      </trkpt>
      <trkpt lat="43.94012" lon="2.22776">
        <ele>235.18</ele>
        <time>2015-08-15T06:43:16Z</time>
      </trkpt>
      <trkpt lat="43.94019" lon="2.22772">
        <ele>234.7</ele>
        <time>2015-08-15T06:43:21Z</time>
      </trkpt>
      <trkpt lat="43.94026" lon="2.22768">
        <ele>235.18</ele>
        <time>2015-08-15T06:43:26Z</time>
      </trkpt>
      <trkpt lat="43.94034" lon="2.22762">
        <ele>234.7</ele>
        <time>2015-08-15T06:43:31Z</time>
      </trkpt>
      <trkpt lat="43.94042" lon="2.22757">
        <ele>234.22</ele>
        <time>2015-08-15T06:43:36Z</time>
      </trkpt>
      <trkpt lat="43.9405" lon="2.22752">
        <ele>234.22</ele>
        <time>2015-08-15T06:43:41Z</time>
      </trkpt>
      <trkpt lat="43.94058" lon="2.22748">
        <ele>234.22</ele>
        <time>2015-08-15T06:43:46Z</time>
      </trkpt>
      <trkpt lat="43.94065" lon="2.22744">
        <ele>235.18</ele>
        <time>2015-08-15T06:43:51Z</time>
      </trkpt>
      <trkpt lat="43.94073" lon="2.22739">
        <ele>234.7</ele>
        <time>2015-08-15T06:43:56Z</time>
      </trkpt>
      <trkpt lat="43.94081" lon="2.22735">
        <ele>233.74</ele>
        <time>2015-08-15T06:44:01Z</time>
      </trkpt>
      <trkpt lat="43.94089" lon="2.2273">
        <ele>233.26</ele>
        <time>2015-08-15T06:44:06Z</time>
      </trkpt>
      <trkpt lat="43.94096" lon="2.22727">
        <ele>233.26</ele>
        <time>2015-08-15T06:44:11Z</time>
      </trkpt>
      <trkpt lat="43.94103" lon="2.22722">
        <ele>233.74</ele>
        <time>2015-08-15T06:44:16Z</time>
      </trkpt>
      <trkpt lat="43.9411" lon="2.22718">
        <ele>233.74</ele>
        <time>2015-08-15T06:44:21Z</time>
      </trkpt>
      <trkpt lat="43.94117" lon="2.22714">
        <ele>233.74</ele>
        <time>2015-08-15T06:44:26Z</time>
      </trkpt>
      <trkpt lat="43.94124" lon="2.2271">
        <ele>232.78</ele>
        <time>2015-08-15T06:44:31Z</time>
      </trkpt>
      <trkpt lat="43.94132" lon="2.22707">
        <ele>231.81</ele>
        <time>2015-08-15T06:44:36Z</time>
      </trkpt>
      <trkpt lat="43.94139" lon="2.22703">
        <ele>231.33</ele>
        <time>2015-08-15T06:44:41Z</time>
      </trkpt>
      <trkpt lat="43.94146" lon="2.22698">
        <ele>231.81</ele>
        <time>2015-08-15T06:44:46Z</time>
      </trkpt>
      <trkpt lat="43.94152" lon="2.22692">
        <ele>232.3</ele>
        <time>2015-08-15T06:44:51Z</time>
      </trkpt>
      <trkpt lat="43.94158" lon="2.22684">
        <ele>232.3</ele>
        <time>2015-08-15T06:44:56Z</time>
      </trkpt>
      <trkpt lat="43.94164" lon="2.22677">
        <ele>232.78</ele>
        <time>2015-08-15T06:45:01Z</time>
      </trkpt>
      <trkpt lat="43.9417" lon="2.22672">
        <ele>233.26</ele>
        <time>2015-08-15T06:45:06Z</time>
      </trkpt>
      <trkpt lat="43.94176" lon="2.22665">
        <ele>233.26</ele>
        <time>2015-08-15T06:45:11Z</time>
      </trkpt>
      <trkpt lat="43.94182" lon="2.22657">
        <ele>233.26</ele>
        <time>2015-08-15T06:45:16Z</time>
      </trkpt>
      <trkpt lat="43.94187" lon="2.22649">
        <ele>233.26</ele>
        <time>2015-08-15T06:45:21Z</time>
      </trkpt>
      <trkpt lat="43.94192" lon="2.22641">
        <ele>232.78</ele>
        <time>2015-08-15T06:45:26Z</time>
      </trkpt>
      <trkpt lat="43.94197" lon="2.22632">
        <ele>233.26</ele>
        <time>2015-08-15T06:45:31Z</time>
      </trkpt>
      <trkpt lat="43.94202" lon="2.22624">
        <ele>233.26</ele>
        <time>2015-08-15T06:45:36Z</time>
      </trkpt>
      <trkpt lat="43.94208" lon="2.22615">
        <ele>233.26</ele>
        <time>2015-08-15T06:45:41Z</time>
      </trkpt>
      <trkpt lat="43.94214" lon="2.22608">
        <ele>233.26</ele>
        <time>2015-08-15T06:45:46Z</time>
      </trkpt>
      <trkpt lat="43.94219" lon="2.226">
        <ele>233.26</ele>
        <time>2015-08-15T06:45:51Z</time>
      </trkpt>
      <trkpt lat="43.94224" lon="2.22591">
        <ele>233.26</ele>
        <time>2015-08-15T06:45:56Z</time>
      </trkpt>
      <trkpt lat="43.94229" lon="2.22584">
        <ele>233.26</ele>
        <time>2015-08-15T06:46:01Z</time>
      </trkpt>
      <trkpt lat="43.94234" lon="2.22577">
        <ele>233.26</ele>
        <time>2015-08-15T06:46:06Z</time>
      </trkpt>
      <trkpt lat="43.9424" lon="2.2257">
        <ele>233.74</ele>
        <time>2015-08-15T06:46:11Z</time>
      </trkpt>
      <trkpt lat="43.94244" lon="2.22561">
        <ele>233.26</ele>
        <time>2015-08-15T06:46:16Z</time>
      </trkpt>
      <trkpt lat="43.94248" lon="2.22553">
        <ele>232.78</ele>
        <time>2015-08-15T06:46:21Z</time>
      </trkpt>
      <trkpt lat="43.94252" lon="2.22543">
        <ele>232.3</ele>
        <time>2015-08-15T06:46:26Z</time>
      </trkpt>
      <trkpt lat="43.94249" lon="2.22535">
        <ele>231.81</ele>
        <time>2015-08-15T06:46:31Z</time>
      </trkpt>
      <trkpt lat="43.94241" lon="2.22536">
        <ele>231.33</ele>
        <time>2015-08-15T06:46:36Z</time>
      </trkpt>
      <trkpt lat="43.94233" lon="2.22537">
        <ele>231.81</ele>
        <time>2015-08-15T06:46:41Z</time>
      </trkpt>
      <trkpt lat="43.94225" lon="2.22539">
        <ele>231.81</ele>
        <time>2015-08-15T06:46:46Z</time>
      </trkpt>
      <trkpt lat="43.94217" lon="2.22541">
        <ele>231.33</ele>
        <time>2015-08-15T06:46:51Z</time>
      </trkpt>
      <trkpt lat="43.94209" lon="2.22544">
        <ele>230.85</ele>
        <time>2015-08-15T06:46:56Z</time>
      </trkpt>
      <trkpt lat="43.94201" lon="2.22545">
        <ele>230.85</ele>
        <time>2015-08-15T06:47:01Z</time>
      </trkpt>
      <trkpt lat="43.94193" lon="2.22547">
        <ele>230.85</ele>
        <time>2015-08-15T06:47:06Z</time>
      </trkpt>
      <trkpt lat="43.94185" lon="2.22547">
        <ele>231.81</ele>
        <time>2015-08-15T06:47:11Z</time>
      </trkpt>
      <trkpt lat="43.94178" lon="2.22547">
        <ele>231.81</ele>
        <time>2015-08-15T06:47:16Z</time>
      </trkpt>
      <trkpt lat="43.94169" lon="2.22546">
        <ele>232.3</ele>
        <time>2015-08-15T06:47:21Z</time>
      </trkpt>
      <trkpt lat="43.94162" lon="2.22545">
        <ele>232.78</ele>
        <time>2015-08-15T06:47:26Z</time>
      </trkpt>
      <trkpt lat="43.94154" lon="2.22543">
        <ele>232.78</ele>
        <time>2015-08-15T06:47:31Z</time>
      </trkpt>
      <trkpt lat="43.94146" lon="2.22539">
        <ele>232.78</ele>
        <time>2015-08-15T06:47:36Z</time>
      </trkpt>
      <trkpt lat="43.94139" lon="2.22535">
        <ele>232.3</ele>
        <time>2015-08-15T06:47:41Z</time>
      </trkpt>
      <trkpt lat="43.94131" lon="2.22532">
        <ele>231.81</ele>
        <time>2015-08-15T06:47:46Z</time>
      </trkpt>
      <trkpt lat="43.94124" lon="2.22529">
        <ele>232.3</ele>
        <time>2015-08-15T06:47:51Z</time>
      </trkpt>
      <trkpt lat="43.94116" lon="2.22526">
        <ele>231.33</ele>
        <time>2015-08-15T06:47:56Z</time>
      </trkpt>
      <trkpt lat="43.94108" lon="2.22523">
        <ele>232.3</ele>
        <time>2015-08-15T06:48:01Z</time>
      </trkpt>
      <trkpt lat="43.94101" lon="2.22519">
        <ele>232.3</ele>
        <time>2015-08-15T06:48:06Z</time>
      </trkpt>
      <trkpt lat="43.94092" lon="2.22515">
        <ele>232.78</ele>
        <time>2015-08-15T06:48:11Z</time>
      </trkpt>
      <trkpt lat="43.94084" lon="2.22513">
        <ele>233.26</ele>
        <time>2015-08-15T06:48:16Z</time>
      </trkpt>
      <trkpt lat="43.94077" lon="2.2251">
        <ele>232.78</ele>
        <time>2015-08-15T06:48:21Z</time>
      </trkpt>
      <trkpt lat="43.9407" lon="2.22507">
        <ele>232.3</ele>
        <time>2015-08-15T06:48:26Z</time>
      </trkpt>
      <trkpt lat="43.94062" lon="2.22504">
        <ele>231.33</ele>
        <time>2015-08-15T06:48:31Z</time>
      </trkpt>
      <trkpt lat="43.94054" lon="2.22501">
        <ele>231.33</ele>
        <time>2015-08-15T06:48:36Z</time>
      </trkpt>
      <trkpt lat="43.94047" lon="2.22498">
        <ele>231.33</ele>
        <time>2015-08-15T06:48:41Z</time>
      </trkpt>
      <trkpt lat="43.94039" lon="2.22493">
        <ele>230.85</ele>
        <time>2015-08-15T06:48:46Z</time>
      </trkpt>
      <trkpt lat="43.94032" lon="2.22488">
        <ele>231.81</ele>
        <time>2015-08-15T06:48:51Z</time>
      </trkpt>
      <trkpt lat="43.94027" lon="2.22481">
        <ele>231.81</ele>
        <time>2015-08-15T06:48:56Z</time>
      </trkpt>
      <trkpt lat="43.94021" lon="2.22473">
        <ele>231.33</ele>
        <time>2015-08-15T06:49:01Z</time>
      </trkpt>
      <trkpt lat="43.94015" lon="2.22465">
        <ele>232.3</ele>
        <time>2015-08-15T06:49:06Z</time>
      </trkpt>
      <trkpt lat="43.94011" lon="2.22456">
        <ele>232.78</ele>
        <time>2015-08-15T06:49:11Z</time>
      </trkpt>
      <trkpt lat="43.94006" lon="2.22448">
        <ele>233.74</ele>
        <time>2015-08-15T06:49:16Z</time>
      </trkpt>
      <trkpt lat="43.94001" lon="2.2244">
        <ele>234.7</ele>
        <time>2015-08-15T06:49:21Z</time>
      </trkpt>
      <trkpt lat="43.93996" lon="2.22432">
        <ele>236.14</ele>
        <time>2015-08-15T06:49:26Z</time>
      </trkpt>
      <trkpt lat="43.93991" lon="2.22423">
        <ele>237.1</ele>
        <time>2015-08-15T06:49:31Z</time>
      </trkpt>
      <trkpt lat="43.93985" lon="2.22416">
        <ele>236.62</ele>
        <time>2015-08-15T06:49:36Z</time>
      </trkpt>
      <trkpt lat="43.93978" lon="2.22411">
        <ele>235.18</ele>
        <time>2015-08-15T06:49:41Z</time>
      </trkpt>
      <trkpt lat="43.93971" lon="2.22407">
        <ele>233.74</ele>
        <time>2015-08-15T06:49:46Z</time>
      </trkpt>
      <trkpt lat="43.93963" lon="2.22401">
        <ele>233.26</ele>
        <time>2015-08-15T06:49:51Z</time>
      </trkpt>
      <trkpt lat="43.93955" lon="2.22396">
        <ele>233.74</ele>
        <time>2015-08-15T06:49:56Z</time>
      </trkpt>
      <trkpt lat="43.93948" lon="2.22392">
        <ele>232.78</ele>
        <time>2015-08-15T06:50:01Z</time>
      </trkpt>
      <trkpt lat="43.93941" lon="2.22388">
        <ele>233.26</ele>
        <time>2015-08-15T06:50:06Z</time>
      </trkpt>
      <trkpt lat="43.93933" lon="2.22384">
        <ele>233.74</ele>
        <time>2015-08-15T06:50:11Z</time>
      </trkpt>
      <trkpt lat="43.93925" lon="2.2238">
        <ele>233.26</ele>
        <time>2015-08-15T06:50:16Z</time>
      </trkpt>
      <trkpt lat="43.93918" lon="2.22376">
        <ele>232.78</ele>
        <time>2015-08-15T06:50:21Z</time>
      </trkpt>
      <trkpt lat="43.93911" lon="2.22371">
        <ele>232.3</ele>
        <time>2015-08-15T06:50:26Z</time>
      </trkpt>
      <trkpt lat="43.93904" lon="2.22367">
        <ele>231.81</ele>
        <time>2015-08-15T06:50:31Z</time>
      </trkpt>
      <trkpt lat="43.93896" lon="2.22363">
        <ele>231.33</ele>
        <time>2015-08-15T06:50:36Z</time>
      </trkpt>
      <trkpt lat="43.93889" lon="2.22358">
        <ele>230.37</ele>
        <time>2015-08-15T06:50:41Z</time>
      </trkpt>
      <trkpt lat="43.93882" lon="2.22352">
        <ele>229.89</ele>
        <time>2015-08-15T06:50:46Z</time>
      </trkpt>
      <trkpt lat="43.93876" lon="2.22345">
        <ele>229.89</ele>
        <time>2015-08-15T06:50:51Z</time>
      </trkpt>
      <trkpt lat="43.93871" lon="2.22338">
        <ele>230.37</ele>
        <time>2015-08-15T06:50:56Z</time>
      </trkpt>
      <trkpt lat="43.93866" lon="2.22331">
        <ele>230.37</ele>
        <time>2015-08-15T06:51:01Z</time>
      </trkpt>
      <trkpt lat="43.93861" lon="2.22322">
        <ele>229.41</ele>
        <time>2015-08-15T06:51:06Z</time>
      </trkpt>
      <trkpt lat="43.93856" lon="2.22313">
        <ele>228.93</ele>
        <time>2015-08-15T06:51:11Z</time>
      </trkpt>
      <trkpt lat="43.93851" lon="2.22304">
        <ele>229.41</ele>
        <time>2015-08-15T06:51:16Z</time>
      </trkpt>
      <trkpt lat="43.93847" lon="2.22295">
        <ele>229.89</ele>
        <time>2015-08-15T06:51:21Z</time>
      </trkpt>
      <trkpt lat="43.93843" lon="2.22286">
        <ele>229.89</ele>
        <time>2015-08-15T06:51:26Z</time>
      </trkpt>
      <trkpt lat="43.93842" lon="2.22279">
        <ele>229.89</ele>
        <time>2015-08-15T06:51:31Z</time>
      </trkpt>
      <trkpt lat="43.93843" lon="2.22271">
        <ele>228.93</ele>
        <time>2015-08-15T06:51:36Z</time>
      </trkpt>
      <trkpt lat="43.93846" lon="2.22263">
        <ele>228.93</ele>
        <time>2015-08-15T06:51:41Z</time>
      </trkpt>
      <trkpt lat="43.9385" lon="2.22254">
        <ele>228.93</ele>
        <time>2015-08-15T06:51:46Z</time>
      </trkpt>
      <trkpt lat="43.93853" lon="2.22246">
        <ele>228.93</ele>
        <time>2015-08-15T06:51:51Z</time>
      </trkpt>
      <trkpt lat="43.93857" lon="2.22237">
        <ele>229.41</ele>
        <time>2015-08-15T06:51:56Z</time>
      </trkpt>
      <trkpt lat="43.93861" lon="2.22229">
        <ele>230.85</ele>
        <time>2015-08-15T06:52:01Z</time>
      </trkpt>
      <trkpt lat="43.93865" lon="2.22221">
        <ele>231.81</ele>
        <time>2015-08-15T06:52:06Z</time>
      </trkpt>
      <trkpt lat="43.9387" lon="2.22213">
        <ele>232.78</ele>
        <time>2015-08-15T06:52:11Z</time>
      </trkpt>
      <trkpt lat="43.93875" lon="2.22205">
        <ele>234.22</ele>
        <time>2015-08-15T06:52:16Z</time>
      </trkpt>
      <trkpt lat="43.93881" lon="2.22199">
        <ele>235.18</ele>
        <time>2015-08-15T06:52:21Z</time>
      </trkpt>
      <trkpt lat="43.93887" lon="2.22192">
        <ele>234.7</ele>
        <time>2015-08-15T06:52:26Z</time>
      </trkpt>
      <trkpt lat="43.93892" lon="2.22184">
        <ele>234.7</ele>
        <time>2015-08-15T06:52:31Z</time>
      </trkpt>
      <trkpt lat="43.93898" lon="2.22176">
        <ele>233.26</ele>
        <time>2015-08-15T06:52:36Z</time>
      </trkpt>
      <trkpt lat="43.93904" lon="2.22169">
        <ele>231.81</ele>
        <time>2015-08-15T06:52:41Z</time>
      </trkpt>
      <trkpt lat="43.93909" lon="2.22163">
        <ele>230.37</ele>
        <time>2015-08-15T06:52:46Z</time>
      </trkpt>
      <trkpt lat="43.93914" lon="2.22157">
        <ele>229.41</ele>
        <time>2015-08-15T06:52:51Z</time>
      </trkpt>
      <trkpt lat="43.9392" lon="2.22152">
        <ele>229.41</ele>
        <time>2015-08-15T06:52:56Z</time>
      </trkpt>
      <trkpt lat="43.93924" lon="2.22146">
        <ele>229.41</ele>
        <time>2015-08-15T06:53:01Z</time>
      </trkpt>
      <trkpt lat="43.9393" lon="2.2214">
        <ele>229.89</ele>
        <time>2015-08-15T06:53:06Z</time>
      </trkpt>
      <trkpt lat="43.93935" lon="2.22133">
        <ele>228.45</ele>
        <time>2015-08-15T06:53:11Z</time>
      </trkpt>
      <trkpt lat="43.9394" lon="2.22127">
        <ele>227.49</ele>
        <time>2015-08-15T06:53:16Z</time>
      </trkpt>
      <trkpt lat="43.93946" lon="2.22121">
        <ele>227.01</ele>
        <time>2015-08-15T06:53:21Z</time>
      </trkpt>
      <trkpt lat="43.93951" lon="2.22116">
        <ele>226.05</ele>
        <time>2015-08-15T06:53:26Z</time>
      </trkpt>
      <trkpt lat="43.93957" lon="2.2211">
        <ele>225.09</ele>
        <time>2015-08-15T06:53:31Z</time>
      </trkpt>
      <trkpt lat="43.93965" lon="2.22104">
        <ele>222.68</ele>
        <time>2015-08-15T06:53:36Z</time>
      </trkpt>
      <trkpt lat="43.93973" lon="2.22099">
        <ele>221.24</ele>
        <time>2015-08-15T06:53:41Z</time>
      </trkpt>
      <trkpt lat="43.93979" lon="2.22092">
        <ele>219.32</ele>
        <time>2015-08-15T06:53:46Z</time>
      </trkpt>
      <trkpt lat="43.93985" lon="2.22085">
        <ele>217.88</ele>
        <time>2015-08-15T06:53:51Z</time>
      </trkpt>
      <trkpt lat="43.9399" lon="2.22076">
        <ele>217.88</ele>
        <time>2015-08-15T06:53:56Z</time>
      </trkpt>
      <trkpt lat="43.93997" lon="2.2207">
        <ele>217.4</ele>
        <time>2015-08-15T06:54:01Z</time>
      </trkpt>
      <trkpt lat="43.94003" lon="2.22064">
        <ele>215.95</ele>
        <time>2015-08-15T06:54:06Z</time>
      </trkpt>
      <trkpt lat="43.9401" lon="2.22058">
        <ele>214.03</ele>
        <time>2015-08-15T06:54:11Z</time>
      </trkpt>
      <trkpt lat="43.94017" lon="2.22054">
        <ele>213.55</ele>
        <time>2015-08-15T06:54:16Z</time>
      </trkpt>
      <trkpt lat="43.94022" lon="2.22048">
        <ele>213.55</ele>
        <time>2015-08-15T06:54:21Z</time>
      </trkpt>
      <trkpt lat="43.94027" lon="2.22043">
        <ele>214.03</ele>
        <time>2015-08-15T06:54:26Z</time>
      </trkpt>
      <trkpt lat="43.94032" lon="2.22035">
        <ele>214.99</ele>
        <time>2015-08-15T06:54:31Z</time>
      </trkpt>
      <trkpt lat="43.94037" lon="2.22028">
        <ele>214.99</ele>
        <time>2015-08-15T06:54:36Z</time>
      </trkpt>
      <trkpt lat="43.94043" lon="2.2202">
        <ele>214.99</ele>
        <time>2015-08-15T06:54:41Z</time>
      </trkpt>
      <trkpt lat="43.94047" lon="2.22014">
        <ele>215.47</ele>
        <time>2015-08-15T06:54:46Z</time>
      </trkpt>
      <trkpt lat="43.94053" lon="2.2201">
        <ele>216.43</ele>
        <time>2015-08-15T06:54:51Z</time>
      </trkpt>
      <trkpt lat="43.94058" lon="2.22004">
        <ele>217.4</ele>
        <time>2015-08-15T06:54:56Z</time>
      </trkpt>
      <trkpt lat="43.94062" lon="2.21996">
        <ele>218.84</ele>
        <time>2015-08-15T06:55:01Z</time>
      </trkpt>
      <trkpt lat="43.94064" lon="2.21989">
        <ele>219.8</ele>
        <time>2015-08-15T06:55:06Z</time>
      </trkpt>
      <trkpt lat="43.94065" lon="2.21979">
        <ele>221.24</ele>
        <time>2015-08-15T06:55:11Z</time>
      </trkpt>
      <trkpt lat="43.94064" lon="2.21969">
        <ele>222.2</ele>
        <time>2015-08-15T06:55:16Z</time>
      </trkpt>
      <trkpt lat="43.94065" lon="2.2196">
        <ele>222.68</ele>
        <time>2015-08-15T06:55:21Z</time>
      </trkpt>
      <trkpt lat="43.94066" lon="2.2195">
        <ele>222.2</ele>
        <time>2015-08-15T06:55:26Z</time>
      </trkpt>
      <trkpt lat="43.94069" lon="2.21941">
        <ele>222.68</ele>
        <time>2015-08-15T06:55:31Z</time>
      </trkpt>
      <trkpt lat="43.94073" lon="2.21934">
        <ele>224.61</ele>
        <time>2015-08-15T06:55:36Z</time>
      </trkpt>
      <trkpt lat="43.94078" lon="2.2193">
        <ele>226.05</ele>
        <time>2015-08-15T06:55:41Z</time>
      </trkpt>
      <trkpt lat="43.94082" lon="2.21926">
        <ele>227.01</ele>
        <time>2015-08-15T06:55:46Z</time>
      </trkpt>
      <trkpt lat="43.94088" lon="2.21923">
        <ele>228.45</ele>
        <time>2015-08-15T06:55:51Z</time>
      </trkpt>
      <trkpt lat="43.94095" lon="2.2192">
        <ele>229.41</ele>
        <time>2015-08-15T06:55:56Z</time>
      </trkpt>
      <trkpt lat="43.94103" lon="2.21918">
        <ele>229.41</ele>
        <time>2015-08-15T06:56:01Z</time>
      </trkpt>
      <trkpt lat="43.9411" lon="2.21916">
        <ele>229.41</ele>
        <time>2015-08-15T06:56:06Z</time>
      </trkpt>
      <trkpt lat="43.94118" lon="2.21914">
        <ele>229.41</ele>
        <time>2015-08-15T06:56:11Z</time>
      </trkpt>
      <trkpt lat="43.94126" lon="2.21913">
        <ele>230.85</ele>
        <time>2015-08-15T06:56:16Z</time>
      </trkpt>
      <trkpt lat="43.94134" lon="2.21912">
        <ele>231.81</ele>
        <time>2015-08-15T06:56:21Z</time>
      </trkpt>
      <trkpt lat="43.94142" lon="2.21909">
        <ele>232.78</ele>
        <time>2015-08-15T06:56:26Z</time>
      </trkpt>
      <trkpt lat="43.94149" lon="2.21908">
        <ele>234.22</ele>
        <time>2015-08-15T06:56:31Z</time>
      </trkpt>
      <trkpt lat="43.94157" lon="2.21906">
        <ele>235.18</ele>
        <time>2015-08-15T06:56:36Z</time>
      </trkpt>
      <trkpt lat="43.94165" lon="2.21905">
        <ele>236.14</ele>
        <time>2015-08-15T06:56:41Z</time>
      </trkpt>
      <trkpt lat="43.94172" lon="2.21902">
        <ele>237.1</ele>
        <time>2015-08-15T06:56:46Z</time>
      </trkpt>
      <trkpt lat="43.94179" lon="2.21902">
        <ele>237.1</ele>
        <time>2015-08-15T06:56:51Z</time>
      </trkpt>
      <trkpt lat="43.94187" lon="2.219">
        <ele>237.1</ele>
        <time>2015-08-15T06:56:56Z</time>
      </trkpt>
      <trkpt lat="43.94194" lon="2.219">
        <ele>237.1</ele>
        <time>2015-08-15T06:57:01Z</time>
      </trkpt>
      <trkpt lat="43.94202" lon="2.21898">
        <ele>236.62</ele>
        <time>2015-08-15T06:57:06Z</time>
      </trkpt>
      <trkpt lat="43.9421" lon="2.21896">
        <ele>236.14</ele>
        <time>2015-08-15T06:57:11Z</time>
      </trkpt>
      <trkpt lat="43.94218" lon="2.21894">
        <ele>235.66</ele>
        <time>2015-08-15T06:57:16Z</time>
      </trkpt>
      <trkpt lat="43.94225" lon="2.21892">
        <ele>233.26</ele>
        <time>2015-08-15T06:57:21Z</time>
      </trkpt>
      <trkpt lat="43.94234" lon="2.2189">
        <ele>231.33</ele>
        <time>2015-08-15T06:57:26Z</time>
      </trkpt>
      <trkpt lat="43.94242" lon="2.21888">
        <ele>230.37</ele>
        <time>2015-08-15T06:57:31Z</time>
      </trkpt>
      <trkpt lat="43.94249" lon="2.21888">
        <ele>230.37</ele>
        <time>2015-08-15T06:57:36Z</time>
      </trkpt>
      <trkpt lat="43.94257" lon="2.21888">
        <ele>231.33</ele>
        <time>2015-08-15T06:57:41Z</time>
      </trkpt>
      <trkpt lat="43.94265" lon="2.21888">
        <ele>231.81</ele>
        <time>2015-08-15T06:57:46Z</time>
      </trkpt>
      <trkpt lat="43.94272" lon="2.21886">
        <ele>231.81</ele>
        <time>2015-08-15T06:57:51Z</time>
      </trkpt>
      <trkpt lat="43.94279" lon="2.21886">
        <ele>230.85</ele>
        <time>2015-08-15T06:57:56Z</time>
      </trkpt>
      <trkpt lat="43.94285" lon="2.21885">
        <ele>229.89</ele>
        <time>2015-08-15T06:58:01Z</time>
      </trkpt>
      <trkpt lat="43.94293" lon="2.21884">
        <ele>228.45</ele>
        <time>2015-08-15T06:58:06Z</time>
      </trkpt>
      <trkpt lat="43.94299" lon="2.21886">
        <ele>227.01</ele>
        <time>2015-08-15T06:58:11Z</time>
      </trkpt>
      <trkpt lat="43.94306" lon="2.21888">
        <ele>226.05</ele>
        <time>2015-08-15T06:58:16Z</time>
      </trkpt>
      <trkpt lat="43.94315" lon="2.21889">
        <ele>225.57</ele>
        <time>2015-08-15T06:58:21Z</time>
      </trkpt>
      <trkpt lat="43.94322" lon="2.2189">
        <ele>225.57</ele>
        <time>2015-08-15T06:58:26Z</time>
      </trkpt>
      <trkpt lat="43.9433" lon="2.2189">
        <ele>225.57</ele>
        <time>2015-08-15T06:58:31Z</time>
      </trkpt>
      <trkpt lat="43.94339" lon="2.2189">
        <ele>224.61</ele>
        <time>2015-08-15T06:58:36Z</time>
      </trkpt>
      <trkpt lat="43.94347" lon="2.21893">
        <ele>224.12</ele>
        <time>2015-08-15T06:58:41Z</time>
      </trkpt>
      <trkpt lat="43.94355" lon="2.21896">
        <ele>223.16</ele>
        <time>2015-08-15T06:58:46Z</time>
      </trkpt>
      <trkpt lat="43.94363" lon="2.21899">
        <ele>222.2</ele>
        <time>2015-08-15T06:58:51Z</time>
      </trkpt>
      <trkpt lat="43.9437" lon="2.21902">
        <ele>221.72</ele>
        <time>2015-08-15T06:58:56Z</time>
      </trkpt>
      <trkpt lat="43.94379" lon="2.21905">
        <ele>221.24</ele>
        <time>2015-08-15T06:59:01Z</time>
      </trkpt>
      <trkpt lat="43.94386" lon="2.21907">
        <ele>220.28</ele>
        <time>2015-08-15T06:59:06Z</time>
      </trkpt>
      <trkpt lat="43.94395" lon="2.21907">
        <ele>219.32</ele>
        <time>2015-08-15T06:59:11Z</time>
      </trkpt>
      <trkpt lat="43.94403" lon="2.21902">
        <ele>219.32</ele>
        <time>2015-08-15T06:59:16Z</time>
      </trkpt>
      <trkpt lat="43.94409" lon="2.21896">
        <ele>220.28</ele>
        <time>2015-08-15T06:59:21Z</time>
      </trkpt>
      <trkpt lat="43.94415" lon="2.21889">
        <ele>220.28</ele>
        <time>2015-08-15T06:59:26Z</time>
      </trkpt>
      <trkpt lat="43.94421" lon="2.21882">
        <ele>219.32</ele>
        <time>2015-08-15T06:59:31Z</time>
      </trkpt>
      <trkpt lat="43.94427" lon="2.21875">
        <ele>219.32</ele>
        <time>2015-08-15T06:59:36Z</time>
      </trkpt>
      <trkpt lat="43.94433" lon="2.21867">
        <ele>219.8</ele>
        <time>2015-08-15T06:59:41Z</time>
      </trkpt>
      <trkpt lat="43.94438" lon="2.21859">
        <ele>219.8</ele>
        <time>2015-08-15T06:59:46Z</time>
      </trkpt>
      <trkpt lat="43.94442" lon="2.21849">
        <ele>220.28</ele>
        <time>2015-08-15T06:59:51Z</time>
      </trkpt>
      <trkpt lat="43.94443" lon="2.21839">
        <ele>220.28</ele>
        <time>2015-08-15T06:59:56Z</time>
      </trkpt>
      <trkpt lat="43.94444" lon="2.21829">
        <ele>219.8</ele>
        <time>2015-08-15T07:00:01Z</time>
      </trkpt>
      <trkpt lat="43.94445" lon="2.21818">
        <ele>218.84</ele>
        <time>2015-08-15T07:00:06Z</time>
      </trkpt>
      <trkpt lat="43.94447" lon="2.21808">
        <ele>218.36</ele>
        <time>2015-08-15T07:00:11Z</time>
      </trkpt>
      <trkpt lat="43.94448" lon="2.21798">
        <ele>217.88</ele>
        <time>2015-08-15T07:00:16Z</time>
      </trkpt>
      <trkpt lat="43.9445" lon="2.21787">
        <ele>217.4</ele>
        <time>2015-08-15T07:00:21Z</time>
      </trkpt>
      <trkpt lat="43.94453" lon="2.21776">
        <ele>217.4</ele>
        <time>2015-08-15T07:00:26Z</time>
      </trkpt>
      <trkpt lat="43.94455" lon="2.21765">
        <ele>217.88</ele>
        <time>2015-08-15T07:00:31Z</time>
      </trkpt>
      <trkpt lat="43.94458" lon="2.21753">
        <ele>217.88</ele>
        <time>2015-08-15T07:00:36Z</time>
      </trkpt>
      <trkpt lat="43.94461" lon="2.21742">
        <ele>218.36</ele>
        <time>2015-08-15T07:00:41Z</time>
      </trkpt>
      <trkpt lat="43.94464" lon="2.21731">
        <ele>219.32</ele>
        <time>2015-08-15T07:00:46Z</time>
      </trkpt>
      <trkpt lat="43.94467" lon="2.21721">
        <ele>219.8</ele>
        <time>2015-08-15T07:00:51Z</time>
      </trkpt>
      <trkpt lat="43.9447" lon="2.2171">
        <ele>220.76</ele>
        <time>2015-08-15T07:00:56Z</time>
      </trkpt>
      <trkpt lat="43.94472" lon="2.21699">
        <ele>222.2</ele>
        <time>2015-08-15T07:01:01Z</time>
      </trkpt>
      <trkpt lat="43.94474" lon="2.21689">
        <ele>223.64</ele>
        <time>2015-08-15T07:01:06Z</time>
      </trkpt>
      <trkpt lat="43.94477" lon="2.21678">
        <ele>225.09</ele>
        <time>2015-08-15T07:01:11Z</time>
      </trkpt>
      <trkpt lat="43.94479" lon="2.21668">
        <ele>226.05</ele>
        <time>2015-08-15T07:01:16Z</time>
      </trkpt>
      <trkpt lat="43.94481" lon="2.21657">
        <ele>225.57</ele>
        <time>2015-08-15T07:01:21Z</time>
      </trkpt>
      <trkpt lat="43.94484" lon="2.21646">
        <ele>225.09</ele>
        <time>2015-08-15T07:01:26Z</time>
      </trkpt>
      <trkpt lat="43.94487" lon="2.21636">
        <ele>224.61</ele>
        <time>2015-08-15T07:01:31Z</time>
      </trkpt>
      <trkpt lat="43.94491" lon="2.21625">
        <ele>223.16</ele>
        <time>2015-08-15T07:01:36Z</time>
      </trkpt>
      <trkpt lat="43.94495" lon="2.21616">
        <ele>222.68</ele>
        <time>2015-08-15T07:01:41Z</time>
      </trkpt>
      <trkpt lat="43.94499" lon="2.21605">
        <ele>221.24</ele>
        <time>2015-08-15T07:01:46Z</time>
      </trkpt>
      <trkpt lat="43.94503" lon="2.21596">
        <ele>219.8</ele>
        <time>2015-08-15T07:01:51Z</time>
      </trkpt>
      <trkpt lat="43.94509" lon="2.21587">
        <ele>219.32</ele>
        <time>2015-08-15T07:01:56Z</time>
      </trkpt>
      <trkpt lat="43.94514" lon="2.21579">
        <ele>218.84</ele>
        <time>2015-08-15T07:02:01Z</time>
      </trkpt>
      <trkpt lat="43.9452" lon="2.21572">
        <ele>218.36</ele>
        <time>2015-08-15T07:02:06Z</time>
      </trkpt>
      <trkpt lat="43.94526" lon="2.21563">
        <ele>218.36</ele>
        <time>2015-08-15T07:02:11Z</time>
      </trkpt>
      <trkpt lat="43.94533" lon="2.21554">
        <ele>218.84</ele>
        <time>2015-08-15T07:02:16Z</time>
      </trkpt>
      <trkpt lat="43.94539" lon="2.21544">
        <ele>218.84</ele>
        <time>2015-08-15T07:02:21Z</time>
      </trkpt>
      <trkpt lat="43.94544" lon="2.21537">
        <ele>218.36</ele>
        <time>2015-08-15T07:02:26Z</time>
      </trkpt>
      <trkpt lat="43.94548" lon="2.21528">
        <ele>218.36</ele>
        <time>2015-08-15T07:02:31Z</time>
      </trkpt>
      <trkpt lat="43.94543" lon="2.21521">
        <ele>217.4</ele>
        <time>2015-08-15T07:02:36Z</time>
      </trkpt>
      <trkpt lat="43.94536" lon="2.21516">
        <ele>216.43</ele>
        <time>2015-08-15T07:02:41Z</time>
      </trkpt>
      <trkpt lat="43.9453" lon="2.21509">
        <ele>215.47</ele>
        <time>2015-08-15T07:02:46Z</time>
      </trkpt>
      <trkpt lat="43.94524" lon="2.21501">
        <ele>214.03</ele>
        <time>2015-08-15T07:02:51Z</time>
      </trkpt>
      <trkpt lat="43.94517" lon="2.21496">
        <ele>214.51</ele>
        <time>2015-08-15T07:02:56Z</time>
      </trkpt>
      <trkpt lat="43.94512" lon="2.21491">
        <ele>214.03</ele>
        <time>2015-08-15T07:03:01Z</time>
      </trkpt>
      <trkpt lat="43.94508" lon="2.21483">
        <ele>213.55</ele>
        <time>2015-08-15T07:03:06Z</time>
      </trkpt>
      <trkpt lat="43.94508" lon="2.21474">
        <ele>212.59</ele>
        <time>2015-08-15T07:03:11Z</time>
      </trkpt>
      <trkpt lat="43.94507" lon="2.21463">
        <ele>210.19</ele>
        <time>2015-08-15T07:03:16Z</time>
      </trkpt>
      <trkpt lat="43.94506" lon="2.2145">
        <ele>208.74</ele>
        <time>2015-08-15T07:03:21Z</time>
      </trkpt>
      <trkpt lat="43.94504" lon="2.21438">
        <ele>207.3</ele>
        <time>2015-08-15T07:03:26Z</time>
      </trkpt>
      <trkpt lat="43.94503" lon="2.21429">
        <ele>204.9</ele>
        <time>2015-08-15T07:03:31Z</time>
      </trkpt>
      <trkpt lat="43.94502" lon="2.21419">
        <ele>202.98</ele>
        <time>2015-08-15T07:03:36Z</time>
      </trkpt>
      <trkpt lat="43.94502" lon="2.21408">
        <ele>201.05</ele>
        <time>2015-08-15T07:03:41Z</time>
      </trkpt>
      <trkpt lat="43.94505" lon="2.214">
        <ele>200.09</ele>
        <time>2015-08-15T07:03:46Z</time>
      </trkpt>
      <trkpt lat="43.94509" lon="2.2139">
        <ele>200.09</ele>
        <time>2015-08-15T07:03:51Z</time>
      </trkpt>
      <trkpt lat="43.94513" lon="2.2138">
        <ele>199.61</ele>
        <time>2015-08-15T07:03:56Z</time>
      </trkpt>
      <trkpt lat="43.94517" lon="2.2137">
        <ele>199.61</ele>
        <time>2015-08-15T07:04:01Z</time>
      </trkpt>
      <trkpt lat="43.94522" lon="2.21361">
        <ele>199.61</ele>
        <time>2015-08-15T07:04:06Z</time>
      </trkpt>
      <trkpt lat="43.94526" lon="2.21351">
        <ele>199.61</ele>
        <time>2015-08-15T07:04:11Z</time>
      </trkpt>
      <trkpt lat="43.9453" lon="2.21341">
        <ele>198.65</ele>
        <time>2015-08-15T07:04:16Z</time>
      </trkpt>
      <trkpt lat="43.94533" lon="2.21329">
        <ele>197.69</ele>
        <time>2015-08-15T07:04:21Z</time>
      </trkpt>
      <trkpt lat="43.94536" lon="2.21318">
        <ele>196.73</ele>
        <time>2015-08-15T07:04:26Z</time>
      </trkpt>
      <trkpt lat="43.94539" lon="2.21309">
        <ele>195.77</ele>
        <time>2015-08-15T07:04:31Z</time>
      </trkpt>
      <trkpt lat="43.94543" lon="2.213">
        <ele>194.8</ele>
        <time>2015-08-15T07:04:36Z</time>
      </trkpt>
      <trkpt lat="43.94545" lon="2.21289">
        <ele>193.84</ele>
        <time>2015-08-15T07:04:41Z</time>
      </trkpt>
      <trkpt lat="43.94548" lon="2.21279">
        <ele>192.88</ele>
        <time>2015-08-15T07:04:46Z</time>
      </trkpt>
      <trkpt lat="43.94551" lon="2.21269">
        <ele>192.4</ele>
        <time>2015-08-15T07:04:51Z</time>
      </trkpt>
      <trkpt lat="43.94554" lon="2.21259">
        <ele>190.48</ele>
        <time>2015-08-15T07:04:56Z</time>
      </trkpt>
      <trkpt lat="43.94556" lon="2.21248">
        <ele>190</ele>
        <time>2015-08-15T07:05:01Z</time>
      </trkpt>
      <trkpt lat="43.94558" lon="2.21237">
        <ele>189.52</ele>
        <time>2015-08-15T07:05:06Z</time>
      </trkpt>
      <trkpt lat="43.9456" lon="2.21225">
        <ele>189.04</ele>
        <time>2015-08-15T07:05:11Z</time>
      </trkpt>
      <trkpt lat="43.94562" lon="2.21215">
        <ele>188.56</ele>
        <time>2015-08-15T07:05:16Z</time>
      </trkpt>
      <trkpt lat="43.94562" lon="2.21204">
        <ele>187.59</ele>
        <time>2015-08-15T07:05:21Z</time>
      </trkpt>
      <trkpt lat="43.94563" lon="2.21194">
        <ele>186.15</ele>
        <time>2015-08-15T07:05:26Z</time>
      </trkpt>
      <trkpt lat="43.94564" lon="2.21183">
        <ele>185.67</ele>
        <time>2015-08-15T07:05:31Z</time>
      </trkpt>
      <trkpt lat="43.94565" lon="2.21172">
        <ele>185.67</ele>
        <time>2015-08-15T07:05:36Z</time>
      </trkpt>
      <trkpt lat="43.94566" lon="2.21161">
        <ele>185.19</ele>
        <time>2015-08-15T07:05:41Z</time>
      </trkpt>
      <trkpt lat="43.94568" lon="2.21149">
        <ele>184.71</ele>
        <time>2015-08-15T07:05:46Z</time>
      </trkpt>
      <trkpt lat="43.94569" lon="2.21137">
        <ele>186.15</ele>
        <time>2015-08-15T07:05:51Z</time>
      </trkpt>
      <trkpt lat="43.9457" lon="2.21128">
        <ele>186.63</ele>
        <time>2015-08-15T07:05:56Z</time>
      </trkpt>
      <trkpt lat="43.94572" lon="2.21117">
        <ele>186.63</ele>
        <time>2015-08-15T07:06:01Z</time>
      </trkpt>
      <trkpt lat="43.94573" lon="2.21106">
        <ele>187.59</ele>
        <time>2015-08-15T07:06:06Z</time>
      </trkpt>
      <trkpt lat="43.94576" lon="2.21097">
        <ele>187.59</ele>
        <time>2015-08-15T07:06:11Z</time>
      </trkpt>
      <trkpt lat="43.94578" lon="2.21085">
        <ele>187.11</ele>
        <time>2015-08-15T07:06:16Z</time>
      </trkpt>
      <trkpt lat="43.9458" lon="2.21072">
        <ele>187.59</ele>
        <time>2015-08-15T07:06:21Z</time>
      </trkpt>
      <trkpt lat="43.94582" lon="2.21061">
        <ele>188.56</ele>
        <time>2015-08-15T07:06:26Z</time>
      </trkpt>
      <trkpt lat="43.94584" lon="2.21049">
        <ele>189.52</ele>
        <time>2015-08-15T07:06:31Z</time>
      </trkpt>
      <trkpt lat="43.94584" lon="2.21037">
        <ele>189.52</ele>
        <time>2015-08-15T07:06:36Z</time>
      </trkpt>
      <trkpt lat="43.94584" lon="2.21026">
        <ele>189.04</ele>
        <time>2015-08-15T07:06:41Z</time>
      </trkpt>
      <trkpt lat="43.94584" lon="2.21017">
        <ele>187.59</ele>
        <time>2015-08-15T07:06:46Z</time>
      </trkpt>
      <trkpt lat="43.94582" lon="2.21008">
        <ele>186.63</ele>
        <time>2015-08-15T07:06:51Z</time>
      </trkpt>
      <trkpt lat="43.94584" lon="2.20998">
        <ele>185.67</ele>
        <time>2015-08-15T07:06:56Z</time>
      </trkpt>
      <trkpt lat="43.94592" lon="2.20998">
        <ele>185.19</ele>
        <time>2015-08-15T07:07:01Z</time>
      </trkpt>
      <trkpt lat="43.946" lon="2.21">
        <ele>186.63</ele>
        <time>2015-08-15T07:07:06Z</time>
      </trkpt>
      <trkpt lat="43.94606" lon="2.21001">
        <ele>187.11</ele>
        <time>2015-08-15T07:07:11Z</time>
      </trkpt>
      <trkpt lat="43.94614" lon="2.21002">
        <ele>187.11</ele>
        <time>2015-08-15T07:07:16Z</time>
      </trkpt>
      <trkpt lat="43.94622" lon="2.21">
        <ele>188.08</ele>
        <time>2015-08-15T07:07:21Z</time>
      </trkpt>
      <trkpt lat="43.9463" lon="2.20999">
        <ele>188.56</ele>
        <time>2015-08-15T07:07:26Z</time>
      </trkpt>
      <trkpt lat="43.94637" lon="2.20999">
        <ele>188.56</ele>
        <time>2015-08-15T07:07:31Z</time>
      </trkpt>
      <trkpt lat="43.94645" lon="2.21001">
        <ele>188.56</ele>
        <time>2015-08-15T07:07:36Z</time>
      </trkpt>
      <trkpt lat="43.94652" lon="2.21012">
        <ele>188.56</ele>
        <time>2015-08-15T07:07:41Z</time>
      </trkpt>
      <trkpt lat="43.94658" lon="2.21015">
        <ele>187.11</ele>
        <time>2015-08-15T07:07:46Z</time>
      </trkpt>
      <trkpt lat="43.94667" lon="2.21014">
        <ele>186.63</ele>
        <time>2015-08-15T07:07:51Z</time>
      </trkpt>
      <trkpt lat="43.94675" lon="2.21014">
        <ele>187.11</ele>
        <time>2015-08-15T07:07:56Z</time>
      </trkpt>
      <trkpt lat="43.94683" lon="2.21017">
        <ele>188.08</ele>
        <time>2015-08-15T07:08:01Z</time>
      </trkpt>
      <trkpt lat="43.9469" lon="2.21022">
        <ele>187.11</ele>
        <time>2015-08-15T07:08:06Z</time>
      </trkpt>
      <trkpt lat="43.94698" lon="2.21025">
        <ele>186.63</ele>
        <time>2015-08-15T07:08:11Z</time>
      </trkpt>
      <trkpt lat="43.94706" lon="2.21028">
        <ele>187.11</ele>
        <time>2015-08-15T07:08:16Z</time>
      </trkpt>
      <trkpt lat="43.94713" lon="2.2103">
        <ele>187.11</ele>
        <time>2015-08-15T07:08:21Z</time>
      </trkpt>
      <trkpt lat="43.94723" lon="2.21035">
        <ele>186.63</ele>
        <time>2015-08-15T07:08:26Z</time>
      </trkpt>
      <trkpt lat="43.94732" lon="2.2104">
        <ele>185.19</ele>
        <time>2015-08-15T07:08:31Z</time>
      </trkpt>
      <trkpt lat="43.94737" lon="2.21049">
        <ele>183.27</ele>
        <time>2015-08-15T07:08:36Z</time>
      </trkpt>
      <trkpt lat="43.94741" lon="2.21058">
        <ele>180.87</ele>
        <time>2015-08-15T07:08:41Z</time>
      </trkpt>
      <trkpt lat="43.94746" lon="2.21065">
        <ele>178.94</ele>
        <time>2015-08-15T07:08:46Z</time>
      </trkpt>
      <trkpt lat="43.94752" lon="2.21071">
        <ele>177.98</ele>
        <time>2015-08-15T07:08:51Z</time>
      </trkpt>
      <trkpt lat="43.94758" lon="2.21078">
        <ele>177.98</ele>
        <time>2015-08-15T07:08:56Z</time>
      </trkpt>
      <trkpt lat="43.94765" lon="2.21085">
        <ele>177.98</ele>
        <time>2015-08-15T07:09:01Z</time>
      </trkpt>
      <trkpt lat="43.94773" lon="2.21091">
        <ele>179.42</ele>
        <time>2015-08-15T07:09:06Z</time>
      </trkpt>
      <trkpt lat="43.94779" lon="2.21097">
        <ele>179.9</ele>
        <time>2015-08-15T07:09:11Z</time>
      </trkpt>
      <trkpt lat="43.94786" lon="2.21103">
        <ele>179.42</ele>
        <time>2015-08-15T07:09:16Z</time>
      </trkpt>
      <trkpt lat="43.94792" lon="2.21108">
        <ele>178.94</ele>
        <time>2015-08-15T07:09:21Z</time>
      </trkpt>
      <trkpt lat="43.94797" lon="2.21112">
        <ele>177.98</ele>
        <time>2015-08-15T07:09:26Z</time>
      </trkpt>
      <trkpt lat="43.94803" lon="2.21118">
        <ele>176.54</ele>
        <time>2015-08-15T07:09:31Z</time>
      </trkpt>
      <trkpt lat="43.9481" lon="2.21125">
        <ele>175.1</ele>
        <time>2015-08-15T07:09:36Z</time>
      </trkpt>
      <trkpt lat="43.94817" lon="2.21131">
        <ele>174.62</ele>
        <time>2015-08-15T07:09:41Z</time>
      </trkpt>
      <trkpt lat="43.94825" lon="2.21137">
        <ele>176.06</ele>
        <time>2015-08-15T07:09:46Z</time>
      </trkpt>
      <trkpt lat="43.94832" lon="2.21142">
        <ele>176.54</ele>
        <time>2015-08-15T07:09:51Z</time>
      </trkpt>
      <trkpt lat="43.94839" lon="2.21147">
        <ele>176.54</ele>
        <time>2015-08-15T07:09:56Z</time>
      </trkpt>
      <trkpt lat="43.94846" lon="2.21152">
        <ele>176.06</ele>
        <time>2015-08-15T07:10:01Z</time>
      </trkpt>
      <trkpt lat="43.94853" lon="2.21157">
        <ele>176.54</ele>
        <time>2015-08-15T07:10:06Z</time>
      </trkpt>
      <trkpt lat="43.94861" lon="2.2116">
        <ele>177.5</ele>
        <time>2015-08-15T07:10:11Z</time>
      </trkpt>
      <trkpt lat="43.9487" lon="2.21165">
        <ele>179.42</ele>
        <time>2015-08-15T07:10:16Z</time>
      </trkpt>
      <trkpt lat="43.94877" lon="2.21166">
        <ele>181.83</ele>
        <time>2015-08-15T07:10:21Z</time>
      </trkpt>
      <trkpt lat="43.94885" lon="2.21168">
        <ele>183.75</ele>
        <time>2015-08-15T07:10:26Z</time>
      </trkpt>
      <trkpt lat="43.94892" lon="2.21168">
        <ele>185.67</ele>
        <time>2015-08-15T07:10:31Z</time>
      </trkpt>
      <trkpt lat="43.94899" lon="2.21168">
        <ele>187.11</ele>
        <time>2015-08-15T07:10:36Z</time>
      </trkpt>
      <trkpt lat="43.94906" lon="2.21175">
        <ele>188.08</ele>
        <time>2015-08-15T07:10:41Z</time>
      </trkpt>
      <trkpt lat="43.94912" lon="2.21181">
        <ele>188.56</ele>
        <time>2015-08-15T07:10:46Z</time>
      </trkpt>
      <trkpt lat="43.94919" lon="2.21186">
        <ele>188.08</ele>
        <time>2015-08-15T07:10:51Z</time>
      </trkpt>
      <trkpt lat="43.94926" lon="2.21189">
        <ele>188.08</ele>
        <time>2015-08-15T07:10:56Z</time>
      </trkpt>
      <trkpt lat="43.94935" lon="2.21194">
        <ele>187.59</ele>
        <time>2015-08-15T07:11:01Z</time>
      </trkpt>
      <trkpt lat="43.94943" lon="2.21198">
        <ele>187.59</ele>
        <time>2015-08-15T07:11:06Z</time>
      </trkpt>
      <trkpt lat="43.94949" lon="2.21199">
        <ele>187.11</ele>
        <time>2015-08-15T07:11:11Z</time>
      </trkpt>
      <trkpt lat="43.94956" lon="2.21203">
        <ele>186.63</ele>
        <time>2015-08-15T07:11:16Z</time>
      </trkpt>
      <trkpt lat="43.94964" lon="2.21207">
        <ele>186.15</ele>
        <time>2015-08-15T07:11:21Z</time>
      </trkpt>
      <trkpt lat="43.94971" lon="2.21211">
        <ele>186.15</ele>
        <time>2015-08-15T07:11:26Z</time>
      </trkpt>
      <trkpt lat="43.94976" lon="2.21216">
        <ele>185.67</ele>
        <time>2015-08-15T07:11:31Z</time>
      </trkpt>
      <trkpt lat="43.94982" lon="2.21221">
        <ele>184.23</ele>
        <time>2015-08-15T07:11:36Z</time>
      </trkpt>
      <trkpt lat="43.94992" lon="2.21225">
        <ele>184.23</ele>
        <time>2015-08-15T07:11:41Z</time>
      </trkpt>
      <trkpt lat="43.95" lon="2.21226">
        <ele>183.75</ele>
        <time>2015-08-15T07:11:46Z</time>
      </trkpt>
      <trkpt lat="43.95008" lon="2.21229">
        <ele>183.27</ele>
        <time>2015-08-15T07:11:51Z</time>
      </trkpt>
      <trkpt lat="43.95012" lon="2.21231">
        <ele>183.27</ele>
        <time>2015-08-15T07:11:56Z</time>
      </trkpt>
      <trkpt lat="43.95013" lon="2.21231">
        <ele>183.75</ele>
        <time>2015-08-15T07:12:01Z</time>
      </trkpt>
    </trkseg>
  </trk>
</gpx>